PWSweather.com
Personal Weather Stations
Station Observations
WOODBURYWX
Lighthouse Rd, Woodbury, Woodbury, CT 06798

Lighthouse Rd, WoodburyWoodbury, CT 06798

Lat: 41.553333, Lon: -73.224167

Elevation: 437

Station Type: Ambient Weather WS-1090

Latest ConditionsUpdated 8:41:00 PM EST Sunday, Feb 1, 2015
Currently Today's Max Today's Min Today's Average
Temperature 26.2°F-3.2°C 36.5°F2.5°C 1.2°F-17.1°C 20.0°F-6.7°C
Dew Point 15.3°F-9.3°C 16.1°F-8.8°C -9.6°F-23.1°C 4.4°F-15.3°C
Winds Calm Calm 4.6 mph N7.4 kmh N - 1.0 mph 1.6 kmh
Wind Gusts -- 8.9 mph14.3 kmh - -
Humidity 63% 64% 39% 51%
Pressure 30.12 in1020.0 mb 30.23 in1023.7 mb 30.01 in1016.3 mb -
Precipitation - 0.01 in0.3 mm - -
Hour Temp Dew Point Humidity Winds Wind Gusts Pressure Precip Precip Rate Daily Precip Total
08:41 PM 26.2°F-3.2°C 15.3°F-9.3°C 63% Calm Calm -- 30.12 in1020.0 mb 0.00 in0.0 mm 0.00 in/hr0.0 mm/hr 0.01 in0.3 mm
08:40 PM 26.2°F-3.2°C 15.3°F-9.3°C 63% Calm Calm -- 30.13 in1020.3 mb 0.00 in0.0 mm 0.00 in/hr0.0 mm/hr 0.01 in0.3 mm
08:39 PM 26.2°F-3.2°C 14.9°F-9.5°C 62% Calm Calm -- 30.12 in1020.0 mb 0.00 in0.0 mm 0.00 in/hr0.0 mm/hr 0.01 in0.3 mm
08:38 PM 26.2°F-3.2°C 14.9°F-9.5°C 62% Calm Calm -- 30.13 in1020.3 mb 0.00 in0.0 mm 0.00 in/hr0.0 mm/hr 0.01 in0.3 mm
08:37 PM 26.2°F-3.2°C 14.5°F-9.7°C 61% Calm Calm -- 30.13 in1020.3 mb 0.00 in0.0 mm 0.00 in/hr0.0 mm/hr 0.01 in0.3 mm
08:36 PM 26.2°F-3.2°C 14.5°F-9.7°C 61% Calm Calm -- 30.13 in1020.3 mb 0.00 in0.0 mm 0.00 in/hr0.0 mm/hr 0.01 in0.3 mm
08:35 PM 26.2°F-3.2°C 14.5°F-9.7°C 61% Calm Calm -- 30.12 in1020.0 mb 0.00 in0.0 mm 0.00 in/hr0.0 mm/hr 0.01 in0.3 mm
08:34 PM 26.2°F-3.2°C 14.5°F-9.7°C 61% Calm Calm -- 30.13 in1020.3 mb 0.00 in0.0 mm 0.00 in/hr0.0 mm/hr 0.01 in0.3 mm
08:33 PM 26.1°F-3.3°C 14.3°F-9.8°C 61% Calm Calm -- 30.13 in1020.3 mb 0.00 in0.0 mm 0.00 in/hr0.0 mm/hr 0.01 in0.3 mm
08:32 PM 26.1°F-3.3°C 14.3°F-9.8°C 61% Calm Calm -- 30.13 in1020.3 mb 0.00 in0.0 mm 0.00 in/hr0.0 mm/hr 0.01 in0.3 mm
08:31 PM 26.1°F-3.3°C 14.3°F-9.8°C 61% Calm Calm -- 30.13 in1020.3 mb 0.00 in0.0 mm 0.00 in/hr0.0 mm/hr 0.01 in0.3 mm
08:30 PM 26.1°F-3.3°C 14.3°F-9.8°C 61% Calm Calm -- 30.13 in1020.3 mb 0.00 in0.0 mm 0.00 in/hr0.0 mm/hr 0.01 in0.3 mm
08:29 PM 26.1°F-3.3°C 14.3°F-9.8°C 61% Calm Calm -- 30.13 in1020.3 mb 0.00 in0.0 mm 0.00 in/hr0.0 mm/hr 0.01 in0.3 mm
08:28 PM 26.1°F-3.3°C 14.3°F-9.8°C 61% Calm Calm -- 30.13 in1020.3 mb 0.00 in0.0 mm 0.00 in/hr0.0 mm/hr 0.01 in0.3 mm
08:27 PM 26.1°F-3.3°C 14.3°F-9.8°C 61% Calm Calm -- 30.13 in1020.3 mb 0.00 in0.0 mm 0.00 in/hr0.0 mm/hr 0.01 in0.3 mm
08:26 PM 26.1°F-3.3°C 13.9°F-10.1°C 60% Calm Calm -- 30.12 in1020.0 mb 0.00 in0.0 mm 0.00 in/hr0.0 mm/hr 0.01 in0.3 mm
08:25 PM 26.1°F-3.3°C 13.9°F-10.1°C 60% Calm Calm -- 30.13 in1020.3 mb 0.00 in0.0 mm 0.00 in/hr0.0 mm/hr 0.01 in0.3 mm
08:24 PM 26.1°F-3.3°C 13.9°F-10.1°C 60% Calm Calm -- 30.12 in1020.0 mb 0.00 in0.0 mm 0.00 in/hr0.0 mm/hr 0.01 in0.3 mm
08:23 PM 26.1°F-3.3°C 13.9°F-10.1°C 60% Calm Calm -- 30.13 in1020.3 mb 0.00 in0.0 mm 0.00 in/hr0.0 mm/hr 0.01 in0.3 mm
08:22 PM 26.1°F-3.3°C 13.6°F-10.2°C 59% Calm Calm -- 30.13 in1020.3 mb 0.00 in0.0 mm 0.00 in/hr0.0 mm/hr 0.01 in0.3 mm
08:21 PM 26.1°F-3.3°C 13.6°F-10.2°C 59% Calm Calm -- 30.13 in1020.3 mb 0.00 in0.0 mm 0.00 in/hr0.0 mm/hr 0.01 in0.3 mm
08:20 PM 26.1°F-3.3°C 13.9°F-10.1°C 60% Calm Calm -- 30.13 in1020.3 mb 0.00 in0.0 mm 0.00 in/hr0.0 mm/hr 0.01 in0.3 mm
08:19 PM 26.1°F-3.3°C 13.9°F-10.1°C 60% Calm Calm -- 30.13 in1020.3 mb 0.00 in0.0 mm 0.00 in/hr0.0 mm/hr 0.01 in0.3 mm
08:18 PM 26.1°F-3.3°C 13.9°F-10.1°C 60% Calm Calm -- 30.13 in1020.3 mb 0.00 in0.0 mm 0.00 in/hr0.0 mm/hr 0.01 in0.3 mm
08:17 PM 26.2°F-3.2°C 14.1°F-9.9°C 60% Calm Calm -- 30.13 in1020.3 mb 0.00 in0.0 mm 0.00 in/hr0.0 mm/hr 0.01 in0.3 mm
08:16 PM 26.2°F-3.2°C 14.1°F-9.9°C 60% Calm Calm -- 30.13 in1020.3 mb 0.00 in0.0 mm 0.00 in/hr0.0 mm/hr 0.01 in0.3 mm
08:15 PM 26.2°F-3.2°C 14.1°F-9.9°C 60% Calm Calm -- 30.13 in1020.3 mb 0.00 in0.0 mm 0.00 in/hr0.0 mm/hr 0.01 in0.3 mm
08:14 PM 26.2°F-3.2°C 14.1°F-9.9°C 60% Calm Calm -- 30.13 in1020.3 mb 0.00 in0.0 mm 0.00 in/hr0.0 mm/hr 0.01 in0.3 mm
08:13 PM 26.2°F-3.2°C 14.1°F-9.9°C 60% Calm Calm -- 30.13 in1020.3 mb 0.00 in0.0 mm 0.00 in/hr0.0 mm/hr 0.01 in0.3 mm
08:12 PM 26.2°F-3.2°C 14.1°F-9.9°C 60% Calm Calm -- 30.13 in1020.3 mb 0.00 in0.0 mm 0.00 in/hr0.0 mm/hr 0.01 in0.3 mm
08:11 PM 26.2°F-3.2°C 14.1°F-9.9°C 60% Calm Calm -- 30.13 in1020.3 mb 0.00 in0.0 mm 0.00 in/hr0.0 mm/hr 0.01 in0.3 mm
08:10 PM 26.1°F-3.3°C 13.9°F-10.1°C 60% Calm Calm -- 30.13 in1020.3 mb 0.00 in0.0 mm 0.00 in/hr0.0 mm/hr 0.01 in0.3 mm
08:09 PM 26.1°F-3.3°C 13.9°F-10.1°C 60% Calm Calm -- 30.13 in1020.3 mb 0.00 in0.0 mm 0.00 in/hr0.0 mm/hr 0.01 in0.3 mm
08:08 PM 26.1°F-3.3°C 13.9°F-10.1°C 60% Calm Calm -- 30.13 in1020.3 mb 0.00 in0.0 mm 0.00 in/hr0.0 mm/hr 0.01 in0.3 mm
08:07 PM 26.1°F-3.3°C 13.9°F-10.1°C 60% Calm Calm -- 30.12 in1020.0 mb 0.00 in0.0 mm 0.00 in/hr0.0 mm/hr 0.01 in0.3 mm
08:06 PM 26.1°F-3.3°C 13.6°F-10.2°C 59% Calm Calm -- 30.12 in1020.0 mb 0.00 in0.0 mm 0.00 in/hr0.0 mm/hr 0.01 in0.3 mm
08:05 PM 26.1°F-3.3°C 13.6°F-10.2°C 59% Calm Calm -- 30.12 in1020.0 mb 0.00 in0.0 mm 0.00 in/hr0.0 mm/hr 0.01 in0.3 mm
08:04 PM 26.1°F-3.3°C 13.6°F-10.2°C 59% Calm Calm -- 30.12 in1020.0 mb 0.00 in0.0 mm 0.00 in/hr0.0 mm/hr 0.01 in0.3 mm
08:03 PM 26.1°F-3.3°C 13.6°F-10.2°C 59% Calm Calm -- 30.12 in1020.0 mb 0.00 in0.0 mm 0.00 in/hr0.0 mm/hr 0.01 in0.3 mm
08:02 PM 26.1°F-3.3°C 13.6°F-10.2°C 59% Calm Calm -- 30.13 in1020.3 mb 0.00 in0.0 mm 0.00 in/hr0.0 mm/hr 0.01 in0.3 mm
08:01 PM 26.1°F-3.3°C 13.6°F-10.2°C 59% Calm Calm -- 30.12 in1020.0 mb 0.00 in0.0 mm 0.00 in/hr0.0 mm/hr 0.01 in0.3 mm
08:00 PM 26.1°F-3.3°C 13.6°F-10.2°C 59% Calm Calm -- 30.13 in1020.3 mb 0.00 in0.0 mm 0.00 in/hr0.0 mm/hr 0.01 in0.3 mm
07:59 PM 26.1°F-3.3°C 13.6°F-10.2°C 59% Calm Calm -- 30.12 in1020.0 mb 0.00 in0.0 mm 0.00 in/hr0.0 mm/hr 0.01 in0.3 mm
07:58 PM 26.1°F-3.3°C 13.6°F-10.2°C 59% Calm Calm -- 30.12 in1020.0 mb 0.00 in0.0 mm 0.00 in/hr0.0 mm/hr 0.01 in0.3 mm
07:57 PM 26.1°F-3.3°C 13.6°F-10.2°C 59% Calm Calm -- 30.13 in1020.3 mb 0.00 in0.0 mm 0.00 in/hr0.0 mm/hr 0.01 in0.3 mm
07:56 PM 26.1°F-3.3°C 13.6°F-10.2°C 59% Calm Calm -- 30.13 in1020.3 mb 0.00 in0.0 mm 0.00 in/hr0.0 mm/hr 0.01 in0.3 mm
07:55 PM 26.1°F-3.3°C 13.6°F-10.2°C 59% Calm Calm -- 30.13 in1020.3 mb 0.00 in0.0 mm 0.00 in/hr0.0 mm/hr 0.01 in0.3 mm
07:54 PM 26.1°F-3.3°C 13.6°F-10.2°C 59% Calm Calm -- 30.13 in1020.3 mb 0.00 in0.0 mm 0.00 in/hr0.0 mm/hr 0.01 in0.3 mm
07:53 PM 26.2°F-3.2°C 13.7°F-10.2°C 59% Calm Calm -- 30.13 in1020.3 mb 0.00 in0.0 mm 0.00 in/hr0.0 mm/hr 0.01 in0.3 mm
07:52 PM 26.2°F-3.2°C 13.7°F-10.2°C 59% Calm Calm -- 30.13 in1020.3 mb 0.00 in0.0 mm 0.00 in/hr0.0 mm/hr 0.01 in0.3 mm
07:51 PM 26.2°F-3.2°C 13.7°F-10.2°C 59% Calm Calm -- 30.13 in1020.3 mb 0.00 in0.0 mm 0.00 in/hr0.0 mm/hr 0.01 in0.3 mm
07:50 PM 26.2°F-3.2°C 13.7°F-10.2°C 59% Calm Calm -- 30.12 in1020.0 mb 0.00 in0.0 mm 0.00 in/hr0.0 mm/hr 0.01 in0.3 mm
07:49 PM 26.4°F-3.1°C 13.9°F-10.1°C 59% Calm Calm -- 30.12 in1020.0 mb 0.00 in0.0 mm 0.00 in/hr0.0 mm/hr 0.01 in0.3 mm
07:48 PM 26.4°F-3.1°C 13.9°F-10.1°C 59% Calm Calm -- 30.13 in1020.3 mb 0.00 in0.0 mm 0.00 in/hr0.0 mm/hr 0.01 in0.3 mm
07:47 PM 26.4°F-3.1°C 13.9°F-10.1°C 59% Calm Calm -- 30.12 in1020.0 mb 0.00 in0.0 mm 0.00 in/hr0.0 mm/hr 0.01 in0.3 mm
07:46 PM 26.4°F-3.1°C 13.9°F-10.1°C 59% Calm Calm -- 30.12 in1020.0 mb 0.00 in0.0 mm 0.00 in/hr0.0 mm/hr 0.01 in0.3 mm
07:45 PM 26.4°F-3.1°C 13.9°F-10.1°C 59% Calm Calm -- 30.13 in1020.3 mb 0.00 in0.0 mm 0.00 in/hr0.0 mm/hr 0.01 in0.3 mm
07:44 PM 26.6°F-3.0°C 13.6°F-10.2°C 58% Calm Calm -- 30.12 in1020.0 mb 0.00 in0.0 mm 0.00 in/hr0.0 mm/hr 0.01 in0.3 mm
07:43 PM 26.4°F-3.1°C 13.9°F-10.1°C 59% Calm Calm -- 30.12 in1020.0 mb 0.00 in0.0 mm 0.00 in/hr0.0 mm/hr 0.01 in0.3 mm
07:42 PM 26.4°F-3.1°C 13.9°F-10.1°C 59% Calm Calm -- 30.12 in1020.0 mb 0.00 in0.0 mm 0.00 in/hr0.0 mm/hr 0.01 in0.3 mm
07:41 PM 26.2°F-3.2°C 13.7°F-10.2°C 59% Calm Calm -- 30.12 in1020.0 mb 0.00 in0.0 mm 0.00 in/hr0.0 mm/hr 0.01 in0.3 mm
07:40 PM 26.2°F-3.2°C 13.7°F-10.2°C 59% Calm Calm -- 30.12 in1020.0 mb 0.00 in0.0 mm 0.00 in/hr0.0 mm/hr 0.01 in0.3 mm
07:39 PM 26.2°F-3.2°C 13.7°F-10.2°C 59% Calm Calm -- 30.12 in1020.0 mb 0.00 in0.0 mm 0.00 in/hr0.0 mm/hr 0.01 in0.3 mm
07:38 PM 26.2°F-3.2°C 13.3°F-10.4°C 58% Calm Calm -- 30.12 in1020.0 mb 0.00 in0.0 mm 0.00 in/hr0.0 mm/hr 0.01 in0.3 mm
07:37 PM 26.2°F-3.2°C 13.3°F-10.4°C 58% Calm Calm -- 30.12 in1020.0 mb 0.00 in0.0 mm 0.00 in/hr0.0 mm/hr 0.01 in0.3 mm
07:36 PM 26.2°F-3.2°C 12.9°F-10.6°C 57% Calm Calm -- 30.12 in1020.0 mb 0.00 in0.0 mm 0.00 in/hr0.0 mm/hr 0.01 in0.3 mm
07:35 PM 26.2°F-3.2°C 12.9°F-10.6°C 57% Calm Calm -- 30.11 in1019.6 mb 0.00 in0.0 mm 0.00 in/hr0.0 mm/hr 0.01 in0.3 mm
07:34 PM 26.2°F-3.2°C 12.9°F-10.6°C 57% Calm Calm -- 30.11 in1019.6 mb 0.00 in0.0 mm 0.00 in/hr0.0 mm/hr 0.01 in0.3 mm
07:33 PM 26.2°F-3.2°C 12.9°F-10.6°C 57% Calm Calm -- 30.12 in1020.0 mb 0.00 in0.0 mm 0.00 in/hr0.0 mm/hr 0.01 in0.3 mm
07:32 PM 26.2°F-3.2°C 12.9°F-10.6°C 57% Calm Calm -- 30.11 in1019.6 mb 0.00 in0.0 mm 0.00 in/hr0.0 mm/hr 0.01 in0.3 mm
07:31 PM 26.2°F-3.2°C 12.5°F-10.8°C 56% Calm Calm -- 30.12 in1020.0 mb 0.00 in0.0 mm 0.00 in/hr0.0 mm/hr 0.01 in0.3 mm
07:30 PM 26.4°F-3.1°C 12.6°F-10.8°C 56% Calm Calm -- 30.12 in1020.0 mb 0.00 in0.0 mm 0.00 in/hr0.0 mm/hr 0.01 in0.3 mm
07:29 PM 26.4°F-3.1°C 12.6°F-10.8°C 56% Calm Calm -- 30.12 in1020.0 mb 0.00 in0.0 mm 0.00 in/hr0.0 mm/hr 0.01 in0.3 mm
07:28 PM 26.4°F-3.1°C 12.2°F-11.0°C 55% Calm Calm -- 30.11 in1019.6 mb 0.00 in0.0 mm 0.00 in/hr0.0 mm/hr 0.01 in0.3 mm
07:27 PM 26.4°F-3.1°C 12.2°F-11.0°C 55% Calm Calm -- 30.11 in1019.6 mb 0.00 in0.0 mm 0.00 in/hr0.0 mm/hr 0.01 in0.3 mm
07:26 PM 26.6°F-3.0°C 11.9°F-11.2°C 54% Calm Calm -- 30.11 in1019.6 mb 0.00 in0.0 mm 0.00 in/hr0.0 mm/hr 0.01 in0.3 mm
07:25 PM 26.6°F-3.0°C 11.5°F-11.4°C 53% Calm Calm -- 30.12 in1020.0 mb 0.00 in0.0 mm 0.00 in/hr0.0 mm/hr 0.01 in0.3 mm
07:24 PM 26.8°F-2.9°C 11.7°F-11.3°C 53% Calm Calm -- 30.11 in1019.6 mb 0.00 in0.0 mm 0.00 in/hr0.0 mm/hr 0.01 in0.3 mm
07:23 PM 26.8°F-2.9°C 11.7°F-11.3°C 53% Calm Calm -- 30.12 in1020.0 mb 0.00 in0.0 mm 0.00 in/hr0.0 mm/hr 0.01 in0.3 mm
07:22 PM 27.0°F-2.8°C 11.8°F-11.2°C 53% Calm Calm -- 30.11 in1019.6 mb 0.00 in0.0 mm 0.00 in/hr0.0 mm/hr 0.01 in0.3 mm
07:21 PM 27.0°F-2.8°C 11.8°F-11.2°C 53% Calm Calm -- 30.11 in1019.6 mb 0.00 in0.0 mm 0.00 in/hr0.0 mm/hr 0.01 in0.3 mm
07:20 PM 27.1°F-2.7°C 12.0°F-11.1°C 53% Calm Calm -- 30.11 in1019.6 mb 0.00 in0.0 mm 0.00 in/hr0.0 mm/hr 0.01 in0.3 mm
07:19 PM 27.1°F-2.7°C 12.4°F-10.9°C 54% Calm Calm -- 30.12 in1020.0 mb 0.00 in0.0 mm 0.00 in/hr0.0 mm/hr 0.01 in0.3 mm
07:18 PM 27.1°F-2.7°C 12.4°F-10.9°C 54% Calm Calm -- 30.12 in1020.0 mb 0.00 in0.0 mm 0.00 in/hr0.0 mm/hr 0.01 in0.3 mm
07:17 PM 27.1°F-2.7°C 12.4°F-10.9°C 54% Calm Calm -- 30.12 in1020.0 mb 0.00 in0.0 mm 0.00 in/hr0.0 mm/hr 0.01 in0.3 mm
07:16 PM 27.1°F-2.7°C 12.4°F-10.9°C 54% Calm Calm -- 30.12 in1020.0 mb 0.00 in0.0 mm 0.00 in/hr0.0 mm/hr 0.01 in0.3 mm
07:15 PM 27.1°F-2.7°C 12.4°F-10.9°C 54% Calm Calm -- 30.12 in1020.0 mb 0.00 in0.0 mm 0.00 in/hr0.0 mm/hr 0.01 in0.3 mm
07:14 PM 27.1°F-2.7°C 12.4°F-10.9°C 54% Calm Calm -- 30.12 in1020.0 mb 0.00 in0.0 mm 0.00 in/hr0.0 mm/hr 0.01 in0.3 mm
07:13 PM 27.1°F-2.7°C 12.0°F-11.1°C 53% Calm Calm -- 30.12 in1020.0 mb 0.00 in0.0 mm 0.00 in/hr0.0 mm/hr 0.01 in0.3 mm
07:12 PM 27.1°F-2.7°C 12.0°F-11.1°C 53% Calm Calm -- 30.12 in1020.0 mb 0.00 in0.0 mm 0.00 in/hr0.0 mm/hr 0.01 in0.3 mm
07:11 PM 27.1°F-2.7°C 12.0°F-11.1°C 53% Calm Calm -- 30.11 in1019.6 mb 0.00 in0.0 mm 0.00 in/hr0.0 mm/hr 0.01 in0.3 mm
07:10 PM 27.3°F-2.6°C 12.2°F-11.0°C 53% Calm Calm -- 30.11 in1019.6 mb 0.00 in0.0 mm 0.00 in/hr0.0 mm/hr 0.01 in0.3 mm
07:09 PM 27.1°F-2.7°C 12.0°F-11.1°C 53% Calm Calm -- 30.12 in1020.0 mb 0.00 in0.0 mm 0.00 in/hr0.0 mm/hr 0.01 in0.3 mm
07:08 PM 27.3°F-2.6°C 12.2°F-11.0°C 53% Calm Calm -- 30.12 in1020.0 mb 0.00 in0.0 mm 0.00 in/hr0.0 mm/hr 0.01 in0.3 mm
07:07 PM 27.1°F-2.7°C 12.0°F-11.1°C 53% Calm Calm -- 30.12 in1020.0 mb 0.00 in0.0 mm 0.00 in/hr0.0 mm/hr 0.01 in0.3 mm
07:06 PM 27.1°F-2.7°C 12.0°F-11.1°C 53% Calm Calm -- 30.12 in1020.0 mb 0.00 in0.0 mm 0.00 in/hr0.0 mm/hr 0.01 in0.3 mm
07:05 PM 27.1°F-2.7°C 12.0°F-11.1°C 53% Calm Calm -- 30.12 in1020.0 mb 0.00 in0.0 mm 0.00 in/hr0.0 mm/hr 0.01 in0.3 mm
07:04 PM 27.0°F-2.8°C 11.8°F-11.2°C 53% Calm Calm -- 30.12 in1020.0 mb 0.00 in0.0 mm 0.00 in/hr0.0 mm/hr 0.01 in0.3 mm
07:03 PM 27.0°F-2.8°C 11.8°F-11.2°C 53% Calm Calm -- 30.12 in1020.0 mb 0.00 in0.0 mm 0.00 in/hr0.0 mm/hr 0.01 in0.3 mm
07:02 PM 26.6°F-3.0°C 11.5°F-11.4°C 53% Calm Calm -- 30.12 in1020.0 mb 0.00 in0.0 mm 0.00 in/hr0.0 mm/hr 0.01 in0.3 mm
07:01 PM 26.6°F-3.0°C 11.1°F-11.6°C 52% Calm Calm -- 30.12 in1020.0 mb 0.00 in0.0 mm 0.00 in/hr0.0 mm/hr 0.01 in0.3 mm
07:00 PM 26.6°F-3.0°C 11.1°F-11.6°C 52% Calm Calm -- 30.12 in1020.0 mb 0.00 in0.0 mm 0.00 in/hr0.0 mm/hr 0.01 in0.3 mm
06:59 PM 26.6°F-3.0°C 11.1°F-11.6°C 52% Calm Calm -- 30.13 in1020.3 mb 0.00 in0.0 mm 0.00 in/hr0.0 mm/hr 0.01 in0.3 mm
06:58 PM 26.8°F-2.9°C 11.2°F-11.6°C 52% Calm Calm -- 30.12 in1020.0 mb 0.00 in0.0 mm 0.00 in/hr0.0 mm/hr 0.01 in0.3 mm
06:57 PM 26.8°F-2.9°C 11.2°F-11.6°C 52% Calm Calm -- 30.12 in1020.0 mb 0.00 in0.0 mm 0.00 in/hr0.0 mm/hr 0.01 in0.3 mm
06:56 PM 27.0°F-2.8°C 11.4°F-11.4°C 52% Calm Calm -- 30.12 in1020.0 mb 0.00 in0.0 mm 0.00 in/hr0.0 mm/hr 0.01 in0.3 mm
06:55 PM 27.0°F-2.8°C 11.4°F-11.4°C 52% Calm Calm -- 30.13 in1020.3 mb 0.00 in0.0 mm 0.00 in/hr0.0 mm/hr 0.01 in0.3 mm
06:54 PM 26.8°F-2.9°C 10.8°F-11.8°C 51% Calm Calm -- 30.12 in1020.0 mb 0.00 in0.0 mm 0.00 in/hr0.0 mm/hr 0.01 in0.3 mm
06:53 PM 26.6°F-3.0°C 10.6°F-11.9°C 51% Calm Calm -- 30.13 in1020.3 mb 0.00 in0.0 mm 0.00 in/hr0.0 mm/hr 0.01 in0.3 mm
06:52 PM 26.6°F-3.0°C 10.6°F-11.9°C 51% Calm Calm -- 30.13 in1020.3 mb 0.00 in0.0 mm 0.00 in/hr0.0 mm/hr 0.01 in0.3 mm
06:51 PM 26.8°F-2.9°C 10.8°F-11.8°C 51% Calm Calm -- 30.13 in1020.3 mb 0.00 in0.0 mm 0.00 in/hr0.0 mm/hr 0.01 in0.3 mm
06:50 PM 26.8°F-2.9°C 10.8°F-11.8°C 51% Calm Calm -- 30.13 in1020.3 mb 0.00 in0.0 mm 0.00 in/hr0.0 mm/hr 0.01 in0.3 mm
06:49 PM 27.0°F-2.8°C 10.9°F-11.7°C 51% Calm Calm -- 30.13 in1020.3 mb 0.00 in0.0 mm 0.00 in/hr0.0 mm/hr 0.01 in0.3 mm
06:48 PM 27.0°F-2.8°C 10.9°F-11.7°C 51% Calm Calm -- 30.13 in1020.3 mb 0.00 in0.0 mm 0.00 in/hr0.0 mm/hr 0.01 in0.3 mm
06:47 PM 27.0°F-2.8°C 10.9°F-11.7°C 51% Calm Calm -- 30.13 in1020.3 mb 0.00 in0.0 mm 0.00 in/hr0.0 mm/hr 0.01 in0.3 mm
06:46 PM 27.1°F-2.7°C 11.1°F-11.6°C 51% Calm Calm -- 30.13 in1020.3 mb 0.00 in0.0 mm 0.00 in/hr0.0 mm/hr 0.01 in0.3 mm
06:45 PM 27.1°F-2.7°C 11.1°F-11.6°C 51% Calm Calm -- 30.13 in1020.3 mb 0.00 in0.0 mm 0.00 in/hr0.0 mm/hr 0.01 in0.3 mm
06:44 PM 27.1°F-2.7°C 11.1°F-11.6°C 51% Calm Calm -- 30.13 in1020.3 mb 0.00 in0.0 mm 0.00 in/hr0.0 mm/hr 0.01 in0.3 mm
06:43 PM 27.3°F-2.6°C 11.2°F-11.6°C 51% Calm Calm -- 30.13 in1020.3 mb 0.00 in0.0 mm 0.00 in/hr0.0 mm/hr 0.01 in0.3 mm
06:42 PM 27.3°F-2.6°C 10.8°F-11.8°C 50% Calm Calm -- 30.13 in1020.3 mb 0.00 in0.0 mm 0.00 in/hr0.0 mm/hr 0.01 in0.3 mm
06:41 PM 27.5°F-2.5°C 10.9°F-11.7°C 50% Calm Calm -- 30.13 in1020.3 mb 0.00 in0.0 mm 0.00 in/hr0.0 mm/hr 0.01 in0.3 mm
06:40 PM 27.5°F-2.5°C 10.9°F-11.7°C 50% Calm Calm -- 30.13 in1020.3 mb 0.00 in0.0 mm 0.00 in/hr0.0 mm/hr 0.01 in0.3 mm
06:39 PM 27.7°F-2.4°C 11.1°F-11.6°C 50% Calm Calm -- 30.13 in1020.3 mb 0.00 in0.0 mm 0.00 in/hr0.0 mm/hr 0.01 in0.3 mm
06:38 PM 27.9°F-2.3°C 11.3°F-11.5°C 50% Calm Calm -- 30.13 in1020.3 mb 0.00 in0.0 mm 0.00 in/hr0.0 mm/hr 0.01 in0.3 mm
06:37 PM 27.9°F-2.3°C 11.3°F-11.5°C 50% Calm Calm -- 30.13 in1020.3 mb 0.00 in0.0 mm 0.00 in/hr0.0 mm/hr 0.01 in0.3 mm
06:36 PM 27.9°F-2.3°C 11.3°F-11.5°C 50% Calm Calm -- 30.13 in1020.3 mb 0.00 in0.0 mm 0.00 in/hr0.0 mm/hr 0.01 in0.3 mm
06:35 PM 27.9°F-2.3°C 11.3°F-11.5°C 50% Calm Calm -- 30.13 in1020.3 mb 0.00 in0.0 mm 0.00 in/hr0.0 mm/hr 0.01 in0.3 mm
06:34 PM 27.7°F-2.4°C 11.6°F-11.3°C 51% Calm Calm -- 30.13 in1020.3 mb 0.00 in0.0 mm 0.00 in/hr0.0 mm/hr 0.01 in0.3 mm
06:33 PM 27.9°F-2.3°C 11.7°F-11.3°C 51% Calm Calm -- 30.13 in1020.3 mb 0.00 in0.0 mm 0.00 in/hr0.0 mm/hr 0.01 in0.3 mm
06:32 PM 27.9°F-2.3°C 11.7°F-11.3°C 51% Calm Calm -- 30.13 in1020.3 mb 0.00 in0.0 mm 0.00 in/hr0.0 mm/hr 0.01 in0.3 mm
06:31 PM 27.9°F-2.3°C 11.7°F-11.3°C 51% Calm Calm -- 30.13 in1020.3 mb 0.00 in0.0 mm 0.00 in/hr0.0 mm/hr 0.01 in0.3 mm
06:30 PM 28.0°F-2.2°C 11.9°F-11.2°C 51% Calm Calm -- 30.13 in1020.3 mb 0.00 in0.0 mm 0.00 in/hr0.0 mm/hr 0.01 in0.3 mm
06:29 PM 28.0°F-2.2°C 11.9°F-11.2°C 51% Calm Calm -- 30.13 in1020.3 mb 0.00 in0.0 mm 0.00 in/hr0.0 mm/hr 0.01 in0.3 mm
06:28 PM 28.0°F-2.2°C 11.9°F-11.2°C 51% Calm Calm -- 30.13 in1020.3 mb 0.00 in0.0 mm 0.00 in/hr0.0 mm/hr 0.01 in0.3 mm
06:27 PM 28.0°F-2.2°C 11.9°F-11.2°C 51% Calm Calm -- 30.13 in1020.3 mb 0.00 in0.0 mm 0.00 in/hr0.0 mm/hr 0.01 in0.3 mm
06:26 PM 27.9°F-2.3°C 12.2°F-11.0°C 52% Calm Calm -- 30.13 in1020.3 mb 0.00 in0.0 mm 0.00 in/hr0.0 mm/hr 0.01 in0.3 mm
06:25 PM 27.7°F-2.4°C 12.0°F-11.1°C 52% Calm Calm -- 30.12 in1020.0 mb 0.00 in0.0 mm 0.00 in/hr0.0 mm/hr 0.01 in0.3 mm
06:24 PM 27.5°F-2.5°C 11.9°F-11.2°C 52% Calm Calm -- 30.13 in1020.3 mb 0.00 in0.0 mm 0.00 in/hr0.0 mm/hr 0.01 in0.3 mm
06:23 PM 27.7°F-2.4°C 12.0°F-11.1°C 52% Calm Calm -- 30.13 in1020.3 mb 0.00 in0.0 mm 0.00 in/hr0.0 mm/hr 0.01 in0.3 mm
06:22 PM 27.7°F-2.4°C 12.0°F-11.1°C 52% Calm Calm -- 30.13 in1020.3 mb 0.00 in0.0 mm 0.00 in/hr0.0 mm/hr 0.01 in0.3 mm
06:21 PM 27.9°F-2.3°C 12.2°F-11.0°C 52% Calm Calm -- 30.13 in1020.3 mb 0.00 in0.0 mm 0.00 in/hr0.0 mm/hr 0.01 in0.3 mm
06:20 PM 27.9°F-2.3°C 12.2°F-11.0°C 52% Calm Calm -- 30.13 in1020.3 mb 0.00 in0.0 mm 0.00 in/hr0.0 mm/hr 0.01 in0.3 mm
06:19 PM 27.9°F-2.3°C 12.2°F-11.0°C 52% Calm Calm -- 30.13 in1020.3 mb 0.00 in0.0 mm 0.00 in/hr0.0 mm/hr 0.01 in0.3 mm
06:18 PM 27.9°F-2.3°C 12.2°F-11.0°C 52% Calm Calm -- 30.12 in1020.0 mb 0.00 in0.0 mm 0.00 in/hr0.0 mm/hr 0.01 in0.3 mm
06:17 PM 27.9°F-2.3°C 12.2°F-11.0°C 52% Calm Calm -- 30.13 in1020.3 mb 0.00 in0.0 mm 0.00 in/hr0.0 mm/hr 0.01 in0.3 mm
06:16 PM 27.7°F-2.4°C 11.6°F-11.3°C 51% Calm Calm -- 30.13 in1020.3 mb 0.00 in0.0 mm 0.00 in/hr0.0 mm/hr 0.01 in0.3 mm
06:15 PM 27.7°F-2.4°C 11.6°F-11.3°C 51% Calm Calm -- 30.12 in1020.0 mb 0.00 in0.0 mm 0.00 in/hr0.0 mm/hr 0.01 in0.3 mm
06:14 PM 27.7°F-2.4°C 11.6°F-11.3°C 51% Calm Calm -- 30.12 in1020.0 mb 0.00 in0.0 mm 0.00 in/hr0.0 mm/hr 0.01 in0.3 mm
06:13 PM 27.7°F-2.4°C 11.6°F-11.3°C 51% Calm Calm -- 30.12 in1020.0 mb 0.00 in0.0 mm 0.00 in/hr0.0 mm/hr 0.01 in0.3 mm
06:12 PM 27.9°F-2.3°C 11.7°F-11.3°C 51% Calm Calm -- 30.12 in1020.0 mb 0.00 in0.0 mm 0.00 in/hr0.0 mm/hr 0.01 in0.3 mm
06:11 PM 27.9°F-2.3°C 11.7°F-11.3°C 51% Calm Calm -- 30.12 in1020.0 mb 0.00 in0.0 mm 0.00 in/hr0.0 mm/hr 0.01 in0.3 mm
06:10 PM 28.0°F-2.2°C 11.9°F-11.2°C 51% Calm Calm -- 30.11 in1019.6 mb 0.00 in0.0 mm 0.00 in/hr0.0 mm/hr 0.01 in0.3 mm
06:09 PM 27.9°F-2.3°C 11.7°F-11.3°C 51% Calm Calm -- 30.12 in1020.0 mb 0.00 in0.0 mm 0.00 in/hr0.0 mm/hr 0.01 in0.3 mm
06:08 PM 27.9°F-2.3°C 11.7°F-11.3°C 51% Calm Calm -- 30.13 in1020.3 mb 0.00 in0.0 mm 0.00 in/hr0.0 mm/hr 0.01 in0.3 mm
06:07 PM 28.0°F-2.2°C 11.9°F-11.2°C 51% Calm Calm -- 30.13 in1020.3 mb 0.00 in0.0 mm 0.00 in/hr0.0 mm/hr 0.01 in0.3 mm
06:06 PM 28.0°F-2.2°C 11.9°F-11.2°C 51% Calm Calm -- 30.12 in1020.0 mb 0.00 in0.0 mm 0.00 in/hr0.0 mm/hr 0.01 in0.3 mm
06:05 PM 28.0°F-2.2°C 11.9°F-11.2°C 51% Calm Calm -- 30.13 in1020.3 mb 0.00 in0.0 mm 0.00 in/hr0.0 mm/hr 0.01 in0.3 mm
06:04 PM 27.9°F-2.3°C 11.7°F-11.3°C 51% Calm Calm -- 30.12 in1020.0 mb 0.00 in0.0 mm 0.00 in/hr0.0 mm/hr 0.01 in0.3 mm
06:03 PM 27.7°F-2.4°C 11.6°F-11.3°C 51% Calm Calm -- 30.11 in1019.6 mb 0.00 in0.0 mm 0.00 in/hr0.0 mm/hr 0.01 in0.3 mm
06:02 PM 27.7°F-2.4°C 12.0°F-11.1°C 52% Calm Calm -- 30.12 in1020.0 mb 0.00 in0.0 mm 0.00 in/hr0.0 mm/hr 0.01 in0.3 mm
06:01 PM 27.7°F-2.4°C 12.0°F-11.1°C 52% Calm Calm -- 30.12 in1020.0 mb 0.00 in0.0 mm 0.00 in/hr0.0 mm/hr 0.01 in0.3 mm
06:00 PM 27.7°F-2.4°C 12.0°F-11.1°C 52% Calm Calm -- 30.11 in1019.6 mb 0.00 in0.0 mm 0.00 in/hr0.0 mm/hr 0.01 in0.3 mm
05:59 PM 27.9°F-2.3°C 11.7°F-11.3°C 51% Calm Calm -- 30.11 in1019.6 mb 0.00 in0.0 mm 0.00 in/hr0.0 mm/hr 0.01 in0.3 mm
05:58 PM 27.9°F-2.3°C 11.7°F-11.3°C 51% Calm Calm -- 30.11 in1019.6 mb 0.00 in0.0 mm 0.00 in/hr0.0 mm/hr 0.01 in0.3 mm
05:57 PM 28.0°F-2.2°C 11.9°F-11.2°C 51% Calm Calm -- 30.11 in1019.6 mb 0.00 in0.0 mm 0.00 in/hr0.0 mm/hr 0.01 in0.3 mm
05:56 PM 28.2°F-2.1°C 12.1°F-11.1°C 51% Calm Calm -- 30.11 in1019.6 mb 0.00 in0.0 mm 0.00 in/hr0.0 mm/hr 0.01 in0.3 mm
05:55 PM 28.2°F-2.1°C 12.1°F-11.1°C 51% Calm Calm -- 30.11 in1019.6 mb 0.00 in0.0 mm 0.00 in/hr0.0 mm/hr 0.01 in0.3 mm
05:54 PM 28.2°F-2.1°C 12.1°F-11.1°C 51% Calm Calm -- 30.11 in1019.6 mb 0.00 in0.0 mm 0.00 in/hr0.0 mm/hr 0.01 in0.3 mm
05:53 PM 28.2°F-2.1°C 12.1°F-11.1°C 51% Calm Calm -- 30.11 in1019.6 mb 0.00 in0.0 mm 0.00 in/hr0.0 mm/hr 0.01 in0.3 mm
05:52 PM 28.2°F-2.1°C 12.1°F-11.1°C 51% Calm Calm -- 30.11 in1019.6 mb 0.00 in0.0 mm 0.00 in/hr0.0 mm/hr 0.01 in0.3 mm
05:51 PM 28.0°F-2.2°C 12.4°F-10.9°C 52% Calm Calm -- 30.11 in1019.6 mb 0.00 in0.0 mm 0.00 in/hr0.0 mm/hr 0.01 in0.3 mm
05:50 PM 28.2°F-2.1°C 12.5°F-10.8°C 52% Calm Calm -- 30.11 in1019.6 mb 0.00 in0.0 mm 0.00 in/hr0.0 mm/hr 0.01 in0.3 mm
05:49 PM 28.2°F-2.1°C 12.5°F-10.8°C 52% Calm Calm -- 30.11 in1019.6 mb 0.00 in0.0 mm 0.00 in/hr0.0 mm/hr 0.01 in0.3 mm
05:48 PM 28.2°F-2.1°C 12.5°F-10.8°C 52% Calm Calm -- 30.11 in1019.6 mb 0.00 in0.0 mm 0.00 in/hr0.0 mm/hr 0.01 in0.3 mm
05:47 PM 28.0°F-2.2°C 12.4°F-10.9°C 52% Calm Calm -- 30.11 in1019.6 mb 0.00 in0.0 mm 0.00 in/hr0.0 mm/hr 0.01 in0.3 mm
05:46 PM 28.0°F-2.2°C 12.4°F-10.9°C 52% Calm Calm -- 30.11 in1019.6 mb 0.00 in0.0 mm 0.00 in/hr0.0 mm/hr 0.01 in0.3 mm
05:45 PM 28.0°F-2.2°C 12.4°F-10.9°C 52% Calm Calm -- 30.11 in1019.6 mb 0.00 in0.0 mm 0.00 in/hr0.0 mm/hr 0.01 in0.3 mm
05:44 PM 28.0°F-2.2°C 12.4°F-10.9°C 52% Calm Calm -- 30.11 in1019.6 mb 0.00 in0.0 mm 0.00 in/hr0.0 mm/hr 0.01 in0.3 mm
05:43 PM 28.0°F-2.2°C 12.4°F-10.9°C 52% Calm Calm -- 30.11 in1019.6 mb 0.00 in0.0 mm 0.00 in/hr0.0 mm/hr 0.01 in0.3 mm
05:42 PM 28.0°F-2.2°C 11.9°F-11.2°C 51% Calm Calm -- 30.11 in1019.6 mb 0.00 in0.0 mm 0.00 in/hr0.0 mm/hr 0.01 in0.3 mm
05:41 PM 28.0°F-2.2°C 11.9°F-11.2°C 51% Calm Calm -- 30.11 in1019.6 mb 0.00 in0.0 mm 0.00 in/hr0.0 mm/hr 0.01 in0.3 mm
05:40 PM 28.0°F-2.2°C 11.9°F-11.2°C 51% Calm Calm -- 30.11 in1019.6 mb 0.00 in0.0 mm 0.00 in/hr0.0 mm/hr 0.01 in0.3 mm
05:39 PM 28.0°F-2.2°C 11.9°F-11.2°C 51% Calm Calm -- 30.11 in1019.6 mb 0.00 in0.0 mm 0.00 in/hr0.0 mm/hr 0.01 in0.3 mm
05:38 PM 28.0°F-2.2°C 11.9°F-11.2°C 51% Calm Calm -- 30.11 in1019.6 mb 0.00 in0.0 mm 0.00 in/hr0.0 mm/hr 0.01 in0.3 mm
05:37 PM 28.0°F-2.2°C 11.9°F-11.2°C 51% Calm Calm -- 30.11 in1019.6 mb 0.00 in0.0 mm 0.00 in/hr0.0 mm/hr 0.01 in0.3 mm
05:36 PM 28.0°F-2.2°C 11.9°F-11.2°C 51% Calm Calm -- 30.11 in1019.6 mb 0.00 in0.0 mm 0.00 in/hr0.0 mm/hr 0.01 in0.3 mm
05:35 PM 28.2°F-2.1°C 12.1°F-11.1°C 51% Calm Calm -- 30.11 in1019.6 mb 0.00 in0.0 mm 0.00 in/hr0.0 mm/hr 0.01 in0.3 mm
05:34 PM 28.4°F-2.0°C 14.0°F-10.0°C 55% Calm Calm -- 30.11 in1019.6 mb 0.00 in0.0 mm 0.00 in/hr0.0 mm/hr 0.01 in0.3 mm
05:33 PM 28.4°F-2.0°C 14.0°F-10.0°C 55% Calm Calm -- 30.11 in1019.6 mb 0.00 in0.0 mm 0.00 in/hr0.0 mm/hr 0.01 in0.3 mm
05:32 PM 28.6°F-1.9°C 14.2°F-9.9°C 55% Calm Calm -- 30.11 in1019.6 mb 0.00 in0.0 mm 0.00 in/hr0.0 mm/hr 0.01 in0.3 mm
05:31 PM 28.6°F-1.9°C 14.2°F-9.9°C 55% Calm Calm -- 30.11 in1019.6 mb 0.00 in0.0 mm 0.00 in/hr0.0 mm/hr 0.01 in0.3 mm
05:30 PM 28.8°F-1.8°C 14.4°F-9.8°C 55% Calm Calm -- 30.11 in1019.6 mb 0.00 in0.0 mm 0.00 in/hr0.0 mm/hr 0.01 in0.3 mm
05:29 PM 28.8°F-1.8°C 14.8°F-9.6°C 56% Calm Calm -- 30.11 in1019.6 mb 0.00 in0.0 mm 0.00 in/hr0.0 mm/hr 0.01 in0.3 mm
05:28 PM 28.6°F-1.9°C 14.6°F-9.7°C 56% Calm Calm -- 30.11 in1019.6 mb 0.00 in0.0 mm 0.00 in/hr0.0 mm/hr 0.01 in0.3 mm
05:27 PM 28.4°F-2.0°C 14.5°F-9.7°C 56% Calm Calm -- 30.12 in1020.0 mb 0.00 in0.0 mm 0.00 in/hr0.0 mm/hr 0.01 in0.3 mm
05:26 PM 28.6°F-1.9°C 14.6°F-9.7°C 56% Calm Calm -- 30.11 in1019.6 mb 0.00 in0.0 mm 0.00 in/hr0.0 mm/hr 0.01 in0.3 mm
05:25 PM 28.6°F-1.9°C 14.6°F-9.7°C 56% Calm Calm -- 30.12 in1020.0 mb 0.00 in0.0 mm 0.00 in/hr0.0 mm/hr 0.01 in0.3 mm
05:24 PM 28.6°F-1.9°C 14.6°F-9.7°C 56% Calm Calm -- 30.12 in1020.0 mb 0.00 in0.0 mm 0.00 in/hr0.0 mm/hr 0.01 in0.3 mm
05:23 PM 28.6°F-1.9°C 14.6°F-9.7°C 56% Calm Calm -- 30.12 in1020.0 mb 0.00 in0.0 mm 0.00 in/hr0.0 mm/hr 0.01 in0.3 mm
05:22 PM 28.6°F-1.9°C 14.2°F-9.9°C 55% Calm Calm -- 30.12 in1020.0 mb 0.00 in0.0 mm 0.00 in/hr0.0 mm/hr 0.01 in0.3 mm
05:21 PM 28.6°F-1.9°C 14.2°F-9.9°C 55% Calm Calm -- 30.13 in1020.3 mb 0.00 in0.0 mm 0.00 in/hr0.0 mm/hr 0.01 in0.3 mm
05:20 PM 28.6°F-1.9°C 14.2°F-9.9°C 55% Calm Calm -- 30.12 in1020.0 mb 0.00 in0.0 mm 0.00 in/hr0.0 mm/hr 0.01 in0.3 mm
05:19 PM 28.4°F-2.0°C 14.0°F-10.0°C 55% Calm Calm -- 30.13 in1020.3 mb 0.00 in0.0 mm 0.00 in/hr0.0 mm/hr 0.01 in0.3 mm
05:18 PM 28.4°F-2.0°C 14.0°F-10.0°C 55% Calm Calm -- 30.13 in1020.3 mb 0.00 in0.0 mm 0.00 in/hr0.0 mm/hr 0.01 in0.3 mm
05:17 PM 28.4°F-2.0°C 14.0°F-10.0°C 55% Calm Calm -- 30.13 in1020.3 mb 0.00 in0.0 mm 0.00 in/hr0.0 mm/hr 0.01 in0.3 mm
05:16 PM 28.6°F-1.9°C 14.2°F-9.9°C 55% Calm Calm -- 30.13 in1020.3 mb 0.00 in0.0 mm 0.00 in/hr0.0 mm/hr 0.01 in0.3 mm
05:15 PM 28.6°F-1.9°C 14.2°F-9.9°C 55% Calm Calm -- 30.13 in1020.3 mb 0.00 in0.0 mm 0.00 in/hr0.0 mm/hr 0.01 in0.3 mm
05:14 PM 28.8°F-1.8°C 13.9°F-10.1°C 54% Calm Calm -- 30.13 in1020.3 mb 0.00 in0.0 mm 0.00 in/hr0.0 mm/hr 0.01 in0.3 mm
05:13 PM 28.8°F-1.8°C 13.9°F-10.1°C 54% Calm Calm -- 30.13 in1020.3 mb 0.00 in0.0 mm 0.00 in/hr0.0 mm/hr 0.01 in0.3 mm
05:12 PM 28.8°F-1.8°C 13.9°F-10.1°C 54% Calm Calm -- 30.13 in1020.3 mb 0.00 in0.0 mm 0.00 in/hr0.0 mm/hr 0.01 in0.3 mm
05:11 PM 28.9°F-1.7°C 13.7°F-10.2°C 53% Calm Calm -- 30.13 in1020.3 mb 0.00 in0.0 mm 0.00 in/hr0.0 mm/hr 0.01 in0.3 mm
05:10 PM 28.9°F-1.7°C 13.7°F-10.2°C 53% Calm Calm -- 30.12 in1020.0 mb 0.00 in0.0 mm 0.00 in/hr0.0 mm/hr 0.01 in0.3 mm
05:09 PM 28.9°F-1.7°C 13.7°F-10.2°C 53% Calm Calm -- 30.13 in1020.3 mb 0.00 in0.0 mm 0.00 in/hr0.0 mm/hr 0.01 in0.3 mm
05:08 PM 28.9°F-1.7°C 13.7°F-10.2°C 53% Calm Calm -- 30.13 in1020.3 mb 0.00 in0.0 mm 0.00 in/hr0.0 mm/hr 0.01 in0.3 mm
05:07 PM 29.1°F-1.6°C 13.8°F-10.1°C 53% Calm Calm -- 30.13 in1020.3 mb 0.00 in0.0 mm 0.00 in/hr0.0 mm/hr 0.01 in0.3 mm
05:06 PM 29.8°F-1.2°C 13.5°F-10.3°C 51% Calm Calm -- 30.13 in1020.3 mb 0.00 in0.0 mm 0.00 in/hr0.0 mm/hr 0.01 in0.3 mm
05:05 PM 29.8°F-1.2°C 13.5°F-10.3°C 51% Calm Calm -- 30.13 in1020.3 mb 0.00 in0.0 mm 0.00 in/hr0.0 mm/hr 0.01 in0.3 mm
05:04 PM 29.8°F-1.2°C 13.5°F-10.3°C 51% Calm Calm -- 30.12 in1020.0 mb 0.00 in0.0 mm 0.00 in/hr0.0 mm/hr 0.01 in0.3 mm
05:03 PM 29.8°F-1.2°C 13.5°F-10.3°C 51% Calm Calm -- 30.12 in1020.0 mb 0.00 in0.0 mm 0.00 in/hr0.0 mm/hr 0.01 in0.3 mm
05:02 PM 29.8°F-1.2°C 13.5°F-10.3°C 51% Calm Calm -- 30.12 in1020.0 mb 0.00 in0.0 mm 0.00 in/hr0.0 mm/hr 0.01 in0.3 mm
05:01 PM 29.8°F-1.2°C 13.5°F-10.3°C 51% Calm Calm -- 30.12 in1020.0 mb 0.00 in0.0 mm 0.00 in/hr0.0 mm/hr 0.01 in0.3 mm
05:00 PM 29.8°F-1.2°C 13.5°F-10.3°C 51% Calm Calm -- 30.12 in1020.0 mb 0.00 in0.0 mm 0.00 in/hr0.0 mm/hr 0.01 in0.3 mm
04:59 PM 29.8°F-1.2°C 13.5°F-10.3°C 51% Calm Calm -- 30.13 in1020.3 mb 0.00 in0.0 mm 0.00 in/hr0.0 mm/hr 0.01 in0.3 mm
04:58 PM 29.8°F-1.2°C 14.0°F-10.0°C 52% Calm Calm -- 30.12 in1020.0 mb 0.00 in0.0 mm 0.00 in/hr0.0 mm/hr 0.01 in0.3 mm
04:57 PM 29.8°F-1.2°C 14.0°F-10.0°C 52% Calm Calm -- 30.12 in1020.0 mb 0.00 in0.0 mm 0.00 in/hr0.0 mm/hr 0.01 in0.3 mm
04:56 PM 29.8°F-1.2°C 13.5°F-10.3°C 51% Calm Calm -- 30.11 in1019.6 mb 0.00 in0.0 mm 0.00 in/hr0.0 mm/hr 0.01 in0.3 mm
04:55 PM 29.8°F-1.2°C 13.5°F-10.3°C 51% Calm Calm -- 30.11 in1019.6 mb 0.00 in0.0 mm 0.00 in/hr0.0 mm/hr 0.01 in0.3 mm
04:54 PM 30.0°F-1.1°C 13.7°F-10.2°C 51% Calm Calm -- 30.11 in1019.6 mb 0.00 in0.0 mm 0.00 in/hr0.0 mm/hr 0.01 in0.3 mm
04:53 PM 30.2°F-1.0°C 13.4°F-10.3°C 50% Calm Calm -- 30.11 in1019.6 mb 0.00 in0.0 mm 0.00 in/hr0.0 mm/hr 0.01 in0.3 mm
04:52 PM 30.2°F-1.0°C 13.4°F-10.3°C 50% Calm Calm -- 30.11 in1019.6 mb 0.00 in0.0 mm 0.00 in/hr0.0 mm/hr 0.01 in0.3 mm
04:51 PM 30.2°F-1.0°C 13.4°F-10.3°C 50% Calm Calm -- 30.11 in1019.6 mb 0.00 in0.0 mm 0.00 in/hr0.0 mm/hr 0.01 in0.3 mm
04:50 PM 30.2°F-1.0°C 13.4°F-10.3°C 50% Calm Calm -- 30.11 in1019.6 mb 0.00 in0.0 mm 0.00 in/hr0.0 mm/hr 0.01 in0.3 mm
04:49 PM 30.4°F-0.9°C 13.1°F-10.5°C 49% Calm Calm -- 30.11 in1019.6 mb 0.00 in0.0 mm 0.00 in/hr0.0 mm/hr 0.01 in0.3 mm
04:48 PM 30.4°F-0.9°C 13.6°F-10.2°C 50% Calm Calm -- 30.11 in1019.6 mb 0.00 in0.0 mm 0.00 in/hr0.0 mm/hr 0.01 in0.3 mm
04:47 PM 30.4°F-0.9°C 13.6°F-10.2°C 50% Calm Calm -- 30.11 in1019.6 mb 0.00 in0.0 mm 0.00 in/hr0.0 mm/hr 0.01 in0.3 mm
04:46 PM 30.4°F-0.9°C 13.6°F-10.2°C 50% Calm Calm -- 30.11 in1019.6 mb 0.00 in0.0 mm 0.00 in/hr0.0 mm/hr 0.01 in0.3 mm
04:45 PM 30.4°F-0.9°C 13.6°F-10.2°C 50% Calm Calm -- 30.12 in1020.0 mb 0.00 in0.0 mm 0.00 in/hr0.0 mm/hr 0.01 in0.3 mm
04:44 PM 30.4°F-0.9°C 13.6°F-10.2°C 50% Calm Calm -- 30.11 in1019.6 mb 0.00 in0.0 mm 0.00 in/hr0.0 mm/hr 0.01 in0.3 mm
04:43 PM 30.6°F-0.8°C 13.2°F-10.4°C 49% Calm Calm -- 30.12 in1020.0 mb 0.00 in0.0 mm 0.00 in/hr0.0 mm/hr 0.01 in0.3 mm
04:42 PM 30.6°F-0.8°C 13.7°F-10.2°C 50% Calm Calm -- 30.11 in1019.6 mb 0.00 in0.0 mm 0.00 in/hr0.0 mm/hr 0.01 in0.3 mm
04:41 PM 30.4°F-0.9°C 13.6°F-10.2°C 50% 0.1 mph W0.2 kmh W 0.8 mph1.3 kmh 30.11 in1019.6 mb 0.00 in0.0 mm 0.00 in/hr0.0 mm/hr 0.01 in0.3 mm
04:40 PM 30.4°F-0.9°C 14.0°F-10.0°C 51% 0.1 mph W0.2 kmh W 0.8 mph1.3 kmh 30.11 in1019.6 mb 0.00 in0.0 mm 0.00 in/hr0.0 mm/hr 0.01 in0.3 mm
04:39 PM 30.6°F-0.8°C 14.2°F-9.9°C 51% 0.1 mph W0.2 kmh W 0.8 mph1.3 kmh 30.11 in1019.6 mb 0.00 in0.0 mm 0.00 in/hr0.0 mm/hr 0.01 in0.3 mm
04:38 PM 30.6°F-0.8°C 13.7°F-10.2°C 50% 0.1 mph W0.2 kmh W 0.8 mph1.3 kmh 30.11 in1019.6 mb 0.00 in0.0 mm 0.00 in/hr0.0 mm/hr 0.01 in0.3 mm
04:37 PM 30.7°F-0.7°C 13.9°F-10.1°C 50% 0.1 mph W0.2 kmh W 0.8 mph1.3 kmh 30.11 in1019.6 mb 0.00 in0.0 mm 0.00 in/hr0.0 mm/hr 0.01 in0.3 mm
04:36 PM 30.7°F-0.7°C 13.4°F-10.3°C 49% 0.1 mph W0.2 kmh W 0.8 mph1.3 kmh 30.11 in1019.6 mb 0.00 in0.0 mm 0.00 in/hr0.0 mm/hr 0.01 in0.3 mm
04:35 PM 30.9°F-0.6°C 13.6°F-10.2°C 49% 0.1 mph W0.2 kmh W 0.8 mph1.3 kmh 30.11 in1019.6 mb 0.00 in0.0 mm 0.00 in/hr0.0 mm/hr 0.01 in0.3 mm
04:34 PM 30.9°F-0.6°C 14.0°F-10.0°C 50% 0.1 mph W0.2 kmh W 0.8 mph1.3 kmh 30.11 in1019.6 mb 0.00 in0.0 mm 0.00 in/hr0.0 mm/hr 0.01 in0.3 mm
04:33 PM 30.9°F-0.6°C 14.0°F-10.0°C 50% 0.1 mph W0.2 kmh W 0.8 mph1.3 kmh 30.11 in1019.6 mb 0.00 in0.0 mm 0.00 in/hr0.0 mm/hr 0.01 in0.3 mm
04:32 PM 31.3°F-0.4°C 13.9°F-10.1°C 49% Calm Calm 0.8 mph1.3 kmh 30.11 in1019.6 mb 0.00 in0.0 mm 0.00 in/hr0.0 mm/hr 0.01 in0.3 mm
04:31 PM 31.3°F-0.4°C 13.9°F-10.1°C 49% Calm Calm -- 30.11 in1019.6 mb 0.00 in0.0 mm 0.00 in/hr0.0 mm/hr 0.01 in0.3 mm
04:30 PM 31.5°F-0.3°C 13.5°F-10.3°C 48% 0.1 mph SW0.2 kmh SW 2.4 mph3.9 kmh 30.11 in1019.6 mb 0.00 in0.0 mm 0.00 in/hr0.0 mm/hr 0.01 in0.3 mm
04:29 PM 31.3°F-0.4°C 13.4°F-10.3°C 48% 0.4 mph SSW0.6 kmh SSW 3.2 mph5.1 kmh 30.11 in1019.6 mb 0.00 in0.0 mm 0.00 in/hr0.0 mm/hr 0.01 in0.3 mm
04:28 PM 31.5°F-0.3°C 13.5°F-10.3°C 48% 0.7 mph S1.1 kmh S 3.2 mph5.1 kmh 30.11 in1019.6 mb 0.00 in0.0 mm 0.00 in/hr0.0 mm/hr 0.01 in0.3 mm
04:27 PM 31.5°F-0.3°C 14.0°F-10.0°C 49% 0.7 mph S1.1 kmh S 3.2 mph5.1 kmh 30.10 in1019.3 mb 0.00 in0.0 mm 0.00 in/hr0.0 mm/hr 0.01 in0.3 mm
04:26 PM 31.5°F-0.3°C 14.0°F-10.0°C 49% 0.7 mph S1.1 kmh S 3.2 mph5.1 kmh 30.10 in1019.3 mb 0.00 in0.0 mm 0.00 in/hr0.0 mm/hr 0.01 in0.3 mm
04:25 PM 31.5°F-0.3°C 13.5°F-10.3°C 48% 0.7 mph S1.1 kmh S 3.2 mph5.1 kmh 30.11 in1019.6 mb 0.00 in0.0 mm 0.00 in/hr0.0 mm/hr 0.01 in0.3 mm
04:24 PM 31.5°F-0.3°C 13.5°F-10.3°C 48% 0.7 mph S1.1 kmh S 3.2 mph5.1 kmh 30.10 in1019.3 mb 0.00 in0.0 mm 0.00 in/hr0.0 mm/hr 0.01 in0.3 mm
04:23 PM 31.6°F-0.2°C 13.2°F-10.4°C 47% 0.9 mph S1.4 kmh S 3.2 mph5.1 kmh 30.11 in1019.6 mb 0.00 in0.0 mm 0.00 in/hr0.0 mm/hr 0.01 in0.3 mm
04:22 PM 31.8°F-0.1°C 13.4°F-10.3°C 47% 1.1 mph S1.8 kmh S 3.2 mph5.1 kmh 30.11 in1019.6 mb 0.00 in0.0 mm 0.00 in/hr0.0 mm/hr 0.01 in0.3 mm
04:21 PM 31.8°F-0.1°C 13.4°F-10.3°C 47% 1.3 mph S2.1 kmh S 3.2 mph5.1 kmh 30.10 in1019.3 mb 0.00 in0.0 mm 0.00 in/hr0.0 mm/hr 0.01 in0.3 mm
04:20 PM 31.8°F-0.1°C 13.4°F-10.3°C 47% 1.2 mph S1.9 kmh S 3.2 mph5.1 kmh 30.10 in1019.3 mb 0.00 in0.0 mm 0.00 in/hr0.0 mm/hr 0.01 in0.3 mm
04:19 PM 31.8°F-0.1°C 13.4°F-10.3°C 47% 1.0 mph S1.6 kmh S 3.2 mph5.1 kmh 30.10 in1019.3 mb 0.00 in0.0 mm 0.00 in/hr0.0 mm/hr 0.01 in0.3 mm
04:18 PM 31.8°F-0.1°C 13.4°F-10.3°C 47% 0.7 mph S1.1 kmh S 3.2 mph5.1 kmh 30.11 in1019.6 mb 0.00 in0.0 mm 0.00 in/hr0.0 mm/hr 0.01 in0.3 mm
04:17 PM 32.2°F0.1°C 13.2°F-10.4°C 46% 0.6 mph S1.0 kmh S 3.2 mph5.1 kmh 30.10 in1019.3 mb 0.00 in0.0 mm 0.00 in/hr0.0 mm/hr 0.01 in0.3 mm
04:16 PM 32.2°F0.1°C 13.2°F-10.4°C 46% 0.6 mph S1.0 kmh S 3.2 mph5.1 kmh 30.10 in1019.3 mb 0.00 in0.0 mm 0.00 in/hr0.0 mm/hr 0.01 in0.3 mm
04:15 PM 32.2°F0.1°C 13.2°F-10.4°C 46% 0.6 mph S1.0 kmh S 3.2 mph5.1 kmh 30.10 in1019.3 mb 0.00 in0.0 mm 0.00 in/hr0.0 mm/hr 0.01 in0.3 mm
04:14 PM 32.2°F0.1°C 13.2°F-10.4°C 46% 0.6 mph S1.0 kmh S 3.2 mph5.1 kmh 30.10 in1019.3 mb 0.00 in0.0 mm 0.00 in/hr0.0 mm/hr 0.01 in0.3 mm
04:13 PM 32.2°F0.1°C 13.7°F-10.2°C 47% 0.5 mph S0.8 kmh S 3.2 mph5.1 kmh 30.11 in1019.6 mb 0.00 in0.0 mm 0.00 in/hr0.0 mm/hr 0.01 in0.3 mm
04:12 PM 32.4°F0.2°C 13.8°F-10.1°C 47% 0.1 mph S0.2 kmh S 2.4 mph3.9 kmh 30.10 in1019.3 mb 0.00 in0.0 mm 0.00 in/hr0.0 mm/hr 0.01 in0.3 mm
04:11 PM 32.2°F0.1°C 13.7°F-10.2°C 47% Calm Calm -- 30.11 in1019.6 mb 0.00 in0.0 mm 0.00 in/hr0.0 mm/hr 0.01 in0.3 mm
04:10 PM 32.0°F0.0°C 13.0°F-10.6°C 46% Calm Calm -- 30.11 in1019.6 mb 0.00 in0.0 mm 0.00 in/hr0.0 mm/hr 0.01 in0.3 mm
04:09 PM 32.0°F0.0°C 13.0°F-10.6°C 46% Calm Calm -- 30.11 in1019.6 mb 0.00 in0.0 mm 0.00 in/hr0.0 mm/hr 0.01 in0.3 mm
04:08 PM 32.0°F0.0°C 13.0°F-10.6°C 46% Calm Calm -- 30.11 in1019.6 mb 0.00 in0.0 mm 0.00 in/hr0.0 mm/hr 0.01 in0.3 mm
04:07 PM 32.0°F0.0°C 13.0°F-10.6°C 46% Calm Calm -- 30.10 in1019.3 mb 0.00 in0.0 mm 0.00 in/hr0.0 mm/hr 0.01 in0.3 mm
04:06 PM 31.8°F-0.1°C 13.4°F-10.3°C 47% 0.1 mph W0.2 kmh W 2.4 mph3.9 kmh 30.10 in1019.3 mb 0.01 in0.3 mm 0.00 in/hr0.0 mm/hr 0.01 in0.3 mm
04:05 PM 31.8°F-0.1°C 13.4°F-10.3°C 47% 0.2 mph W0.3 kmh W 2.4 mph3.9 kmh 30.10 in1019.3 mb 0.01 in0.3 mm 0.00 in/hr0.0 mm/hr 0.01 in0.3 mm
04:04 PM 31.8°F-0.1°C 13.4°F-10.3°C 47% 0.2 mph W0.3 kmh W 2.4 mph3.9 kmh 30.10 in1019.3 mb 0.01 in0.3 mm 0.00 in/hr0.0 mm/hr 0.01 in0.3 mm
04:03 PM 31.8°F-0.1°C 13.4°F-10.3°C 47% 0.4 mph W0.6 kmh W 2.4 mph3.9 kmh 30.10 in1019.3 mb 0.01 in0.3 mm 0.00 in/hr0.0 mm/hr 0.01 in0.3 mm
04:02 PM 31.8°F-0.1°C 13.4°F-10.3°C 47% 0.5 mph WNW0.8 kmh WNW 2.4 mph3.9 kmh 30.10 in1019.3 mb 0.01 in0.3 mm 0.00 in/hr0.0 mm/hr 0.01 in0.3 mm
04:01 PM 31.6°F-0.2°C 13.7°F-10.2°C 48% 0.7 mph WNW1.1 kmh WNW 2.4 mph3.9 kmh 30.09 in1019.0 mb 0.01 in0.3 mm 0.00 in/hr0.0 mm/hr 0.01 in0.3 mm
04:00 PM 31.6°F-0.2°C 14.2°F-9.9°C 49% 0.7 mph WNW1.1 kmh WNW 2.4 mph3.9 kmh 30.09 in1019.0 mb 0.01 in0.3 mm 0.00 in/hr0.0 mm/hr 0.01 in0.3 mm
03:59 PM 31.6°F-0.2°C 13.7°F-10.2°C 48% 0.8 mph NW1.3 kmh NW 2.4 mph3.9 kmh 30.09 in1019.0 mb 0.01 in0.3 mm 0.00 in/hr0.0 mm/hr 0.01 in0.3 mm
03:58 PM 31.6°F-0.2°C 13.7°F-10.2°C 48% 1.1 mph NNW1.8 kmh NNW 3.2 mph5.1 kmh 30.10 in1019.3 mb 0.01 in0.3 mm 0.00 in/hr0.0 mm/hr 0.01 in0.3 mm
03:57 PM 31.6°F-0.2°C 13.2°F-10.4°C 47% 1.2 mph NW1.9 kmh NW 3.2 mph5.1 kmh 30.09 in1019.0 mb 0.01 in0.3 mm 0.00 in/hr0.0 mm/hr 0.01 in0.3 mm
03:56 PM 31.6°F-0.2°C 13.2°F-10.4°C 47% 1.1 mph NNW1.8 kmh NNW 3.2 mph5.1 kmh 30.09 in1019.0 mb 0.01 in0.3 mm 0.00 in/hr0.0 mm/hr 0.01 in0.3 mm
03:55 PM 31.6°F-0.2°C 13.2°F-10.4°C 47% 1.0 mph N1.6 kmh N 3.2 mph5.1 kmh 30.09 in1019.0 mb 0.01 in0.3 mm 0.00 in/hr0.0 mm/hr 0.01 in0.3 mm
03:54 PM 31.8°F-0.1°C 13.4°F-10.3°C 47% 1.0 mph N1.6 kmh N 3.2 mph5.1 kmh 30.09 in1019.0 mb 0.01 in0.3 mm 0.00 in/hr0.0 mm/hr 0.01 in0.3 mm
03:53 PM 31.8°F-0.1°C 13.4°F-10.3°C 47% 0.9 mph N1.4 kmh N 3.2 mph5.1 kmh 30.09 in1019.0 mb 0.01 in0.3 mm 0.00 in/hr0.0 mm/hr 0.01 in0.3 mm
03:52 PM 31.8°F-0.1°C 13.4°F-10.3°C 47% 0.7 mph N1.1 kmh N 3.2 mph5.1 kmh 30.09 in1019.0 mb 0.01 in0.3 mm 0.00 in/hr0.0 mm/hr 0.01 in0.3 mm
03:51 PM 31.8°F-0.1°C 12.8°F-10.7°C 46% 0.8 mph NW1.3 kmh NW 3.2 mph5.1 kmh 30.09 in1019.0 mb 0.01 in0.3 mm 0.00 in/hr0.0 mm/hr 0.01 in0.3 mm
03:50 PM 31.8°F-0.1°C 13.4°F-10.3°C 47% 0.7 mph NNW1.1 kmh NNW 3.2 mph5.1 kmh 30.08 in1018.6 mb 0.01 in0.3 mm 0.00 in/hr0.0 mm/hr 0.01 in0.3 mm
03:49 PM 32.4°F0.2°C 13.3°F-10.4°C 46% 0.6 mph NW1.0 kmh NW 3.2 mph5.1 kmh 30.08 in1018.6 mb 0.01 in0.3 mm 0.00 in/hr0.0 mm/hr 0.01 in0.3 mm
03:48 PM 32.5°F0.3°C 12.9°F-10.6°C 45% 0.4 mph WSW0.6 kmh WSW 2.4 mph3.9 kmh 30.08 in1018.6 mb 0.01 in0.3 mm 0.00 in/hr0.0 mm/hr 0.01 in0.3 mm
03:47 PM 32.5°F0.3°C 12.9°F-10.6°C 45% 0.2 mph S0.3 kmh S 1.6 mph2.6 kmh 30.08 in1018.6 mb 0.01 in0.3 mm 0.00 in/hr0.0 mm/hr 0.01 in0.3 mm
03:46 PM 32.5°F0.3°C 12.4°F-10.9°C 44% 0.3 mph SE0.5 kmh SE 2.4 mph3.9 kmh 30.09 in1019.0 mb 0.01 in0.3 mm 0.00 in/hr0.0 mm/hr 0.01 in0.3 mm
03:45 PM 32.9°F0.5°C 12.7°F-10.7°C 44% 0.7 mph SE1.1 kmh SE 4.0 mph6.4 kmh 30.08 in1018.6 mb 0.01 in0.3 mm 0.00 in/hr0.0 mm/hr 0.01 in0.3 mm
03:44 PM 32.9°F0.5°C 12.7°F-10.7°C 44% 1.0 mph SSE1.6 kmh SSE 4.8 mph7.7 kmh 30.09 in1019.0 mb 0.01 in0.3 mm 0.00 in/hr0.0 mm/hr 0.01 in0.3 mm
03:43 PM 33.1°F0.6°C 12.9°F-10.6°C 44% 1.4 mph SSE2.3 kmh SSE 4.8 mph7.7 kmh 30.08 in1018.6 mb 0.01 in0.3 mm 0.00 in/hr0.0 mm/hr 0.01 in0.3 mm
03:42 PM 33.1°F0.6°C 12.9°F-10.6°C 44% 1.6 mph S2.6 kmh S 4.8 mph7.7 kmh 30.08 in1018.6 mb 0.01 in0.3 mm 0.00 in/hr0.0 mm/hr 0.01 in0.3 mm
03:41 PM 33.1°F0.6°C 13.4°F-10.3°C 45% 1.7 mph SSW2.7 kmh SSW 4.8 mph7.7 kmh 30.09 in1019.0 mb 0.01 in0.3 mm 0.00 in/hr0.0 mm/hr 0.01 in0.3 mm
03:40 PM 32.9°F0.5°C 13.3°F-10.4°C 45% 2.0 mph S3.2 kmh S 4.8 mph7.7 kmh 30.09 in1019.0 mb 0.01 in0.3 mm 0.00 in/hr0.0 mm/hr 0.01 in0.3 mm
03:39 PM 33.1°F0.6°C 13.4°F-10.3°C 45% 2.1 mph S3.4 kmh S 4.8 mph7.7 kmh 30.08 in1018.6 mb 0.01 in0.3 mm 0.00 in/hr0.0 mm/hr 0.01 in0.3 mm
03:38 PM 32.9°F0.5°C 12.7°F-10.7°C 44% 2.2 mph S3.5 kmh S 4.8 mph7.7 kmh 30.08 in1018.6 mb 0.01 in0.3 mm 0.00 in/hr0.0 mm/hr 0.01 in0.3 mm
03:37 PM 32.4°F0.2°C 12.2°F-11.0°C 44% 2.1 mph S3.4 kmh S 4.8 mph7.7 kmh 30.08 in1018.6 mb 0.01 in0.3 mm 0.00 in/hr0.0 mm/hr 0.01 in0.3 mm
03:36 PM 32.4°F0.2°C 12.2°F-11.0°C 44% 2.1 mph S3.4 kmh S 4.8 mph7.7 kmh 30.08 in1018.6 mb 0.01 in0.3 mm 0.00 in/hr0.0 mm/hr 0.01 in0.3 mm
03:35 PM 32.5°F0.3°C 12.4°F-10.9°C 44% 2.1 mph SSW3.4 kmh SSW 4.8 mph7.7 kmh 30.08 in1018.6 mb 0.01 in0.3 mm 0.00 in/hr0.0 mm/hr 0.01 in0.3 mm
03:34 PM 32.5°F0.3°C 12.9°F-10.6°C 45% 1.8 mph SW2.9 kmh SW 4.8 mph7.7 kmh 30.08 in1018.6 mb 0.01 in0.3 mm 0.00 in/hr0.0 mm/hr 0.01 in0.3 mm
03:33 PM 32.9°F0.5°C 13.3°F-10.4°C 45% 2.0 mph WSW3.2 kmh WSW 4.8 mph7.7 kmh 30.09 in1019.0 mb 0.01 in0.3 mm 0.00 in/hr0.0 mm/hr 0.01 in0.3 mm
03:32 PM 32.5°F0.3°C 12.9°F-10.6°C 45% 2.0 mph S3.2 kmh S 4.8 mph7.7 kmh 30.09 in1019.0 mb 0.01 in0.3 mm 0.00 in/hr0.0 mm/hr 0.01 in0.3 mm
03:31 PM 32.5°F0.3°C 13.5°F-10.3°C 46% 2.1 mph SE3.4 kmh SE 4.8 mph7.7 kmh 30.09 in1019.0 mb 0.01 in0.3 mm 0.00 in/hr0.0 mm/hr 0.01 in0.3 mm
03:30 PM 32.9°F0.5°C 14.3°F-9.8°C 47% 2.0 mph SE3.2 kmh SE 4.8 mph7.7 kmh 30.08 in1018.6 mb 0.01 in0.3 mm 0.00 in/hr0.0 mm/hr 0.01 in0.3 mm
03:29 PM 32.7°F0.4°C 13.6°F-10.2°C 46% 2.2 mph ESE3.5 kmh ESE 4.8 mph7.7 kmh 30.08 in1018.6 mb 0.01 in0.3 mm 0.00 in/hr0.0 mm/hr 0.01 in0.3 mm
03:28 PM 32.7°F0.4°C 13.6°F-10.2°C 46% 2.3 mph E3.7 kmh E 4.8 mph7.7 kmh 30.09 in1019.0 mb 0.01 in0.3 mm 0.00 in/hr0.0 mm/hr 0.01 in0.3 mm
03:27 PM 32.7°F0.4°C 13.6°F-10.2°C 46% 2.5 mph E4.0 kmh E 4.8 mph7.7 kmh 30.09 in1019.0 mb 0.01 in0.3 mm 0.00 in/hr0.0 mm/hr 0.01 in0.3 mm
03:26 PM 32.5°F0.3°C 13.5°F-10.3°C 46% 2.7 mph E4.3 kmh E 4.8 mph7.7 kmh 30.09 in1019.0 mb 0.01 in0.3 mm 0.00 in/hr0.0 mm/hr 0.01 in0.3 mm
03:25 PM 32.4°F0.2°C 12.8°F-10.7°C 45% 2.7 mph E4.3 kmh E 4.8 mph7.7 kmh 30.09 in1019.0 mb 0.01 in0.3 mm 0.00 in/hr0.0 mm/hr 0.01 in0.3 mm
03:24 PM 32.5°F0.3°C 12.9°F-10.6°C 45% 2.7 mph E4.3 kmh E 4.8 mph7.7 kmh 30.09 in1019.0 mb 0.01 in0.3 mm 0.00 in/hr0.0 mm/hr 0.01 in0.3 mm
03:23 PM 32.7°F0.4°C 13.1°F-10.5°C 45% 2.4 mph E3.9 kmh E 4.0 mph6.4 kmh 30.09 in1019.0 mb 0.01 in0.3 mm 0.00 in/hr0.0 mm/hr 0.01 in0.3 mm
03:22 PM 32.9°F0.5°C 13.3°F-10.4°C 45% 2.4 mph E3.9 kmh E 3.2 mph5.1 kmh 30.09 in1019.0 mb 0.01 in0.3 mm 0.00 in/hr0.0 mm/hr 0.01 in0.3 mm
03:21 PM 32.9°F0.5°C 13.3°F-10.4°C 45% 2.4 mph E3.9 kmh E 5.6 mph9.0 kmh 30.10 in1019.3 mb 0.01 in0.3 mm 0.00 in/hr0.0 mm/hr 0.01 in0.3 mm
03:20 PM 32.9°F0.5°C 13.3°F-10.4°C 45% 2.5 mph E4.0 kmh E 5.6 mph9.0 kmh 30.09 in1019.0 mb 0.01 in0.3 mm 0.00 in/hr0.0 mm/hr 0.01 in0.3 mm
03:19 PM 32.9°F0.5°C 13.3°F-10.4°C 45% 2.5 mph ENE4.0 kmh ENE 5.6 mph9.0 kmh 30.09 in1019.0 mb 0.01 in0.3 mm 0.00 in/hr0.0 mm/hr 0.01 in0.3 mm
03:18 PM 32.9°F0.5°C 13.3°F-10.4°C 45% 2.6 mph W4.2 kmh W 5.6 mph9.0 kmh 30.09 in1019.0 mb 0.01 in0.3 mm 0.00 in/hr0.0 mm/hr 0.01 in0.3 mm
03:17 PM 32.9°F0.5°C 13.3°F-10.4°C 45% 2.7 mph WSW4.3 kmh WSW 5.6 mph9.0 kmh 30.10 in1019.3 mb 0.01 in0.3 mm 0.00 in/hr0.0 mm/hr 0.01 in0.3 mm
03:16 PM 32.9°F0.5°C 13.3°F-10.4°C 45% 2.7 mph WSW4.3 kmh WSW 5.6 mph9.0 kmh 30.10 in1019.3 mb 0.01 in0.3 mm 0.00 in/hr0.0 mm/hr 0.01 in0.3 mm
03:15 PM 32.9°F0.5°C 13.3°F-10.4°C 45% 2.7 mph WSW4.3 kmh WSW 5.6 mph9.0 kmh 30.09 in1019.0 mb 0.01 in0.3 mm 0.00 in/hr0.0 mm/hr 0.01 in0.3 mm
03:14 PM 32.9°F0.5°C 13.3°F-10.4°C 45% 2.6 mph SW4.2 kmh SW 5.6 mph9.0 kmh 30.10 in1019.3 mb 0.01 in0.3 mm 0.00 in/hr0.0 mm/hr 0.01 in0.3 mm
03:13 PM 32.7°F0.4°C 13.1°F-10.5°C 45% 2.7 mph SW4.3 kmh SW 5.6 mph9.0 kmh 30.09 in1019.0 mb 0.01 in0.3 mm 0.00 in/hr0.0 mm/hr 0.01 in0.3 mm
03:12 PM 32.7°F0.4°C 13.1°F-10.5°C 45% 2.7 mph SW4.3 kmh SW 5.6 mph9.0 kmh 30.10 in1019.3 mb 0.01 in0.3 mm 0.00 in/hr0.0 mm/hr 0.01 in0.3 mm
03:11 PM 33.1°F0.6°C 13.4°F-10.3°C 45% 2.6 mph SSW4.2 kmh SSW 5.6 mph9.0 kmh 30.09 in1019.0 mb 0.01 in0.3 mm 0.00 in/hr0.0 mm/hr 0.01 in0.3 mm
03:10 PM 33.1°F0.6°C 13.4°F-10.3°C 45% 2.6 mph SSW4.2 kmh SSW 4.8 mph7.7 kmh 30.09 in1019.0 mb 0.01 in0.3 mm 0.00 in/hr0.0 mm/hr 0.01 in0.3 mm
03:09 PM 33.1°F0.6°C 12.9°F-10.6°C 44% 2.7 mph S4.3 kmh S 4.8 mph7.7 kmh 30.09 in1019.0 mb 0.01 in0.3 mm 0.00 in/hr0.0 mm/hr 0.01 in0.3 mm
03:08 PM 33.1°F0.6°C 12.9°F-10.6°C 44% 2.7 mph S4.3 kmh S 4.8 mph7.7 kmh 30.09 in1019.0 mb 0.01 in0.3 mm 0.00 in/hr0.0 mm/hr 0.01 in0.3 mm
03:07 PM 32.9°F0.5°C 12.7°F-10.7°C 44% 2.6 mph S4.2 kmh S 4.8 mph7.7 kmh 30.09 in1019.0 mb 0.01 in0.3 mm 0.60 in/hr15.2 mm/hr 0.01 in0.3 mm
03:06 PM 33.1°F0.6°C 12.3°F-10.9°C 43% 2.6 mph S4.2 kmh S 4.8 mph7.7 kmh 30.09 in1019.0 mb 0.00 in0.0 mm 0.00 in/hr0.0 mm/hr 0.00 in0.0 mm
03:05 PM 32.9°F0.5°C 12.1°F-11.1°C 43% 2.7 mph S4.3 kmh S 4.8 mph7.7 kmh 30.09 in1019.0 mb 0.00 in0.0 mm 0.00 in/hr0.0 mm/hr 0.00 in0.0 mm
03:04 PM 32.7°F0.4°C 12.0°F-11.1°C 43% 3.1 mph SSW5.0 kmh SSW 4.8 mph7.7 kmh 30.09 in1019.0 mb 0.00 in0.0 mm 0.00 in/hr0.0 mm/hr 0.00 in0.0 mm
03:03 PM 33.3°F0.7°C 13.0°F-10.6°C 44% 3.3 mph SW5.3 kmh SW 4.8 mph7.7 kmh 30.09 in1019.0 mb 0.00 in0.0 mm 0.00 in/hr0.0 mm/hr 0.00 in0.0 mm
03:02 PM 33.1°F0.6°C 12.3°F-10.9°C 43% 3.5 mph SSW5.6 kmh SSW 5.6 mph9.0 kmh 30.09 in1019.0 mb 0.00 in0.0 mm 0.00 in/hr0.0 mm/hr 0.00 in0.0 mm
03:01 PM 32.5°F0.3°C 11.8°F-11.2°C 43% 3.6 mph SSW5.8 kmh SSW 5.6 mph9.0 kmh 30.09 in1019.0 mb 0.00 in0.0 mm 0.00 in/hr0.0 mm/hr 0.00 in0.0 mm
03:00 PM 33.1°F0.6°C 12.3°F-10.9°C 43% 3.6 mph SW5.8 kmh SW 5.6 mph9.0 kmh 30.09 in1019.0 mb 0.00 in0.0 mm 0.00 in/hr0.0 mm/hr 0.00 in0.0 mm
02:59 PM 33.3°F0.7°C 12.5°F-10.8°C 43% 3.7 mph SW6.0 kmh SW 5.6 mph9.0 kmh 30.09 in1019.0 mb 0.00 in0.0 mm 0.00 in/hr0.0 mm/hr 0.00 in0.0 mm
02:58 PM 33.1°F0.6°C 12.3°F-10.9°C 43% 3.9 mph SW6.3 kmh SW 5.6 mph9.0 kmh 30.09 in1019.0 mb 0.00 in0.0 mm 0.00 in/hr0.0 mm/hr 0.00 in0.0 mm
02:57 PM 32.7°F0.4°C 12.5°F-10.8°C 44% 4.1 mph SSW6.6 kmh SSW 5.6 mph9.0 kmh 30.09 in1019.0 mb 0.00 in0.0 mm 0.00 in/hr0.0 mm/hr 0.00 in0.0 mm
02:56 PM 32.5°F0.3°C 11.8°F-11.2°C 43% 4.2 mph SW6.8 kmh SW 5.6 mph9.0 kmh 30.09 in1019.0 mb 0.00 in0.0 mm 0.00 in/hr0.0 mm/hr 0.00 in0.0 mm
02:55 PM 32.7°F0.4°C 12.5°F-10.8°C 44% 4.0 mph SSW6.4 kmh SSW 5.6 mph9.0 kmh 30.09 in1019.0 mb 0.00 in0.0 mm 0.00 in/hr0.0 mm/hr 0.00 in0.0 mm
02:54 PM 32.9°F0.5°C 12.1°F-11.1°C 43% 3.8 mph SSW6.1 kmh SSW 5.6 mph9.0 kmh 30.09 in1019.0 mb 0.00 in0.0 mm 0.00 in/hr0.0 mm/hr 0.00 in0.0 mm
02:53 PM 33.3°F0.7°C 12.5°F-10.8°C 43% 3.5 mph SSW5.6 kmh SSW 5.6 mph9.0 kmh 30.09 in1019.0 mb 0.00 in0.0 mm 0.00 in/hr0.0 mm/hr 0.00 in0.0 mm
02:52 PM 33.3°F0.7°C 11.9°F-11.2°C 42% 3.4 mph SSW5.5 kmh SSW 5.6 mph9.0 kmh 30.08 in1018.6 mb 0.00 in0.0 mm 0.00 in/hr0.0 mm/hr 0.00 in0.0 mm
02:51 PM 32.9°F0.5°C 11.6°F-11.3°C 42% 3.7 mph SSW6.0 kmh SSW 6.4 mph10.3 kmh 30.09 in1019.0 mb 0.00 in0.0 mm 0.00 in/hr0.0 mm/hr 0.00 in0.0 mm
02:50 PM 33.1°F0.6°C 11.7°F-11.3°C 42% 3.6 mph S5.8 kmh S 6.4 mph10.3 kmh 30.09 in1019.0 mb 0.00 in0.0 mm 0.00 in/hr0.0 mm/hr 0.00 in0.0 mm
02:49 PM 33.1°F0.6°C 11.7°F-11.3°C 42% 3.3 mph SSW5.3 kmh SSW 6.4 mph10.3 kmh 30.08 in1018.6 mb 0.00 in0.0 mm 0.00 in/hr0.0 mm/hr 0.00 in0.0 mm
02:48 PM 33.4°F0.8°C 12.0°F-11.1°C 42% 3.1 mph SW5.0 kmh SW 6.4 mph10.3 kmh 30.08 in1018.6 mb 0.00 in0.0 mm 0.00 in/hr0.0 mm/hr 0.00 in0.0 mm
02:47 PM 33.4°F0.8°C 12.0°F-11.1°C 42% 3.3 mph SW5.3 kmh SW 6.4 mph10.3 kmh 30.08 in1018.6 mb 0.00 in0.0 mm 0.00 in/hr0.0 mm/hr 0.00 in0.0 mm
02:46 PM 33.8°F1.0°C 11.8°F-11.2°C 41% 3.6 mph SW5.8 kmh SW 6.4 mph10.3 kmh 30.08 in1018.6 mb 0.00 in0.0 mm 0.00 in/hr0.0 mm/hr 0.00 in0.0 mm
02:45 PM 33.4°F0.8°C 12.0°F-11.1°C 42% 3.6 mph SW5.8 kmh SW 6.4 mph10.3 kmh 30.07 in1018.3 mb 0.00 in0.0 mm 0.00 in/hr0.0 mm/hr 0.00 in0.0 mm
02:44 PM 33.4°F0.8°C 12.0°F-11.1°C 42% 3.6 mph SW5.8 kmh SW 6.4 mph10.3 kmh 30.07 in1018.3 mb 0.00 in0.0 mm 0.00 in/hr0.0 mm/hr 0.00 in0.0 mm
02:43 PM 33.1°F0.6°C 11.7°F-11.3°C 42% 3.4 mph SSW5.5 kmh SSW 6.4 mph10.3 kmh 30.08 in1018.6 mb 0.00 in0.0 mm 0.00 in/hr0.0 mm/hr 0.00 in0.0 mm
02:42 PM 32.9°F0.5°C 11.6°F-11.3°C 42% 3.1 mph SW5.0 kmh SW 6.4 mph10.3 kmh 30.07 in1018.3 mb 0.00 in0.0 mm 0.00 in/hr0.0 mm/hr 0.00 in0.0 mm
02:41 PM 33.4°F0.8°C 12.0°F-11.1°C 42% 2.6 mph NW4.2 kmh NW 6.4 mph10.3 kmh 30.07 in1018.3 mb 0.00 in0.0 mm 0.00 in/hr0.0 mm/hr 0.00 in0.0 mm
02:40 PM 33.6°F0.9°C 12.2°F-11.0°C 42% 2.7 mph ENE4.3 kmh ENE 6.4 mph10.3 kmh 30.06 in1017.9 mb 0.00 in0.0 mm 0.00 in/hr0.0 mm/hr 0.00 in0.0 mm
02:39 PM 33.4°F0.8°C 12.0°F-11.1°C 42% 2.6 mph ESE4.2 kmh ESE 6.4 mph10.3 kmh 30.07 in1018.3 mb 0.00 in0.0 mm 0.00 in/hr0.0 mm/hr 0.00 in0.0 mm
02:38 PM 33.3°F0.7°C 11.9°F-11.2°C 42% 2.6 mph SE4.2 kmh SE 6.4 mph10.3 kmh 30.07 in1018.3 mb 0.00 in0.0 mm 0.00 in/hr0.0 mm/hr 0.00 in0.0 mm
02:37 PM 33.4°F0.8°C 12.0°F-11.1°C 42% 2.3 mph E3.7 kmh E 6.4 mph10.3 kmh 30.07 in1018.3 mb 0.00 in0.0 mm 0.00 in/hr0.0 mm/hr 0.00 in0.0 mm
02:36 PM 34.0°F1.1°C 11.9°F-11.2°C 41% 1.8 mph SE2.9 kmh SE 4.8 mph7.7 kmh 30.07 in1018.3 mb 0.00 in0.0 mm 0.00 in/hr0.0 mm/hr 0.00 in0.0 mm
02:35 PM 34.7°F1.5°C 12.6°F-10.8°C 41% 1.9 mph SSE3.1 kmh SSE 4.8 mph7.7 kmh 30.07 in1018.3 mb 0.00 in0.0 mm 0.00 in/hr0.0 mm/hr 0.00 in0.0 mm
02:34 PM 34.2°F1.2°C 12.1°F-11.1°C 41% 2.2 mph S3.5 kmh S 4.8 mph7.7 kmh 30.06 in1017.9 mb 0.00 in0.0 mm 0.00 in/hr0.0 mm/hr 0.00 in0.0 mm
02:33 PM 33.6°F0.9°C 12.2°F-11.0°C 42% 2.5 mph S4.0 kmh S 6.4 mph10.3 kmh 30.06 in1017.9 mb 0.00 in0.0 mm 0.00 in/hr0.0 mm/hr 0.00 in0.0 mm
02:32 PM 33.6°F0.9°C 12.2°F-11.0°C 42% 3.0 mph SSE4.8 kmh SSE 6.4 mph10.3 kmh 30.07 in1018.3 mb 0.00 in0.0 mm 0.00 in/hr0.0 mm/hr 0.00 in0.0 mm
02:31 PM 33.6°F0.9°C 12.2°F-11.0°C 42% 3.2 mph S5.1 kmh S 6.4 mph10.3 kmh 30.06 in1017.9 mb 0.00 in0.0 mm 0.00 in/hr0.0 mm/hr 0.00 in0.0 mm
02:30 PM 34.2°F1.2°C 12.1°F-11.1°C 41% 3.2 mph S5.1 kmh S 6.4 mph10.3 kmh 30.06 in1017.9 mb 0.00 in0.0 mm 0.00 in/hr0.0 mm/hr 0.00 in0.0 mm
02:29 PM 33.8°F1.0°C 11.8°F-11.2°C 41% 3.3 mph SSW5.3 kmh SSW 6.4 mph10.3 kmh 30.06 in1017.9 mb 0.00 in0.0 mm 0.00 in/hr0.0 mm/hr 0.00 in0.0 mm
02:28 PM 34.2°F1.2°C 12.1°F-11.1°C 41% 3.2 mph SSW5.1 kmh SSW 6.4 mph10.3 kmh 30.06 in1017.9 mb 0.00 in0.0 mm 0.00 in/hr0.0 mm/hr 0.00 in0.0 mm
02:27 PM 33.8°F1.0°C 11.8°F-11.2°C 41% 3.0 mph SW4.8 kmh SW 6.4 mph10.3 kmh 30.06 in1017.9 mb 0.00 in0.0 mm 0.00 in/hr0.0 mm/hr 0.00 in0.0 mm
02:26 PM 33.8°F1.0°C 11.8°F-11.2°C 41% 3.0 mph SW4.8 kmh SW 6.4 mph10.3 kmh 30.06 in1017.9 mb 0.00 in0.0 mm 0.00 in/hr0.0 mm/hr 0.00 in0.0 mm
02:25 PM 34.0°F1.1°C 11.3°F-11.5°C 40% 2.7 mph SW4.3 kmh SW 6.4 mph10.3 kmh 30.05 in1017.6 mb 0.00 in0.0 mm 0.00 in/hr0.0 mm/hr 0.00 in0.0 mm
02:24 PM 33.6°F0.9°C 11.6°F-11.3°C 41% 2.6 mph S4.2 kmh S 6.4 mph10.3 kmh 30.05 in1017.6 mb 0.00 in0.0 mm 0.00 in/hr0.0 mm/hr 0.00 in0.0 mm
02:23 PM 35.4°F1.9°C 13.2°F-10.4°C 41% 2.6 mph SSE4.2 kmh SSE 6.4 mph10.3 kmh 30.05 in1017.6 mb 0.00 in0.0 mm 0.00 in/hr0.0 mm/hr 0.00 in0.0 mm
02:22 PM 35.2°F1.8°C 13.0°F-10.6°C 41% 2.3 mph S3.7 kmh S 6.4 mph10.3 kmh 30.06 in1017.9 mb 0.00 in0.0 mm 0.00 in/hr0.0 mm/hr 0.00 in0.0 mm
02:21 PM 35.8°F2.1°C 14.1°F-9.9°C 42% 2.8 mph S4.5 kmh S 8.1 mph13.0 kmh 30.05 in1017.6 mb 0.00 in0.0 mm 0.00 in/hr0.0 mm/hr 0.00 in0.0 mm
02:20 PM 35.6°F2.0°C 14.0°F-10.0°C 42% 2.9 mph S4.7 kmh S 8.1 mph13.0 kmh 30.05 in1017.6 mb 0.00 in0.0 mm 0.00 in/hr0.0 mm/hr 0.00 in0.0 mm
02:19 PM 36.0°F2.2°C 14.3°F-9.8°C 42% 2.8 mph S4.5 kmh S 8.1 mph13.0 kmh 30.06 in1017.9 mb 0.00 in0.0 mm 0.00 in/hr0.0 mm/hr 0.00 in0.0 mm
02:18 PM 34.7°F1.5°C 13.2°F-10.4°C 42% 3.0 mph S4.8 kmh S 8.1 mph13.0 kmh 30.05 in1017.6 mb 0.00 in0.0 mm 0.00 in/hr0.0 mm/hr 0.00 in0.0 mm
02:17 PM 34.9°F1.6°C 13.9°F-10.1°C 43% 3.1 mph S5.0 kmh S 8.1 mph13.0 kmh 30.05 in1017.6 mb 0.00 in0.0 mm 0.00 in/hr0.0 mm/hr 0.00 in0.0 mm
02:16 PM 34.5°F1.4°C 13.0°F-10.6°C 42% 3.4 mph S5.5 kmh S 8.1 mph13.0 kmh 30.05 in1017.6 mb 0.00 in0.0 mm 0.00 in/hr0.0 mm/hr 0.00 in0.0 mm
02:15 PM 33.8°F1.0°C 11.8°F-11.2°C 41% 3.7 mph S6.0 kmh S 8.1 mph13.0 kmh 30.05 in1017.6 mb 0.00 in0.0 mm 0.00 in/hr0.0 mm/hr 0.00 in0.0 mm
02:14 PM 33.4°F0.8°C 12.0°F-11.1°C 42% 3.8 mph S6.1 kmh S 8.1 mph13.0 kmh 30.05 in1017.6 mb 0.00 in0.0 mm 0.00 in/hr0.0 mm/hr 0.00 in0.0 mm
02:13 PM 34.3°F1.3°C 12.8°F-10.7°C 42% 3.7 mph SSW6.0 kmh SSW 8.1 mph13.0 kmh 30.05 in1017.6 mb 0.00 in0.0 mm 0.00 in/hr0.0 mm/hr 0.00 in0.0 mm
02:12 PM 34.2°F1.2°C 12.7°F-10.7°C 42% 3.7 mph SSW6.0 kmh SSW 8.1 mph13.0 kmh 30.04 in1017.3 mb 0.00 in0.0 mm 0.00 in/hr0.0 mm/hr 0.00 in0.0 mm
02:11 PM 34.0°F1.1°C 12.5°F-10.8°C 42% 3.3 mph SSW5.3 kmh SSW 8.1 mph13.0 kmh 30.05 in1017.6 mb 0.00 in0.0 mm 0.00 in/hr0.0 mm/hr 0.00 in0.0 mm
02:10 PM 33.6°F0.9°C 12.2°F-11.0°C 41% 2.9 mph S4.7 kmh S 4.8 mph7.7 kmh 30.05 in1017.6 mb 0.00 in0.0 mm 0.00 in/hr0.0 mm/hr 0.00 in0.0 mm
02:09 PM 34.2°F1.2°C 12.1°F-11.1°C 41% 2.9 mph S4.7 kmh S 4.8 mph7.7 kmh 30.05 in1017.6 mb 0.00 in0.0 mm 0.00 in/hr0.0 mm/hr 0.00 in0.0 mm
02:08 PM 34.3°F1.3°C 12.2°F-11.0°C 41% 3.0 mph S4.8 kmh S 6.4 mph10.3 kmh 30.05 in1017.6 mb 0.00 in0.0 mm 0.00 in/hr0.0 mm/hr 0.00 in0.0 mm
02:07 PM 34.0°F1.1°C 11.9°F-11.2°C 41% 3.1 mph SSW5.0 kmh SSW 6.4 mph10.3 kmh 30.05 in1017.6 mb 0.00 in0.0 mm 0.00 in/hr0.0 mm/hr 0.00 in0.0 mm
02:06 PM 34.0°F1.1°C 11.9°F-11.2°C 41% 3.1 mph SSW5.0 kmh SSW 6.4 mph10.3 kmh 30.05 in1017.6 mb 0.00 in0.0 mm 0.00 in/hr0.0 mm/hr 0.00 in0.0 mm
02:05 PM 34.0°F1.1°C 11.9°F-11.2°C 41% 3.1 mph SSW5.0 kmh SSW 6.4 mph10.3 kmh 30.05 in1017.6 mb 0.00 in0.0 mm 0.00 in/hr0.0 mm/hr 0.00 in0.0 mm
02:04 PM 34.7°F1.5°C 12.6°F-10.8°C 41% 3.3 mph S5.3 kmh S 6.4 mph10.3 kmh 30.04 in1017.3 mb 0.00 in0.0 mm 0.00 in/hr0.0 mm/hr 0.00 in0.0 mm
02:03 PM 34.9°F1.6°C 12.7°F-10.7°C 41% 3.2 mph S5.1 kmh S 6.4 mph10.3 kmh 30.04 in1017.3 mb 0.00 in0.0 mm 0.00 in/hr0.0 mm/hr 0.00 in0.0 mm
02:02 PM 34.5°F1.4°C 12.4°F-10.9°C 41% 3.2 mph SSW5.1 kmh SSW 6.4 mph10.3 kmh 30.04 in1017.3 mb 0.00 in0.0 mm 0.00 in/hr0.0 mm/hr 0.00 in0.0 mm
02:01 PM 34.2°F1.2°C 12.1°F-11.1°C 41% 3.2 mph SW5.1 kmh SW 6.4 mph10.3 kmh 30.04 in1017.3 mb 0.00 in0.0 mm 0.00 in/hr0.0 mm/hr 0.00 in0.0 mm
02:00 PM 33.8°F1.0°C 11.8°F-11.2°C 41% 3.3 mph SW5.3 kmh SW 6.4 mph10.3 kmh 30.04 in1017.3 mb 0.00 in0.0 mm 0.00 in/hr0.0 mm/hr 0.00 in0.0 mm
01:59 PM 33.4°F0.8°C 12.0°F-11.1°C 42% 3.5 mph SSW5.6 kmh SSW 6.4 mph10.3 kmh 30.04 in1017.3 mb 0.00 in0.0 mm 0.00 in/hr0.0 mm/hr 0.00 in0.0 mm
01:58 PM 34.0°F1.1°C 11.9°F-11.2°C 41% 3.5 mph WSW5.6 kmh WSW 6.4 mph10.3 kmh 30.04 in1017.3 mb 0.00 in0.0 mm 0.00 in/hr0.0 mm/hr 0.00 in0.0 mm
01:57 PM 34.3°F1.3°C 11.6°F-11.3°C 40% 3.3 mph SW5.3 kmh SW 6.4 mph10.3 kmh 30.05 in1017.6 mb 0.00 in0.0 mm 0.00 in/hr0.0 mm/hr 0.00 in0.0 mm
01:56 PM 33.1°F0.6°C 11.1°F-11.6°C 41% 3.2 mph SSW5.1 kmh SSW 6.4 mph10.3 kmh 30.03 in1016.9 mb 0.00 in0.0 mm 0.00 in/hr0.0 mm/hr 0.00 in0.0 mm
01:55 PM 35.4°F1.9°C 13.2°F-10.4°C 41% 3.0 mph SW4.8 kmh SW 6.4 mph10.3 kmh 30.04 in1017.3 mb 0.00 in0.0 mm 0.00 in/hr0.0 mm/hr 0.00 in0.0 mm
01:54 PM 36.3°F2.4°C 13.4°F-10.3°C 40% 2.5 mph SW4.0 kmh SW 5.6 mph9.0 kmh 30.03 in1016.9 mb 0.00 in0.0 mm 0.00 in/hr0.0 mm/hr 0.00 in0.0 mm
01:53 PM 36.5°F2.5°C 14.2°F-9.9°C 41% 2.3 mph W3.7 kmh W 5.6 mph9.0 kmh 30.04 in1017.3 mb 0.00 in0.0 mm 0.00 in/hr0.0 mm/hr 0.00 in0.0 mm
01:52 PM 36.0°F2.2°C 13.7°F-10.2°C 41% 2.2 mph E3.5 kmh E 5.6 mph9.0 kmh 30.04 in1017.3 mb 0.00 in0.0 mm 0.00 in/hr0.0 mm/hr 0.00 in0.0 mm
01:51 PM 34.9°F1.6°C 12.7°F-10.7°C 41% 2.0 mph ENE3.2 kmh ENE 5.6 mph9.0 kmh 30.03 in1016.9 mb 0.00 in0.0 mm 0.00 in/hr0.0 mm/hr 0.00 in0.0 mm
01:50 PM 33.3°F0.7°C 11.9°F-11.2°C 42% 2.2 mph E3.5 kmh E 5.6 mph9.0 kmh 30.04 in1017.3 mb 0.00 in0.0 mm 0.00 in/hr0.0 mm/hr 0.00 in0.0 mm
01:49 PM 34.3°F1.3°C 12.2°F-11.0°C 41% 2.3 mph ESE3.7 kmh ESE 5.6 mph9.0 kmh 30.04 in1017.3 mb 0.00 in0.0 mm 0.00 in/hr0.0 mm/hr 0.00 in0.0 mm
01:48 PM 34.2°F1.2°C 12.1°F-11.1°C 41% 2.0 mph SE3.2 kmh SE 4.8 mph7.7 kmh 30.03 in1016.9 mb 0.00 in0.0 mm 0.00 in/hr0.0 mm/hr 0.00 in0.0 mm
01:47 PM 33.3°F0.7°C 11.9°F-11.2°C 42% 2.0 mph SE3.2 kmh SE 4.8 mph7.7 kmh 30.03 in1016.9 mb 0.00 in0.0 mm 0.00 in/hr0.0 mm/hr 0.00 in0.0 mm
01:46 PM 34.0°F1.1°C 11.9°F-11.2°C 41% 2.1 mph SE3.4 kmh SE 4.8 mph7.7 kmh 30.03 in1016.9 mb 0.00 in0.0 mm 0.00 in/hr0.0 mm/hr 0.00 in0.0 mm
01:45 PM 35.8°F2.1°C 13.5°F-10.3°C 41% 2.1 mph SE3.4 kmh SE 4.8 mph7.7 kmh 30.03 in1016.9 mb 0.00 in0.0 mm 0.00 in/hr0.0 mm/hr 0.00 in0.0 mm
01:44 PM 35.1°F1.7°C 13.5°F-10.3°C 42% 2.3 mph SE3.7 kmh SE 4.8 mph7.7 kmh 30.03 in1016.9 mb 0.00 in0.0 mm 0.00 in/hr0.0 mm/hr 0.00 in0.0 mm
01:43 PM 33.8°F1.0°C 12.4°F-10.9°C 42% 2.6 mph SE4.2 kmh SE 4.8 mph7.7 kmh 30.03 in1016.9 mb 0.00 in0.0 mm 0.00 in/hr0.0 mm/hr 0.00 in0.0 mm
01:42 PM 33.6°F0.9°C 12.2°F-11.0°C 42% 2.8 mph ESE4.5 kmh ESE 4.8 mph7.7 kmh 30.03 in1016.9 mb 0.00 in0.0 mm 0.00 in/hr0.0 mm/hr 0.00 in0.0 mm
01:41 PM 33.3°F0.7°C 12.5°F-10.8°C 43% 3.0 mph ESE4.8 kmh ESE 4.8 mph7.7 kmh 30.02 in1016.6 mb 0.00 in0.0 mm 0.00 in/hr0.0 mm/hr 0.00 in0.0 mm
01:40 PM 33.6°F0.9°C 12.8°F-10.7°C 43% 2.8 mph E4.5 kmh E 4.8 mph7.7 kmh 30.02 in1016.6 mb 0.00 in0.0 mm 0.00 in/hr0.0 mm/hr 0.00 in0.0 mm
01:39 PM 33.3°F0.7°C 12.5°F-10.8°C 43% 2.7 mph NE4.3 kmh NE 4.8 mph7.7 kmh 30.02 in1016.6 mb 0.00 in0.0 mm 0.00 in/hr0.0 mm/hr 0.00 in0.0 mm
01:38 PM 33.3°F0.7°C 12.5°F-10.8°C 43% 2.8 mph NE4.5 kmh NE 4.8 mph7.7 kmh 30.02 in1016.6 mb 0.00 in0.0 mm 0.00 in/hr0.0 mm/hr 0.00 in0.0 mm
01:37 PM 32.9°F0.5°C 12.1°F-11.1°C 43% 3.0 mph NE4.8 kmh NE 4.8 mph7.7 kmh 30.02 in1016.6 mb 0.00 in0.0 mm 0.00 in/hr0.0 mm/hr 0.00 in0.0 mm
01:36 PM 33.4°F0.8°C 12.0°F-11.1°C 42% 2.8 mph NNE4.5 kmh NNE 4.8 mph7.7 kmh 30.02 in1016.6 mb 0.00 in0.0 mm 0.00 in/hr0.0 mm/hr 0.00 in0.0 mm
01:35 PM 33.6°F0.9°C 12.2°F-11.0°C 42% 2.7 mph NNW4.3 kmh NNW 4.8 mph7.7 kmh 30.02 in1016.6 mb 0.00 in0.0 mm 0.00 in/hr0.0 mm/hr 0.00 in0.0 mm
01:34 PM 33.3°F0.7°C 11.9°F-11.2°C 42% 3.0 mph N4.8 kmh N 4.8 mph7.7 kmh 30.02 in1016.6 mb 0.00 in0.0 mm 0.00 in/hr0.0 mm/hr 0.00 in0.0 mm
01:33 PM 34.0°F1.1°C 11.9°F-11.2°C 41% 3.0 mph N4.8 kmh N 4.8 mph7.7 kmh 30.02 in1016.6 mb 0.00 in0.0 mm 0.00 in/hr0.0 mm/hr 0.00 in0.0 mm
01:32 PM 34.3°F1.3°C 12.2°F-11.0°C 41% 2.9 mph NNW4.7 kmh NNW 4.8 mph7.7 kmh 30.02 in1016.6 mb 0.00 in0.0 mm 0.00 in/hr0.0 mm/hr 0.00 in0.0 mm
01:31 PM 34.3°F1.3°C 12.2°F-11.0°C 41% 3.0 mph WNW4.8 kmh WNW 4.8 mph7.7 kmh 30.02 in1016.6 mb 0.00 in0.0 mm 0.00 in/hr0.0 mm/hr 0.00 in0.0 mm
01:30 PM 33.6°F0.9°C 12.2°F-11.0°C 42% 3.2 mph WNW5.1 kmh WNW 4.8 mph7.7 kmh 30.02 in1016.6 mb 0.00 in0.0 mm 0.00 in/hr0.0 mm/hr 0.00 in0.0 mm
01:29 PM 34.3°F1.3°C 12.8°F-10.7°C 42% 3.0 mph WSW4.8 kmh WSW 4.8 mph7.7 kmh 30.02 in1016.6 mb 0.00 in0.0 mm 0.00 in/hr0.0 mm/hr 0.00 in0.0 mm
01:28 PM 35.6°F2.0°C 14.0°F-10.0°C 42% 2.9 mph N4.7 kmh N 4.8 mph7.7 kmh 30.01 in1016.3 mb 0.00 in0.0 mm 0.00 in/hr0.0 mm/hr 0.00 in0.0 mm
01:27 PM 34.9°F1.6°C 13.9°F-10.1°C 43% 2.9 mph E4.7 kmh E 4.8 mph7.7 kmh 30.02 in1016.6 mb 0.00 in0.0 mm 0.00 in/hr0.0 mm/hr 0.00 in0.0 mm
01:26 PM 34.3°F1.3°C 12.8°F-10.7°C 42% 3.1 mph NNE5.0 kmh NNE 4.8 mph7.7 kmh 30.02 in1016.6 mb 0.00 in0.0 mm 0.00 in/hr0.0 mm/hr 0.00 in0.0 mm
01:25 PM 34.0°F1.1°C 11.9°F-11.2°C 41% 3.2 mph NNE5.1 kmh NNE 7.2 mph11.6 kmh 30.02 in1016.6 mb 0.00 in0.0 mm 0.00 in/hr0.0 mm/hr 0.00 in0.0 mm
01:24 PM 34.9°F1.6°C 13.3°F-10.4°C 42% 3.3 mph NNE5.3 kmh NNE 7.2 mph11.6 kmh 30.02 in1016.6 mb 0.00 in0.0 mm 0.00 in/hr0.0 mm/hr 0.00 in0.0 mm
01:23 PM 34.5°F1.4°C 13.0°F-10.6°C 42% 3.4 mph N5.5 kmh N 7.2 mph11.6 kmh 30.02 in1016.6 mb 0.00 in0.0 mm 0.00 in/hr0.0 mm/hr 0.00 in0.0 mm
01:22 PM 35.2°F1.8°C 14.2°F-9.9°C 43% 3.7 mph NNW6.0 kmh NNW 7.2 mph11.6 kmh 30.02 in1016.6 mb 0.00 in0.0 mm 0.00 in/hr0.0 mm/hr 0.00 in0.0 mm
01:21 PM 34.5°F1.4°C 13.0°F-10.6°C 42% 4.0 mph NNW6.4 kmh NNW 7.2 mph11.6 kmh 30.02 in1016.6 mb 0.00 in0.0 mm 0.00 in/hr0.0 mm/hr 0.00 in0.0 mm
01:20 PM 34.0°F1.1°C 12.5°F-10.8°C 42% 4.1 mph NNW6.6 kmh NNW 7.2 mph11.6 kmh 30.02 in1016.6 mb 0.00 in0.0 mm 0.00 in/hr0.0 mm/hr 0.00 in0.0 mm
01:19 PM 33.8°F1.0°C 12.4°F-10.9°C 42% 4.5 mph N7.2 kmh N 7.2 mph11.6 kmh 30.02 in1016.6 mb 0.00 in0.0 mm 0.00 in/hr0.0 mm/hr 0.00 in0.0 mm
01:18 PM 33.4°F0.8°C 12.6°F-10.8°C 43% 4.6 mph N7.4 kmh N 7.2 mph11.6 kmh 30.02 in1016.6 mb 0.00 in0.0 mm 0.00 in/hr0.0 mm/hr 0.00 in0.0 mm
01:17 PM 33.6°F0.9°C 12.2°F-11.0°C 42% 4.5 mph NNW7.2 kmh NNW 7.2 mph11.6 kmh 30.02 in1016.6 mb 0.00 in0.0 mm 0.00 in/hr0.0 mm/hr 0.00 in0.0 mm
01:16 PM 33.4°F0.8°C 12.0°F-11.1°C 42% 4.4 mph NNW7.1 kmh NNW 7.2 mph11.6 kmh 30.02 in1016.6 mb 0.00 in0.0 mm 0.00 in/hr0.0 mm/hr 0.00 in0.0 mm
01:15 PM 34.0°F1.1°C 11.9°F-11.2°C 41% 4.3 mph NNW6.9 kmh NNW 7.2 mph11.6 kmh 30.02 in1016.6 mb 0.00 in0.0 mm 0.00 in/hr0.0 mm/hr 0.00 in0.0 mm
01:14 PM 34.0°F1.1°C 11.9°F-11.2°C 41% 4.0 mph N6.4 kmh N 7.2 mph11.6 kmh 30.02 in1016.6 mb 0.00 in0.0 mm 0.00 in/hr0.0 mm/hr 0.00 in0.0 mm
01:13 PM 33.8°F1.0°C 12.4°F-10.9°C 42% 4.0 mph N6.4 kmh N 7.2 mph11.6 kmh 30.02 in1016.6 mb 0.00 in0.0 mm 0.00 in/hr0.0 mm/hr 0.00 in0.0 mm
01:12 PM 34.3°F1.3°C 12.8°F-10.7°C 42% 3.6 mph NE5.8 kmh NE 7.2 mph11.6 kmh 30.03 in1016.9 mb 0.00 in0.0 mm 0.00 in/hr0.0 mm/hr 0.00 in0.0 mm
01:11 PM 34.2°F1.2°C 12.7°F-10.7°C 42% 3.1 mph ENE5.0 kmh ENE 5.6 mph9.0 kmh 30.03 in1016.9 mb 0.00 in0.0 mm 0.00 in/hr0.0 mm/hr 0.00 in0.0 mm
01:10 PM 34.3°F1.3°C 12.8°F-10.7°C 42% 2.9 mph ENE4.7 kmh ENE 5.6 mph9.0 kmh 30.02 in1016.6 mb 0.00 in0.0 mm 0.00 in/hr0.0 mm/hr 0.00 in0.0 mm
01:09 PM 34.7°F1.5°C 13.7°F-10.2°C 43% 2.5 mph E4.0 kmh E 4.0 mph6.4 kmh 30.03 in1016.9 mb 0.00 in0.0 mm 0.00 in/hr0.0 mm/hr 0.00 in0.0 mm
01:08 PM 34.3°F1.3°C 12.8°F-10.7°C 42% 2.4 mph NE3.9 kmh NE 4.0 mph6.4 kmh 30.03 in1016.9 mb 0.00 in0.0 mm 0.00 in/hr0.0 mm/hr 0.00 in0.0 mm
01:07 PM 33.8°F1.0°C 11.8°F-11.2°C 41% 2.6 mph NE4.2 kmh NE 4.8 mph7.7 kmh 30.03 in1016.9 mb 0.00 in0.0 mm 0.00 in/hr0.0 mm/hr 0.00 in0.0 mm
01:06 PM 33.6°F0.9°C 12.2°F-11.0°C 42% 2.7 mph NE4.3 kmh NE 4.8 mph7.7 kmh 30.03 in1016.9 mb 0.00 in0.0 mm 0.00 in/hr0.0 mm/hr 0.00 in0.0 mm
01:05 PM 33.6°F0.9°C 12.2°F-11.0°C 42% 2.9 mph NE4.7 kmh NE 4.8 mph7.7 kmh 30.03 in1016.9 mb 0.00 in0.0 mm 0.00 in/hr0.0 mm/hr 0.00 in0.0 mm
01:04 PM 34.3°F1.3°C 12.8°F-10.7°C 42% 3.1 mph N5.0 kmh N 7.2 mph11.6 kmh 30.04 in1017.3 mb 0.00 in0.0 mm 0.00 in/hr0.0 mm/hr 0.00 in0.0 mm
01:03 PM 35.1°F1.7°C 13.5°F-10.3°C 42% 3.2 mph N5.1 kmh N 7.2 mph11.6 kmh 30.04 in1017.3 mb 0.00 in0.0 mm 0.00 in/hr0.0 mm/hr 0.00 in0.0 mm
01:02 PM 33.8°F1.0°C 12.9°F-10.6°C 43% 3.5 mph N5.6 kmh N 7.2 mph11.6 kmh 30.04 in1017.3 mb 0.00 in0.0 mm 0.00 in/hr0.0 mm/hr 0.00 in0.0 mm
01:01 PM 33.4°F0.8°C 13.2°F-10.4°C 44% 3.8 mph N6.1 kmh N 7.2 mph11.6 kmh 30.04 in1017.3 mb 0.00 in0.0 mm 0.00 in/hr0.0 mm/hr 0.00 in0.0 mm
01:00 PM 33.4°F0.8°C 13.2°F-10.4°C 44% 4.1 mph N6.6 kmh N 7.2 mph11.6 kmh 30.04 in1017.3 mb 0.00 in0.0 mm 0.00 in/hr0.0 mm/hr 0.00 in0.0 mm
12:59 PM 32.9°F0.5°C 12.7°F-10.7°C 44% 4.2 mph N6.8 kmh N 7.2 mph11.6 kmh 30.04 in1017.3 mb 0.00 in0.0 mm 0.00 in/hr0.0 mm/hr 0.00 in0.0 mm
12:58 PM 32.4°F0.2°C 12.2°F-11.0°C 44% 4.4 mph N7.1 kmh N 7.2 mph11.6 kmh 30.04 in1017.3 mb 0.00 in0.0 mm 0.00 in/hr0.0 mm/hr 0.00 in0.0 mm
12:57 PM 32.9°F0.5°C 12.7°F-10.7°C 44% 4.5 mph N7.2 kmh N 7.2 mph11.6 kmh 30.04 in1017.3 mb 0.00 in0.0 mm 0.00 in/hr0.0 mm/hr 0.00 in0.0 mm
12:56 PM 33.6°F0.9°C 13.3°F-10.4°C 44% 4.6 mph N7.4 kmh N 7.2 mph11.6 kmh 30.04 in1017.3 mb 0.00 in0.0 mm 0.00 in/hr0.0 mm/hr 0.00 in0.0 mm
12:55 PM 33.4°F0.8°C 13.2°F-10.4°C 44% 4.6 mph N7.4 kmh N 7.2 mph11.6 kmh 30.04 in1017.3 mb 0.00 in0.0 mm 0.00 in/hr0.0 mm/hr 0.00 in0.0 mm
12:54 PM 33.6°F0.9°C 13.9°F-10.1°C 45% 4.3 mph N6.9 kmh N 7.2 mph11.6 kmh 30.04 in1017.3 mb 0.00 in0.0 mm 0.00 in/hr0.0 mm/hr 0.00 in0.0 mm
12:53 PM 32.7°F0.4°C 12.5°F-10.8°C 44% 4.2 mph NNE6.8 kmh NNE 6.4 mph10.3 kmh 30.04 in1017.3 mb 0.00 in0.0 mm 0.00 in/hr0.0 mm/hr 0.00 in0.0 mm
12:52 PM 32.7°F0.4°C 12.0°F-11.1°C 43% 4.0 mph NNE6.4 kmh NNE 6.4 mph10.3 kmh 30.03 in1016.9 mb 0.00 in0.0 mm 0.00 in/hr0.0 mm/hr 0.00 in0.0 mm
12:51 PM 32.7°F0.4°C 12.0°F-11.1°C 43% 3.7 mph NNE6.0 kmh NNE 6.4 mph10.3 kmh 30.04 in1017.3 mb 0.00 in0.0 mm 0.00 in/hr0.0 mm/hr 0.00 in0.0 mm
12:50 PM 32.5°F0.3°C 11.8°F-11.2°C 43% 3.5 mph NE5.6 kmh NE 6.4 mph10.3 kmh 30.04 in1017.3 mb 0.00 in0.0 mm 0.00 in/hr0.0 mm/hr 0.00 in0.0 mm
12:49 PM 32.9°F0.5°C 12.7°F-10.7°C 44% 3.5 mph NE5.6 kmh NE 6.4 mph10.3 kmh 30.04 in1017.3 mb 0.00 in0.0 mm 0.00 in/hr0.0 mm/hr 0.00 in0.0 mm
12:48 PM 33.4°F0.8°C 12.6°F-10.8°C 43% 3.2 mph NNE5.1 kmh NNE 6.4 mph10.3 kmh 30.04 in1017.3 mb 0.00 in0.0 mm 0.00 in/hr0.0 mm/hr 0.00 in0.0 mm
12:47 PM 33.1°F0.6°C 12.3°F-10.9°C 43% 2.8 mph N4.5 kmh N 5.6 mph9.0 kmh 30.04 in1017.3 mb 0.00 in0.0 mm 0.00 in/hr0.0 mm/hr 0.00 in0.0 mm
12:46 PM 33.3°F0.7°C 12.5°F-10.8°C 43% 2.8 mph NNE4.5 kmh NNE 5.6 mph9.0 kmh 30.04 in1017.3 mb 0.00 in0.0 mm 0.00 in/hr0.0 mm/hr 0.00 in0.0 mm
12:45 PM 33.1°F0.6°C 12.3°F-10.9°C 43% 2.8 mph NNE4.5 kmh NNE 5.6 mph9.0 kmh 30.04 in1017.3 mb 0.00 in0.0 mm 0.00 in/hr0.0 mm/hr 0.00 in0.0 mm
12:44 PM 32.9°F0.5°C 12.7°F-10.7°C 44% 3.0 mph NNE4.8 kmh NNE 5.6 mph9.0 kmh 30.04 in1017.3 mb 0.00 in0.0 mm 0.00 in/hr0.0 mm/hr 0.00 in0.0 mm
12:43 PM 33.8°F1.0°C 12.9°F-10.6°C 43% 3.0 mph N4.8 kmh N 5.6 mph9.0 kmh 30.04 in1017.3 mb 0.00 in0.0 mm 0.00 in/hr0.0 mm/hr 0.00 in0.0 mm
12:42 PM 33.8°F1.0°C 13.5°F-10.3°C 44% 2.9 mph N4.7 kmh N 4.8 mph7.7 kmh 30.04 in1017.3 mb 0.00 in0.0 mm 0.00 in/hr0.0 mm/hr 0.00 in0.0 mm
12:41 PM 34.0°F1.1°C 13.1°F-10.5°C 43% 3.0 mph N4.8 kmh N 4.8 mph7.7 kmh 30.04 in1017.3 mb 0.00 in0.0 mm 0.00 in/hr0.0 mm/hr 0.00 in0.0 mm
12:40 PM 34.3°F1.3°C 14.0°F-10.0°C 44% 2.9 mph N4.7 kmh N 4.8 mph7.7 kmh 30.04 in1017.3 mb 0.00 in0.0 mm 0.00 in/hr0.0 mm/hr 0.00 in0.0 mm
12:39 PM 34.2°F1.2°C 13.8°F-10.1°C 44% 2.9 mph N4.7 kmh N 4.8 mph7.7 kmh 30.04 in1017.3 mb 0.00 in0.0 mm 0.00 in/hr0.0 mm/hr 0.00 in0.0 mm
12:38 PM 33.4°F0.8°C 13.2°F-10.4°C 44% 3.1 mph N5.0 kmh N 4.8 mph7.7 kmh 30.04 in1017.3 mb 0.00 in0.0 mm 0.00 in/hr0.0 mm/hr 0.00 in0.0 mm
12:37 PM 32.5°F0.3°C 12.4°F-10.9°C 44% 3.3 mph NNE5.3 kmh NNE 4.8 mph7.7 kmh 30.05 in1017.6 mb 0.00 in0.0 mm 0.00 in/hr0.0 mm/hr 0.00 in0.0 mm
12:36 PM 32.7°F0.4°C 12.5°F-10.8°C 44% 3.3 mph N5.3 kmh N 4.8 mph7.7 kmh 30.04 in1017.3 mb 0.00 in0.0 mm 0.00 in/hr0.0 mm/hr 0.00 in0.0 mm
12:35 PM 32.4°F0.2°C 12.2°F-11.0°C 44% 3.2 mph N5.1 kmh N 4.8 mph7.7 kmh 30.04 in1017.3 mb 0.00 in0.0 mm 0.00 in/hr0.0 mm/hr 0.00 in0.0 mm
12:34 PM 33.3°F0.7°C 13.0°F-10.6°C 44% 3.1 mph N5.0 kmh N 4.8 mph7.7 kmh 30.04 in1017.3 mb 0.00 in0.0 mm 0.00 in/hr0.0 mm/hr 0.00 in0.0 mm
12:33 PM 33.1°F0.6°C 13.4°F-10.3°C 45% 2.9 mph N4.7 kmh N 4.8 mph7.7 kmh 30.04 in1017.3 mb 0.00 in0.0 mm 0.00 in/hr0.0 mm/hr 0.00 in0.0 mm
12:32 PM 33.6°F0.9°C 13.9°F-10.1°C 45% 3.0 mph N4.8 kmh N 4.8 mph7.7 kmh 30.04 in1017.3 mb 0.00 in0.0 mm 0.00 in/hr0.0 mm/hr 0.00 in0.0 mm
12:31 PM 33.3°F0.7°C 13.6°F-10.2°C 45% 3.0 mph N4.8 kmh N 4.8 mph7.7 kmh 30.04 in1017.3 mb 0.00 in0.0 mm 0.00 in/hr0.0 mm/hr 0.00 in0.0 mm
12:30 PM 32.4°F0.2°C 12.2°F-11.0°C 44% 3.0 mph N4.8 kmh N 4.8 mph7.7 kmh 30.04 in1017.3 mb 0.00 in0.0 mm 0.00 in/hr0.0 mm/hr 0.00 in0.0 mm
12:29 PM 32.4°F0.2°C 12.8°F-10.7°C 45% 3.0 mph NNE4.8 kmh NNE 4.8 mph7.7 kmh 30.04 in1017.3 mb 0.00 in0.0 mm 0.00 in/hr0.0 mm/hr 0.00 in0.0 mm
12:28 PM 32.7°F0.4°C 13.1°F-10.5°C 45% 2.9 mph N4.7 kmh N 4.8 mph7.7 kmh 30.04 in1017.3 mb 0.00 in0.0 mm 0.00 in/hr0.0 mm/hr 0.00 in0.0 mm
12:27 PM 32.7°F0.4°C 13.1°F-10.5°C 45% 2.8 mph N4.5 kmh N 4.8 mph7.7 kmh 30.04 in1017.3 mb 0.00 in0.0 mm 0.00 in/hr0.0 mm/hr 0.00 in0.0 mm
12:26 PM 32.4°F0.2°C 12.8°F-10.7°C 45% 2.7 mph N4.3 kmh N 4.8 mph7.7 kmh 30.04 in1017.3 mb 0.00 in0.0 mm 0.00 in/hr0.0 mm/hr 0.00 in0.0 mm
12:25 PM 32.4°F0.2°C 12.8°F-10.7°C 45% 3.0 mph N4.8 kmh N 8.9 mph14.3 kmh 30.05 in1017.6 mb 0.00 in0.0 mm 0.00 in/hr0.0 mm/hr 0.00 in0.0 mm
12:24 PM 32.5°F0.3°C 12.9°F-10.6°C 45% 3.3 mph N5.3 kmh N 8.9 mph14.3 kmh 30.04 in1017.3 mb 0.00 in0.0 mm 0.00 in/hr0.0 mm/hr 0.00 in0.0 mm
12:23 PM 33.3°F0.7°C 14.1°F-9.9°C 46% 3.4 mph N5.5 kmh N 8.9 mph14.3 kmh 30.05 in1017.6 mb 0.00 in0.0 mm 0.00 in/hr0.0 mm/hr 0.00 in0.0 mm
12:22 PM 33.1°F0.6°C 14.0°F-10.0°C 46% 3.6 mph N5.8 kmh N 8.9 mph14.3 kmh 30.05 in1017.6 mb 0.00 in0.0 mm 0.00 in/hr0.0 mm/hr 0.00 in0.0 mm
12:21 PM 31.6°F-0.2°C 13.2°F-10.4°C 47% 3.7 mph NNE6.0 kmh NNE 8.9 mph14.3 kmh 30.04 in1017.3 mb 0.00 in0.0 mm 0.00 in/hr0.0 mm/hr 0.00 in0.0 mm
12:20 PM 31.5°F-0.3°C 13.0°F-10.6°C 47% 3.9 mph N6.3 kmh N 8.9 mph14.3 kmh 30.04 in1017.3 mb 0.00 in0.0 mm 0.00 in/hr0.0 mm/hr 0.00 in0.0 mm
12:19 PM 31.5°F-0.3°C 12.5°F-10.8°C 46% 3.9 mph N6.3 kmh N 8.9 mph14.3 kmh 30.04 in1017.3 mb 0.00 in0.0 mm 0.00 in/hr0.0 mm/hr 0.00 in0.0 mm
12:18 PM 31.1°F-0.5°C 12.2°F-11.0°C 46% 3.8 mph N6.1 kmh N 8.9 mph14.3 kmh 30.04 in1017.3 mb 0.00 in0.0 mm 0.00 in/hr0.0 mm/hr 0.00 in0.0 mm
12:17 PM 31.1°F-0.5°C 12.2°F-11.0°C 46% 3.9 mph N6.3 kmh N 8.9 mph14.3 kmh 30.04 in1017.3 mb 0.00 in0.0 mm 0.00 in/hr0.0 mm/hr 0.00 in0.0 mm
12:16 PM 30.9°F-0.6°C 12.0°F-11.1°C 46% 4.2 mph N6.8 kmh N 8.9 mph14.3 kmh 30.04 in1017.3 mb 0.00 in0.0 mm 0.00 in/hr0.0 mm/hr 0.00 in0.0 mm
12:15 PM 32.0°F0.0°C 12.5°F-10.8°C 45% 4.1 mph N6.6 kmh N 8.9 mph14.3 kmh 30.04 in1017.3 mb 0.00 in0.0 mm 0.00 in/hr0.0 mm/hr 0.00 in0.0 mm
12:14 PM 31.8°F-0.1°C 12.3°F-10.9°C 45% 3.8 mph N6.1 kmh N 6.4 mph10.3 kmh 30.04 in1017.3 mb 0.00 in0.0 mm 0.00 in/hr0.0 mm/hr 0.00 in0.0 mm
12:13 PM 32.9°F0.5°C 13.8°F-10.1°C 46% 4.1 mph NNW6.6 kmh NNW 8.9 mph14.3 kmh 30.04 in1017.3 mb 0.00 in0.0 mm 0.00 in/hr0.0 mm/hr 0.00 in0.0 mm
12:12 PM 33.3°F0.7°C 13.6°F-10.2°C 45% 4.1 mph NW6.6 kmh NW 8.9 mph14.3 kmh 30.04 in1017.3 mb 0.00 in0.0 mm 0.00 in/hr0.0 mm/hr 0.00 in0.0 mm
12:11 PM 32.4°F0.2°C 13.3°F-10.4°C 46% 4.1 mph WNW6.6 kmh WNW 8.9 mph14.3 kmh 30.04 in1017.3 mb 0.00 in0.0 mm 0.00 in/hr0.0 mm/hr 0.00 in0.0 mm
12:10 PM 32.7°F0.4°C 13.1°F-10.5°C 45% 4.1 mph W6.6 kmh W 8.9 mph14.3 kmh 30.04 in1017.3 mb 0.00 in0.0 mm 0.00 in/hr0.0 mm/hr 0.00 in0.0 mm
12:09 PM 31.8°F-0.1°C 12.3°F-10.9°C 45% 4.1 mph WSW6.6 kmh WSW 8.9 mph14.3 kmh 30.04 in1017.3 mb 0.00 in0.0 mm 0.00 in/hr0.0 mm/hr 0.00 in0.0 mm
12:08 PM 30.7°F-0.7°C 11.3°F-11.5°C 45% 4.2 mph WSW6.8 kmh WSW 8.9 mph14.3 kmh 30.04 in1017.3 mb 0.00 in0.0 mm 0.00 in/hr0.0 mm/hr 0.00 in0.0 mm
12:07 PM 31.5°F-0.3°C 12.0°F-11.1°C 45% 4.1 mph WSW6.6 kmh WSW 8.9 mph14.3 kmh 30.04 in1017.3 mb 0.00 in0.0 mm 0.00 in/hr0.0 mm/hr 0.00 in0.0 mm
12:06 PM 32.4°F0.2°C 12.8°F-10.7°C 45% 3.8 mph WSW6.1 kmh WSW 8.9 mph14.3 kmh 30.03 in1016.9 mb 0.00 in0.0 mm 0.00 in/hr0.0 mm/hr 0.00 in0.0 mm
12:05 PM 32.4°F0.2°C 12.8°F-10.7°C 45% 3.5 mph WSW5.6 kmh WSW 8.9 mph14.3 kmh 30.04 in1017.3 mb 0.00 in0.0 mm 0.00 in/hr0.0 mm/hr 0.00 in0.0 mm
12:04 PM 32.4°F0.2°C 12.8°F-10.7°C 45% 3.5 mph W5.6 kmh W 8.9 mph14.3 kmh 30.04 in1017.3 mb 0.00 in0.0 mm 0.00 in/hr0.0 mm/hr 0.00 in0.0 mm
12:03 PM 32.7°F0.4°C 13.1°F-10.5°C 45% 3.3 mph NW5.3 kmh NW 8.9 mph14.3 kmh 30.04 in1017.3 mb 0.00 in0.0 mm 0.00 in/hr0.0 mm/hr 0.00 in0.0 mm
12:02 PM 32.0°F0.0°C 12.5°F-10.8°C 45% 3.4 mph NNW5.5 kmh NNW 6.4 mph10.3 kmh 30.04 in1017.3 mb 0.00 in0.0 mm 0.00 in/hr0.0 mm/hr 0.00 in0.0 mm
12:01 PM 33.6°F0.9°C 15.0°F-9.4°C 47% 3.5 mph N5.6 kmh N 6.4 mph10.3 kmh 30.04 in1017.3 mb 0.00 in0.0 mm 0.00 in/hr0.0 mm/hr 0.00 in0.0 mm
12:00 PM 33.3°F0.7°C 14.7°F-9.6°C 47% 3.5 mph N5.6 kmh N 6.4 mph10.3 kmh 30.04 in1017.3 mb 0.00 in0.0 mm 0.00 in/hr0.0 mm/hr 0.00 in0.0 mm
11:59 AM 32.7°F0.4°C 13.6°F-10.2°C 46% 3.7 mph N6.0 kmh N 6.4 mph10.3 kmh 30.04 in1017.3 mb 0.00 in0.0 mm 0.00 in/hr0.0 mm/hr 0.00 in0.0 mm
11:58 AM 31.5°F-0.3°C 13.0°F-10.6°C 47% 3.9 mph N6.3 kmh N 6.4 mph10.3 kmh 30.04 in1017.3 mb 0.00 in0.0 mm 0.00 in/hr0.0 mm/hr 0.00 in0.0 mm
11:57 AM 31.5°F-0.3°C 13.0°F-10.6°C 47% 4.0 mph N6.4 kmh N 6.4 mph10.3 kmh 30.04 in1017.3 mb 0.00 in0.0 mm 0.00 in/hr0.0 mm/hr 0.00 in0.0 mm
11:56 AM 30.6°F-0.8°C 11.7°F-11.3°C 46% 4.0 mph N6.4 kmh N 6.4 mph10.3 kmh 30.04 in1017.3 mb 0.00 in0.0 mm 0.00 in/hr0.0 mm/hr 0.00 in0.0 mm
11:55 AM 30.2°F-1.0°C 11.4°F-11.4°C 46% 4.1 mph N6.6 kmh N 6.4 mph10.3 kmh 30.04 in1017.3 mb 0.00 in0.0 mm 0.00 in/hr0.0 mm/hr 0.00 in0.0 mm
11:54 AM 30.6°F-0.8°C 11.7°F-11.3°C 46% 3.9 mph N6.3 kmh N 6.4 mph10.3 kmh 30.04 in1017.3 mb 0.00 in0.0 mm 0.00 in/hr0.0 mm/hr 0.00 in0.0 mm
11:53 AM 31.5°F-0.3°C 12.0°F-11.1°C 45% 3.7 mph N6.0 kmh N 6.4 mph10.3 kmh 30.05 in1017.6 mb 0.00 in0.0 mm 0.00 in/hr0.0 mm/hr 0.00 in0.0 mm
11:52 AM 32.0°F0.0°C 11.9°F-11.2°C 44% 3.5 mph NE5.6 kmh NE 4.8 mph7.7 kmh 30.05 in1017.6 mb 0.00 in0.0 mm 0.00 in/hr0.0 mm/hr 0.00 in0.0 mm
11:51 AM 31.5°F-0.3°C 12.0°F-11.1°C 45% 3.4 mph NE5.5 kmh NE 4.8 mph7.7 kmh 30.05 in1017.6 mb 0.00 in0.0 mm 0.00 in/hr0.0 mm/hr 0.00 in0.0 mm
11:50 AM 31.8°F-0.1°C 12.3°F-10.9°C 45% 3.2 mph SE5.1 kmh SE 4.8 mph7.7 kmh 30.05 in1017.6 mb 0.00 in0.0 mm 0.00 in/hr0.0 mm/hr 0.00 in0.0 mm
11:49 AM 33.8°F1.0°C 12.9°F-10.6°C 43% 3.0 mph SW4.8 kmh SW 4.8 mph7.7 kmh 30.05 in1017.6 mb 0.00 in0.0 mm 0.00 in/hr0.0 mm/hr 0.00 in0.0 mm
11:48 AM 33.8°F1.0°C 13.5°F-10.3°C 44% 2.8 mph S4.5 kmh S 4.8 mph7.7 kmh 30.05 in1017.6 mb 0.00 in0.0 mm 0.00 in/hr0.0 mm/hr 0.00 in0.0 mm
11:47 AM 33.3°F0.7°C 13.6°F-10.2°C 45% 2.9 mph SW4.7 kmh SW 4.8 mph7.7 kmh 30.05 in1017.6 mb 0.00 in0.0 mm 0.00 in/hr0.0 mm/hr 0.00 in0.0 mm
11:46 AM 33.3°F0.7°C 13.6°F-10.2°C 45% 3.1 mph NW5.0 kmh NW 4.8 mph7.7 kmh 30.05 in1017.6 mb 0.00 in0.0 mm 0.00 in/hr0.0 mm/hr 0.00 in0.0 mm
11:45 AM 32.5°F0.3°C 12.9°F-10.6°C 45% 3.0 mph N4.8 kmh N 4.8 mph7.7 kmh 30.05 in1017.6 mb 0.00 in0.0 mm 0.00 in/hr0.0 mm/hr 0.00 in0.0 mm
11:44 AM 32.2°F0.1°C 12.6°F-10.8°C 45% 3.0 mph N4.8 kmh N 4.8 mph7.7 kmh 30.06 in1017.9 mb 0.00 in0.0 mm 0.00 in/hr0.0 mm/hr 0.00 in0.0 mm
11:43 AM 32.2°F0.1°C 12.6°F-10.8°C 45% 3.0 mph N4.8 kmh N 4.8 mph7.7 kmh 30.05 in1017.6 mb 0.00 in0.0 mm 0.00 in/hr0.0 mm/hr 0.00 in0.0 mm
11:42 AM 33.3°F0.7°C 14.1°F-9.9°C 46% 2.7 mph NNE4.3 kmh NNE 4.8 mph7.7 kmh 30.05 in1017.6 mb 0.00 in0.0 mm 0.00 in/hr0.0 mm/hr 0.00 in0.0 mm
11:41 AM 32.7°F0.4°C 13.6°F-10.2°C 46% 2.6 mph NNE4.2 kmh NNE 4.8 mph7.7 kmh 30.06 in1017.9 mb 0.00 in0.0 mm 0.00 in/hr0.0 mm/hr 0.00 in0.0 mm
11:40 AM 32.0°F0.0°C 12.5°F-10.8°C 45% 2.7 mph NNE4.3 kmh NNE 4.8 mph7.7 kmh 30.06 in1017.9 mb 0.00 in0.0 mm 0.00 in/hr0.0 mm/hr 0.00 in0.0 mm
11:39 AM 31.5°F-0.3°C 12.0°F-11.1°C 45% 2.8 mph NNE4.5 kmh NNE 4.8 mph7.7 kmh 30.05 in1017.6 mb 0.00 in0.0 mm 0.00 in/hr0.0 mm/hr 0.00 in0.0 mm
11:38 AM 32.0°F0.0°C 11.9°F-11.2°C 44% 2.8 mph N4.5 kmh N 4.8 mph7.7 kmh 30.06 in1017.9 mb 0.00 in0.0 mm 0.00 in/hr0.0 mm/hr 0.00 in0.0 mm
11:37 AM 31.6°F-0.2°C 12.1°F-11.1°C 45% 2.7 mph N4.3 kmh N 4.8 mph7.7 kmh 30.06 in1017.9 mb 0.00 in0.0 mm 0.00 in/hr0.0 mm/hr 0.00 in0.0 mm
11:36 AM 33.3°F0.7°C 13.6°F-10.2°C 45% 2.3 mph NNE3.7 kmh NNE 4.0 mph6.4 kmh 30.06 in1017.9 mb 0.00 in0.0 mm 0.00 in/hr0.0 mm/hr 0.00 in0.0 mm
11:35 AM 34.0°F1.1°C 14.2°F-9.9°C 45% 1.9 mph N3.1 kmh N 3.2 mph5.1 kmh 30.06 in1017.9 mb 0.00 in0.0 mm 0.00 in/hr0.0 mm/hr 0.00 in0.0 mm
11:34 AM 34.0°F1.1°C 14.2°F-9.9°C 45% 2.0 mph N3.2 kmh N 2.9 mph4.7 kmh 30.06 in1017.9 mb 0.00 in0.0 mm 0.00 in/hr0.0 mm/hr 0.00 in0.0 mm
11:33 AM 33.6°F0.9°C 14.4°F-9.8°C 46% 2.3 mph N3.7 kmh N 6.7 mph10.8 kmh 30.06 in1017.9 mb 0.00 in0.0 mm 0.00 in/hr0.0 mm/hr 0.00 in0.0 mm
11:29 AM 34.3°F1.3°C 16.1°F-8.8°C 48% 2.9 mph N4.7 kmh N 5.6 mph9.0 kmh 30.07 in1018.3 mb 0.00 in0.0 mm 0.00 in/hr0.0 mm/hr 0.00 in0.0 mm
11:28 AM 32.5°F0.3°C 15.0°F-9.4°C 49% 3.0 mph N4.8 kmh N 5.6 mph9.0 kmh 30.07 in1018.3 mb 0.00 in0.0 mm 0.00 in/hr0.0 mm/hr 0.00 in0.0 mm
11:27 AM 30.9°F-0.6°C 13.6°F-10.2°C 49% 3.2 mph N5.1 kmh N 5.6 mph9.0 kmh 30.07 in1018.3 mb 0.00 in0.0 mm 0.00 in/hr0.0 mm/hr 0.00 in0.0 mm
11:26 AM 32.2°F0.1°C 14.2°F-9.9°C 48% 3.4 mph N5.5 kmh N 5.6 mph9.0 kmh 30.07 in1018.3 mb 0.00 in0.0 mm 0.00 in/hr0.0 mm/hr 0.00 in0.0 mm
11:25 AM 29.3°F-1.5°C 12.1°F-11.1°C 49% 3.4 mph N5.5 kmh N 5.6 mph9.0 kmh 30.07 in1018.3 mb 0.00 in0.0 mm 0.00 in/hr0.0 mm/hr 0.00 in0.0 mm
11:24 AM 29.1°F-1.6°C 11.4°F-11.4°C 48% 3.6 mph N5.8 kmh N 5.6 mph9.0 kmh 30.07 in1018.3 mb 0.00 in0.0 mm 0.00 in/hr0.0 mm/hr 0.00 in0.0 mm
11:23 AM 30.2°F-1.0°C 11.9°F-11.2°C 47% 3.6 mph NE5.8 kmh NE 5.6 mph9.0 kmh 30.07 in1018.3 mb 0.00 in0.0 mm 0.00 in/hr0.0 mm/hr 0.00 in0.0 mm
11:22 AM 29.8°F-1.2°C 11.6°F-11.3°C 47% 3.3 mph ENE5.3 kmh ENE 4.8 mph7.7 kmh 30.07 in1018.3 mb 0.00 in0.0 mm 0.00 in/hr0.0 mm/hr 0.00 in0.0 mm
11:21 AM 30.6°F-0.8°C 11.2°F-11.6°C 45% 3.0 mph E4.8 kmh E 4.8 mph7.7 kmh 30.07 in1018.3 mb 0.00 in0.0 mm 0.00 in/hr0.0 mm/hr 0.00 in0.0 mm
11:20 AM 30.4°F-0.9°C 10.5°F-11.9°C 44% 2.8 mph SE4.5 kmh SE 4.8 mph7.7 kmh 30.08 in1018.6 mb 0.00 in0.0 mm 0.00 in/hr0.0 mm/hr 0.00 in0.0 mm
11:19 AM 30.0°F-1.1°C 10.1°F-12.2°C 44% 2.7 mph SE4.3 kmh SE 4.8 mph7.7 kmh 30.07 in1018.3 mb 0.00 in0.0 mm 0.00 in/hr0.0 mm/hr 0.00 in0.0 mm
11:18 AM 29.1°F-1.6°C 9.3°F-12.6°C 44% 2.6 mph SE4.2 kmh SE 4.8 mph7.7 kmh 30.08 in1018.6 mb 0.00 in0.0 mm 0.00 in/hr0.0 mm/hr 0.00 in0.0 mm
11:17 AM 30.2°F-1.0°C 9.7°F-12.4°C 43% 2.5 mph SE4.0 kmh SE 4.8 mph7.7 kmh 30.08 in1018.6 mb 0.00 in0.0 mm 0.00 in/hr0.0 mm/hr 0.00 in0.0 mm
11:16 AM 28.8°F-1.8°C 8.5°F-13.1°C 43% 2.5 mph SE4.0 kmh SE 4.8 mph7.7 kmh 30.08 in1018.6 mb 0.00 in0.0 mm 0.00 in/hr0.0 mm/hr 0.00 in0.0 mm
11:15 AM 28.6°F-1.9°C 8.3°F-13.2°C 43% 2.6 mph SE4.2 kmh SE 4.8 mph7.7 kmh 30.09 in1019.0 mb 0.00 in0.0 mm 0.00 in/hr0.0 mm/hr 0.00 in0.0 mm
11:14 AM 28.8°F-1.8°C 8.5°F-13.1°C 43% 2.2 mph ESE3.5 kmh ESE 4.8 mph7.7 kmh 30.08 in1018.6 mb 0.00 in0.0 mm 0.00 in/hr0.0 mm/hr 0.00 in0.0 mm
11:13 AM 29.1°F-1.6°C 8.8°F-12.9°C 43% 1.8 mph E2.9 kmh E 3.2 mph5.1 kmh 30.08 in1018.6 mb 0.00 in0.0 mm 0.00 in/hr0.0 mm/hr 0.00 in0.0 mm
11:12 AM 28.8°F-1.8°C 8.5°F-13.1°C 43% 1.7 mph E2.7 kmh E 3.2 mph5.1 kmh 30.08 in1018.6 mb 0.00 in0.0 mm 0.00 in/hr0.0 mm/hr 0.00 in0.0 mm
11:11 AM 28.0°F-2.2°C 5.5°F-14.7°C 39% 1.6 mph E2.6 kmh E 3.2 mph5.1 kmh 30.09 in1019.0 mb 0.00 in0.0 mm 0.00 in/hr0.0 mm/hr 0.00 in0.0 mm
11:10 AM 26.6°F-3.0°C 4.2°F-15.4°C 39% 1.4 mph ENE2.3 kmh ENE 3.2 mph5.1 kmh 30.09 in1019.0 mb 0.00 in0.0 mm 0.00 in/hr0.0 mm/hr 0.00 in0.0 mm
11:09 AM 28.8°F-1.8°C 8.5°F-13.1°C 43% 1.2 mph NE1.9 kmh NE 3.2 mph5.1 kmh 30.10 in1019.3 mb 0.00 in0.0 mm 0.00 in/hr0.0 mm/hr 0.00 in0.0 mm
11:08 AM 28.4°F-2.0°C 8.1°F-13.3°C 43% 1.1 mph NE1.8 kmh NE 3.2 mph5.1 kmh 30.09 in1019.0 mb 0.00 in0.0 mm 0.00 in/hr0.0 mm/hr 0.00 in0.0 mm
11:07 AM 28.4°F-2.0°C 8.1°F-13.3°C 43% 1.1 mph E1.8 kmh E 3.2 mph5.1 kmh 30.09 in1019.0 mb 0.00 in0.0 mm 0.00 in/hr0.0 mm/hr 0.00 in0.0 mm
11:06 AM 27.9°F-2.3°C 5.9°F-14.5°C 40% 1.1 mph NE1.8 kmh NE 3.2 mph5.1 kmh 30.09 in1019.0 mb 0.00 in0.0 mm 0.00 in/hr0.0 mm/hr 0.00 in0.0 mm
11:05 AM 26.6°F-3.0°C 4.8°F-15.1°C 40% 1.2 mph ENE1.9 kmh ENE 3.2 mph5.1 kmh 30.09 in1019.0 mb 0.00 in0.0 mm 0.00 in/hr0.0 mm/hr 0.00 in0.0 mm
11:04 AM 26.6°F-3.0°C 4.8°F-15.1°C 40% 1.4 mph E2.3 kmh E 3.2 mph5.1 kmh 30.10 in1019.3 mb 0.00 in0.0 mm 0.00 in/hr0.0 mm/hr 0.00 in0.0 mm
11:03 AM 26.6°F-3.0°C 4.8°F-15.1°C 40% 1.6 mph E2.6 kmh E 3.2 mph5.1 kmh 30.09 in1019.0 mb 0.00 in0.0 mm 0.00 in/hr0.0 mm/hr 0.00 in0.0 mm
11:02 AM 26.6°F-3.0°C 4.8°F-15.1°C 40% 1.8 mph E2.9 kmh E 3.2 mph5.1 kmh 30.10 in1019.3 mb 0.00 in0.0 mm 0.00 in/hr0.0 mm/hr 0.00 in0.0 mm
11:01 AM 26.6°F-3.0°C 4.8°F-15.1°C 40% 2.0 mph ESE3.2 kmh ESE 3.2 mph5.1 kmh 30.10 in1019.3 mb 0.00 in0.0 mm 0.00 in/hr0.0 mm/hr 0.00 in0.0 mm
11:00 AM 26.6°F-3.0°C 4.8°F-15.1°C 40% 2.2 mph ESE3.5 kmh ESE 3.2 mph5.1 kmh 30.10 in1019.3 mb 0.00 in0.0 mm 0.00 in/hr0.0 mm/hr 0.00 in0.0 mm
10:59 AM 25.5°F-3.6°C 3.9°F-15.6°C 40% 2.2 mph SE3.5 kmh SE 3.2 mph5.1 kmh 30.10 in1019.3 mb 0.00 in0.0 mm 0.00 in/hr0.0 mm/hr 0.00 in0.0 mm
10:58 AM 25.9°F-3.4°C 4.2°F-15.4°C 40% 2.0 mph SE3.2 kmh SE 3.2 mph5.1 kmh 30.10 in1019.3 mb 0.00 in0.0 mm 0.00 in/hr0.0 mm/hr 0.00 in0.0 mm
10:57 AM 26.6°F-3.0°C 4.8°F-15.1°C 40% 1.9 mph SE3.1 kmh SE 3.2 mph5.1 kmh 30.10 in1019.3 mb 0.00 in0.0 mm 0.00 in/hr0.0 mm/hr 0.00 in0.0 mm
10:56 AM 26.8°F-2.9°C 5.0°F-15.0°C 40% 1.9 mph SSE3.1 kmh SSE 3.2 mph5.1 kmh 30.10 in1019.3 mb 0.00 in0.0 mm 0.00 in/hr0.0 mm/hr 0.00 in0.0 mm
10:55 AM 26.1°F-3.3°C 4.9°F-15.1°C 41% 1.9 mph SSE3.1 kmh SSE 3.2 mph5.1 kmh 30.10 in1019.3 mb 0.00 in0.0 mm 0.00 in/hr0.0 mm/hr 0.00 in0.0 mm
10:54 AM 25.5°F-3.6°C 4.4°F-15.3°C 41% 1.8 mph SE2.9 kmh SE 3.2 mph5.1 kmh 30.11 in1019.6 mb 0.00 in0.0 mm 0.00 in/hr0.0 mm/hr 0.00 in0.0 mm
10:53 AM 26.8°F-2.9°C 5.0°F-15.0°C 40% 1.9 mph SE3.1 kmh SE 3.2 mph5.1 kmh 30.11 in1019.6 mb 0.00 in0.0 mm 0.00 in/hr0.0 mm/hr 0.00 in0.0 mm
10:52 AM 26.1°F-3.3°C 4.9°F-15.1°C 41% 1.9 mph SE3.1 kmh SE 3.2 mph5.1 kmh 30.11 in1019.6 mb 0.00 in0.0 mm 0.00 in/hr0.0 mm/hr 0.00 in0.0 mm
10:51 AM 26.2°F-3.2°C 5.1°F-14.9°C 41% 1.9 mph ESE3.1 kmh ESE 4.0 mph6.4 kmh 30.11 in1019.6 mb 0.00 in0.0 mm 0.00 in/hr0.0 mm/hr 0.00 in0.0 mm
10:50 AM 26.6°F-3.0°C 5.4°F-14.8°C 41% 2.0 mph E3.2 kmh E 4.0 mph6.4 kmh 30.11 in1019.6 mb 0.00 in0.0 mm 0.00 in/hr0.0 mm/hr 0.00 in0.0 mm
10:49 AM 25.3°F-3.7°C 4.9°F-15.1°C 42% 2.1 mph E3.4 kmh E 4.0 mph6.4 kmh 30.12 in1020.0 mb 0.00 in0.0 mm 0.00 in/hr0.0 mm/hr 0.00 in0.0 mm
10:48 AM 25.2°F-3.8°C 4.7°F-15.2°C 42% 2.3 mph ESE3.7 kmh ESE 4.0 mph6.4 kmh 30.12 in1020.0 mb 0.00 in0.0 mm 0.00 in/hr0.0 mm/hr 0.00 in0.0 mm
10:47 AM 24.3°F-4.3°C 4.4°F-15.3°C 43% 2.3 mph E3.7 kmh E 4.0 mph6.4 kmh 30.12 in1020.0 mb 0.00 in0.0 mm 0.00 in/hr0.0 mm/hr 0.00 in0.0 mm
10:46 AM 24.6°F-4.1°C 4.8°F-15.1°C 43% 2.2 mph E3.5 kmh E 4.0 mph6.4 kmh 30.12 in1020.0 mb 0.00 in0.0 mm 0.00 in/hr0.0 mm/hr 0.00 in0.0 mm
10:45 AM 23.9°F-4.5°C 4.7°F-15.2°C 44% 2.2 mph ESE3.5 kmh ESE 4.0 mph6.4 kmh 30.13 in1020.3 mb 0.00 in0.0 mm 0.00 in/hr0.0 mm/hr 0.00 in0.0 mm
10:44 AM 24.1°F-4.4°C 4.8°F-15.1°C 44% 2.2 mph SE3.5 kmh SE 4.0 mph6.4 kmh 30.12 in1020.0 mb 0.00 in0.0 mm 0.00 in/hr0.0 mm/hr 0.00 in0.0 mm
10:43 AM 24.3°F-4.3°C 5.0°F-15.0°C 44% 2.2 mph SE3.5 kmh SE 4.0 mph6.4 kmh 30.13 in1020.3 mb 0.00 in0.0 mm 0.00 in/hr0.0 mm/hr 0.00 in0.0 mm
10:42 AM 23.7°F-4.6°C 4.5°F-15.3°C 44% 2.4 mph SE3.9 kmh SE 4.0 mph6.4 kmh 30.13 in1020.3 mb 0.00 in0.0 mm 0.00 in/hr0.0 mm/hr 0.00 in0.0 mm
10:41 AM 24.4°F-4.2°C 5.1°F-14.9°C 44% 2.3 mph SSE3.7 kmh SSE 3.2 mph5.1 kmh 30.13 in1020.3 mb 0.00 in0.0 mm 0.00 in/hr0.0 mm/hr 0.00 in0.0 mm
10:40 AM 24.4°F-4.2°C 5.1°F-14.9°C 44% 2.3 mph S3.7 kmh S 3.2 mph5.1 kmh 30.13 in1020.3 mb 0.00 in0.0 mm 0.00 in/hr0.0 mm/hr 0.00 in0.0 mm
10:39 AM 24.3°F-4.3°C 5.0°F-15.0°C 44% 2.3 mph S3.7 kmh S 3.2 mph5.1 kmh 30.14 in1020.7 mb 0.00 in0.0 mm 0.00 in/hr0.0 mm/hr 0.00 in0.0 mm
10:38 AM 23.7°F-4.6°C 4.5°F-15.3°C 44% 2.3 mph S3.7 kmh S 3.2 mph5.1 kmh 30.13 in1020.3 mb 0.00 in0.0 mm 0.00 in/hr0.0 mm/hr 0.00 in0.0 mm
10:37 AM 23.9°F-4.5°C 4.7°F-15.2°C 44% 2.3 mph S3.7 kmh S 3.2 mph5.1 kmh 30.13 in1020.3 mb 0.00 in0.0 mm 0.00 in/hr0.0 mm/hr 0.00 in0.0 mm
10:36 AM 24.1°F-4.4°C 4.8°F-15.1°C 44% 2.2 mph S3.5 kmh S 3.2 mph5.1 kmh 30.13 in1020.3 mb 0.00 in0.0 mm 0.00 in/hr0.0 mm/hr 0.00 in0.0 mm
10:35 AM 23.7°F-4.6°C 4.5°F-15.3°C 44% 2.2 mph S3.5 kmh S 3.2 mph5.1 kmh 30.14 in1020.7 mb 0.00 in0.0 mm 0.00 in/hr0.0 mm/hr 0.00 in0.0 mm
10:34 AM 23.2°F-4.9°C 4.0°F-15.6°C 44% 2.3 mph S3.7 kmh S 3.2 mph5.1 kmh 30.14 in1020.7 mb 0.00 in0.0 mm 0.00 in/hr0.0 mm/hr 0.00 in0.0 mm
10:33 AM 23.4°F-4.8°C 4.2°F-15.4°C 44% 2.4 mph S3.9 kmh S 3.2 mph5.1 kmh 30.14 in1020.7 mb 0.00 in0.0 mm 0.00 in/hr0.0 mm/hr 0.00 in0.0 mm
10:32 AM 23.9°F-4.5°C 4.7°F-15.2°C 44% 2.4 mph SSE3.9 kmh SSE 3.2 mph5.1 kmh 30.14 in1020.7 mb 0.00 in0.0 mm 0.00 in/hr0.0 mm/hr 0.00 in0.0 mm
10:31 AM 24.4°F-4.2°C 5.1°F-14.9°C 44% 2.4 mph SSE3.9 kmh SSE 3.2 mph5.1 kmh 30.14 in1020.7 mb 0.00 in0.0 mm 0.00 in/hr0.0 mm/hr 0.00 in0.0 mm
10:30 AM 24.4°F-4.2°C 5.7°F-14.6°C 45% 2.4 mph SE3.9 kmh SE 3.2 mph5.1 kmh 30.14 in1020.7 mb 0.00 in0.0 mm 0.00 in/hr0.0 mm/hr 0.00 in0.0 mm
10:29 AM 24.8°F-4.0°C 5.5°F-14.7°C 44% 2.5 mph SE4.0 kmh SE 3.2 mph5.1 kmh 30.15 in1021.0 mb 0.00 in0.0 mm 0.00 in/hr0.0 mm/hr 0.00 in0.0 mm
10:28 AM 24.8°F-4.0°C 5.5°F-14.7°C 44% 2.5 mph ESE4.0 kmh ESE 3.2 mph5.1 kmh 30.14 in1020.7 mb 0.00 in0.0 mm 0.00 in/hr0.0 mm/hr 0.00 in0.0 mm
10:27 AM 22.6°F-5.2°C 4.6°F-15.2°C 46% 2.6 mph ESE4.2 kmh ESE 3.2 mph5.1 kmh 30.15 in1021.0 mb 0.00 in0.0 mm 0.00 in/hr0.0 mm/hr 0.00 in0.0 mm
10:26 AM 23.2°F-4.9°C 4.5°F-15.3°C 45% 2.7 mph ESE4.3 kmh ESE 3.2 mph5.1 kmh 30.15 in1021.0 mb 0.00 in0.0 mm 0.00 in/hr0.0 mm/hr 0.00 in0.0 mm
10:25 AM 22.8°F-5.1°C 4.7°F-15.2°C 46% 2.6 mph ESE4.2 kmh ESE 3.2 mph5.1 kmh 30.15 in1021.0 mb 0.00 in0.0 mm 0.00 in/hr0.0 mm/hr 0.00 in0.0 mm
10:24 AM 22.6°F-5.2°C 4.6°F-15.2°C 46% 2.4 mph E3.9 kmh E 3.2 mph5.1 kmh 30.15 in1021.0 mb 0.00 in0.0 mm 0.00 in/hr0.0 mm/hr 0.00 in0.0 mm
10:23 AM 22.1°F-5.5°C 4.1°F-15.5°C 46% 2.3 mph E3.7 kmh E 3.2 mph5.1 kmh 30.16 in1021.3 mb 0.00 in0.0 mm 0.00 in/hr0.0 mm/hr 0.00 in0.0 mm
10:22 AM 22.5°F-5.3°C 4.4°F-15.3°C 46% 2.3 mph E3.7 kmh E 3.2 mph5.1 kmh 30.16 in1021.3 mb 0.00 in0.0 mm 0.00 in/hr0.0 mm/hr 0.00 in0.0 mm
10:21 AM 21.6°F-5.8°C 4.1°F-15.5°C 47% 2.2 mph ENE3.5 kmh ENE 3.2 mph5.1 kmh 30.16 in1021.3 mb 0.00 in0.0 mm 0.00 in/hr0.0 mm/hr 0.00 in0.0 mm
10:20 AM 21.6°F-5.8°C 4.1°F-15.5°C 47% 2.1 mph ENE3.4 kmh ENE 3.2 mph5.1 kmh 30.16 in1021.3 mb 0.00 in0.0 mm 0.00 in/hr0.0 mm/hr 0.00 in0.0 mm
10:19 AM 21.9°F-5.6°C 4.4°F-15.3°C 47% 2.1 mph ENE3.4 kmh ENE 3.2 mph5.1 kmh 30.16 in1021.3 mb 0.00 in0.0 mm 0.00 in/hr0.0 mm/hr 0.00 in0.0 mm
10:18 AM 22.3°F-5.4°C 5.2°F-14.9°C 48% 2.0 mph ENE3.2 kmh ENE 3.2 mph5.1 kmh 30.16 in1021.3 mb 0.00 in0.0 mm 0.00 in/hr0.0 mm/hr 0.00 in0.0 mm
10:17 AM 22.3°F-5.4°C 5.2°F-14.9°C 48% 1.9 mph ENE3.1 kmh ENE 3.2 mph5.1 kmh 30.16 in1021.3 mb 0.00 in0.0 mm 0.00 in/hr0.0 mm/hr 0.00 in0.0 mm
10:16 AM 21.7°F-5.7°C 4.8°F-15.1°C 48% 2.0 mph ENE3.2 kmh ENE 3.2 mph5.1 kmh 30.16 in1021.3 mb 0.00 in0.0 mm 0.00 in/hr0.0 mm/hr 0.00 in0.0 mm
10:15 AM 21.7°F-5.7°C 4.8°F-15.1°C 48% 2.0 mph ENE3.2 kmh ENE 3.2 mph5.1 kmh 30.16 in1021.3 mb 0.00 in0.0 mm 0.00 in/hr0.0 mm/hr 0.00 in0.0 mm
10:14 AM 20.7°F-6.3°C 4.2°F-15.4°C 49% 2.0 mph ENE3.2 kmh ENE 3.2 mph5.1 kmh 30.16 in1021.3 mb 0.00 in0.0 mm 0.00 in/hr0.0 mm/hr 0.00 in0.0 mm
10:13 AM 21.0°F-6.1°C 4.6°F-15.2°C 49% 1.8 mph ENE2.9 kmh ENE 3.2 mph5.1 kmh 30.16 in1021.3 mb 0.00 in0.0 mm 0.00 in/hr0.0 mm/hr 0.00 in0.0 mm
10:12 AM 20.7°F-6.3°C 4.2°F-15.4°C 49% 1.6 mph ENE2.6 kmh ENE 3.2 mph5.1 kmh 30.16 in1021.3 mb 0.00 in0.0 mm 0.00 in/hr0.0 mm/hr 0.00 in0.0 mm
10:11 AM 19.9°F-6.7°C 3.6°F-15.8°C 49% 1.4 mph E2.3 kmh E 3.2 mph5.1 kmh 30.16 in1021.3 mb 0.00 in0.0 mm 0.00 in/hr0.0 mm/hr 0.00 in0.0 mm
10:10 AM 19.6°F-6.9°C 3.3°F-15.9°C 49% 1.1 mph E1.8 kmh E 3.2 mph5.1 kmh 30.17 in1021.7 mb 0.00 in0.0 mm 0.00 in/hr0.0 mm/hr 0.00 in0.0 mm
10:09 AM 20.7°F-6.3°C 4.2°F-15.4°C 49% 0.9 mph E1.4 kmh E 3.2 mph5.1 kmh 30.16 in1021.3 mb 0.00 in0.0 mm 0.00 in/hr0.0 mm/hr 0.00 in0.0 mm
10:08 AM 19.2°F-7.1°C 1.0°F-17.2°C 45% 0.7 mph E1.1 kmh E 3.2 mph5.1 kmh 30.16 in1021.3 mb 0.00 in0.0 mm 0.00 in/hr0.0 mm/hr 0.00 in0.0 mm
10:07 AM 19.4°F-7.0°C 3.1°F-16.1°C 49% 0.7 mph E1.1 kmh E 3.2 mph5.1 kmh 30.17 in1021.7 mb 0.00 in0.0 mm 0.00 in/hr0.0 mm/hr 0.00 in0.0 mm
10:06 AM 19.0°F-7.2°C 0.8°F-17.3°C 45% 0.4 mph E0.6 kmh E 3.2 mph5.1 kmh 30.16 in1021.3 mb 0.00 in0.0 mm 0.00 in/hr0.0 mm/hr 0.00 in0.0 mm
10:05 AM 18.9°F-7.3°C 0.7°F-17.4°C 45% 0.2 mph E0.3 kmh E 1.6 mph2.6 kmh 30.16 in1021.3 mb 0.00 in0.0 mm 0.00 in/hr0.0 mm/hr 0.00 in0.0 mm
10:04 AM 19.2°F-7.1°C 1.5°F-16.9°C 46% 0.1 mph E0.2 kmh E 1.6 mph2.6 kmh 30.17 in1021.7 mb 0.00 in0.0 mm 0.00 in/hr0.0 mm/hr 0.00 in0.0 mm
10:03 AM 19.2°F-7.1°C 1.5°F-16.9°C 46% 0.1 mph E0.2 kmh E 1.6 mph2.6 kmh 30.17 in1021.7 mb 0.00 in0.0 mm 0.00 in/hr0.0 mm/hr 0.00 in0.0 mm
10:02 AM 19.9°F-6.7°C 4.5°F-15.3°C 51% 0.3 mph E0.5 kmh E 1.6 mph2.6 kmh 30.17 in1021.7 mb 0.00 in0.0 mm 0.00 in/hr0.0 mm/hr 0.00 in0.0 mm
10:01 AM 18.1°F-7.7°C 1.0°F-17.2°C 47% 0.5 mph E0.8 kmh E 1.6 mph2.6 kmh 30.17 in1021.7 mb 0.00 in0.0 mm 0.00 in/hr0.0 mm/hr 0.00 in0.0 mm
10:00 AM 18.0°F-7.8°C 0.9°F-17.3°C 47% 0.5 mph E0.8 kmh E 1.6 mph2.6 kmh 30.17 in1021.7 mb 0.00 in0.0 mm 0.00 in/hr0.0 mm/hr 0.00 in0.0 mm
09:59 AM 17.2°F-8.2°C 0.2°F-17.7°C 47% 0.5 mph E0.8 kmh E 1.6 mph2.6 kmh 30.17 in1021.7 mb 0.00 in0.0 mm 0.00 in/hr0.0 mm/hr 0.00 in0.0 mm
09:58 AM 16.5°F-8.6°C -0.4°F-18.0°C 47% 0.5 mph E0.8 kmh E 1.6 mph2.6 kmh 30.18 in1022.0 mb 0.00 in0.0 mm 0.00 in/hr0.0 mm/hr 0.00 in0.0 mm
09:57 AM 17.2°F-8.2°C 0.7°F-17.4°C 48% 0.4 mph E0.6 kmh E 1.6 mph2.6 kmh 30.17 in1021.7 mb 0.00 in0.0 mm 0.00 in/hr0.0 mm/hr 0.00 in0.0 mm
09:56 AM 16.2°F-8.8°C -0.3°F-17.9°C 48% 0.6 mph E1.0 kmh E 1.6 mph2.6 kmh 30.18 in1022.0 mb 0.00 in0.0 mm 0.00 in/hr0.0 mm/hr 0.00 in0.0 mm
09:55 AM 15.8°F-9.0°C -0.6°F-18.1°C 48% 0.7 mph E1.1 kmh E 1.6 mph2.6 kmh 30.17 in1021.7 mb 0.00 in0.0 mm 0.00 in/hr0.0 mm/hr 0.00 in0.0 mm
09:54 AM 16.3°F-8.7°C -0.1°F-17.8°C 48% 0.7 mph E1.1 kmh E 1.6 mph2.6 kmh 30.17 in1021.7 mb 0.00 in0.0 mm 0.00 in/hr0.0 mm/hr 0.00 in0.0 mm
09:53 AM 16.3°F-8.7°C -0.1°F-17.8°C 48% 0.7 mph E1.1 kmh E 1.6 mph2.6 kmh 30.18 in1022.0 mb 0.00 in0.0 mm 0.00 in/hr0.0 mm/hr 0.00 in0.0 mm
09:52 AM 16.5°F-8.6°C 0.0°F-17.8°C 48% 0.8 mph E1.3 kmh E 2.4 mph3.9 kmh 30.18 in1022.0 mb 0.00 in0.0 mm 0.00 in/hr0.0 mm/hr 0.00 in0.0 mm
09:51 AM 16.7°F-8.5°C 0.2°F-17.7°C 48% 0.8 mph E1.3 kmh E 2.4 mph3.9 kmh 30.17 in1021.7 mb 0.00 in0.0 mm 0.00 in/hr0.0 mm/hr 0.00 in0.0 mm
09:50 AM 16.5°F-8.6°C 0.0°F-17.8°C 48% 0.8 mph E1.3 kmh E 2.4 mph3.9 kmh 30.18 in1022.0 mb 0.00 in0.0 mm 0.00 in/hr0.0 mm/hr 0.00 in0.0 mm
09:49 AM 16.3°F-8.7°C -0.6°F-18.1°C 47% 0.9 mph E1.4 kmh E 2.4 mph3.9 kmh 30.18 in1022.0 mb 0.00 in0.0 mm 0.00 in/hr0.0 mm/hr 0.00 in0.0 mm
09:48 AM 15.8°F-9.0°C -1.1°F-18.4°C 47% 1.0 mph E1.6 kmh E 2.4 mph3.9 kmh 30.18 in1022.0 mb 0.00 in0.0 mm 0.00 in/hr0.0 mm/hr 0.00 in0.0 mm
09:47 AM 15.4°F-9.2°C -0.9°F-18.3°C 48% 1.2 mph E1.9 kmh E 2.4 mph3.9 kmh 30.18 in1022.0 mb 0.00 in0.0 mm 0.00 in/hr0.0 mm/hr 0.00 in0.0 mm
09:46 AM 15.8°F-9.0°C -0.6°F-18.1°C 48% 1.3 mph E2.1 kmh E 2.4 mph3.9 kmh 30.18 in1022.0 mb 0.00 in0.0 mm 0.00 in/hr0.0 mm/hr 0.00 in0.0 mm
09:45 AM 16.2°F-8.8°C -0.3°F-17.9°C 48% 1.2 mph E1.9 kmh E 2.4 mph3.9 kmh 30.18 in1022.0 mb 0.00 in0.0 mm 0.00 in/hr0.0 mm/hr 0.00 in0.0 mm
09:44 AM 15.6°F-9.1°C -0.8°F-18.2°C 48% 1.3 mph E2.1 kmh E 2.4 mph3.9 kmh 30.18 in1022.0 mb 0.00 in0.0 mm 0.00 in/hr0.0 mm/hr 0.00 in0.0 mm
09:43 AM 15.4°F-9.2°C -0.9°F-18.3°C 48% 1.3 mph E2.1 kmh E 2.4 mph3.9 kmh 30.18 in1022.0 mb 0.00 in0.0 mm 0.00 in/hr0.0 mm/hr 0.00 in0.0 mm
09:42 AM 16.2°F-8.8°C -0.3°F-17.9°C 48% 1.2 mph E1.9 kmh E 2.4 mph3.9 kmh 30.19 in1022.4 mb 0.00 in0.0 mm 0.00 in/hr0.0 mm/hr 0.00 in0.0 mm
09:41 AM 16.3°F-8.7°C -0.1°F-17.8°C 48% 0.9 mph E1.4 kmh E 2.4 mph3.9 kmh 30.19 in1022.4 mb 0.00 in0.0 mm 0.00 in/hr0.0 mm/hr 0.00 in0.0 mm
09:40 AM 16.2°F-8.8°C -0.3°F-17.9°C 48% 0.9 mph E1.4 kmh E 2.4 mph3.9 kmh 30.19 in1022.4 mb 0.00 in0.0 mm 0.00 in/hr0.0 mm/hr 0.00 in0.0 mm
09:39 AM 15.8°F-9.0°C -0.6°F-18.1°C 48% 0.8 mph E1.3 kmh E 2.4 mph3.9 kmh 30.19 in1022.4 mb 0.00 in0.0 mm 0.00 in/hr0.0 mm/hr 0.00 in0.0 mm
09:38 AM 16.2°F-8.8°C 0.2°F-17.7°C 49% 0.6 mph E1.0 kmh E 2.4 mph3.9 kmh 30.19 in1022.4 mb 0.00 in0.0 mm 0.00 in/hr0.0 mm/hr 0.00 in0.0 mm
09:37 AM 15.8°F-9.0°C -0.2°F-17.9°C 49% 0.5 mph E0.8 kmh E 2.4 mph3.9 kmh 30.19 in1022.4 mb 0.00 in0.0 mm 0.00 in/hr0.0 mm/hr 0.00 in0.0 mm
09:36 AM 16.2°F-8.8°C 0.2°F-17.7°C 49% 0.3 mph ESE0.5 kmh ESE 1.6 mph2.6 kmh 30.19 in1022.4 mb 0.00 in0.0 mm 0.00 in/hr0.0 mm/hr 0.00 in0.0 mm
09:35 AM 15.8°F-9.0°C -0.2°F-17.9°C 49% 0.2 mph E0.3 kmh E 0.8 mph1.3 kmh 30.19 in1022.4 mb 0.00 in0.0 mm 0.00 in/hr0.0 mm/hr 0.00 in0.0 mm
09:34 AM 15.4°F-9.2°C 0.0°F-17.8°C 50% 0.2 mph N0.3 kmh N 1.6 mph2.6 kmh 30.19 in1022.4 mb 0.00 in0.0 mm 0.00 in/hr0.0 mm/hr 0.00 in0.0 mm
09:33 AM 15.4°F-9.2°C 0.0°F-17.8°C 50% 0.3 mph N0.5 kmh N 1.6 mph2.6 kmh 30.19 in1022.4 mb 0.00 in0.0 mm 0.00 in/hr0.0 mm/hr 0.00 in0.0 mm
09:32 AM 15.4°F-9.2°C 0.0°F-17.8°C 50% 0.3 mph N0.5 kmh N 1.6 mph2.6 kmh 30.19 in1022.4 mb 0.00 in0.0 mm 0.00 in/hr0.0 mm/hr 0.00 in0.0 mm
09:31 AM 15.4°F-9.2°C 0.4°F-17.6°C 51% 0.3 mph N0.5 kmh N 1.6 mph2.6 kmh 30.19 in1022.4 mb 0.00 in0.0 mm 0.00 in/hr0.0 mm/hr 0.00 in0.0 mm
09:30 AM 15.4°F-9.2°C 0.4°F-17.6°C 51% 0.3 mph N0.5 kmh N 1.6 mph2.6 kmh 30.20 in1022.7 mb 0.00 in0.0 mm 0.00 in/hr0.0 mm/hr 0.00 in0.0 mm
09:29 AM 15.8°F-9.0°C 0.3°F-17.6°C 50% 0.3 mph N0.5 kmh N 1.6 mph2.6 kmh 30.20 in1022.7 mb 0.00 in0.0 mm 0.00 in/hr0.0 mm/hr 0.00 in0.0 mm
09:28 AM 15.8°F-9.0°C 0.3°F-17.6°C 50% 0.3 mph N0.5 kmh N 1.6 mph2.6 kmh 30.20 in1022.7 mb 0.00 in0.0 mm 0.00 in/hr0.0 mm/hr 0.00 in0.0 mm
09:27 AM 15.6°F-9.1°C 1.0°F-17.2°C 52% 0.3 mph N0.5 kmh N 1.6 mph2.6 kmh 30.19 in1022.4 mb 0.00 in0.0 mm 0.00 in/hr0.0 mm/hr 0.00 in0.0 mm
09:26 AM 14.9°F-9.5°C 0.3°F-17.6°C 52% 0.3 mph N0.5 kmh N 1.6 mph2.6 kmh 30.20 in1022.7 mb 0.00 in0.0 mm 0.00 in/hr0.0 mm/hr 0.00 in0.0 mm
09:25 AM 14.5°F-9.7°C 0.0°F-17.8°C 52% 0.3 mph N0.5 kmh N 1.6 mph2.6 kmh 30.19 in1022.4 mb 0.00 in0.0 mm 0.00 in/hr0.0 mm/hr 0.00 in0.0 mm
09:24 AM 14.9°F-9.5°C 0.3°F-17.6°C 52% 0.1 mph N0.2 kmh N 1.6 mph2.6 kmh 30.20 in1022.7 mb 0.00 in0.0 mm 0.00 in/hr0.0 mm/hr 0.00 in0.0 mm
09:23 AM 14.9°F-9.5°C 0.8°F-17.3°C 53% Calm Calm -- 30.20 in1022.7 mb 0.00 in0.0 mm 0.00 in/hr0.0 mm/hr 0.00 in0.0 mm
09:22 AM 14.9°F-9.5°C 0.8°F-17.3°C 53% Calm Calm -- 30.20 in1022.7 mb 0.00 in0.0 mm 0.00 in/hr0.0 mm/hr 0.00 in0.0 mm
09:21 AM 14.5°F-9.7°C 0.4°F-17.6°C 53% Calm Calm -- 30.20 in1022.7 mb 0.00 in0.0 mm 0.00 in/hr0.0 mm/hr 0.00 in0.0 mm
09:20 AM 14.4°F-9.8°C 0.7°F-17.4°C 54% Calm Calm -- 30.20 in1022.7 mb 0.00 in0.0 mm 0.00 in/hr0.0 mm/hr 0.00 in0.0 mm
09:19 AM 14.0°F-10.0°C 0.4°F-17.6°C 54% Calm Calm -- 30.20 in1022.7 mb 0.00 in0.0 mm 0.00 in/hr0.0 mm/hr 0.00 in0.0 mm
09:18 AM 13.8°F-10.1°C 0.6°F-17.4°C 55% Calm Calm -- 30.20 in1022.7 mb 0.00 in0.0 mm 0.00 in/hr0.0 mm/hr 0.00 in0.0 mm
09:17 AM 14.0°F-10.0°C 0.8°F-17.3°C 55% 0.1 mph N0.2 kmh N 1.9 mph3.1 kmh 30.20 in1022.7 mb 0.00 in0.0 mm 0.00 in/hr0.0 mm/hr 0.00 in0.0 mm
09:16 AM 13.6°F-10.2°C 0.8°F-17.3°C 56% 0.3 mph N0.5 kmh N 1.9 mph3.1 kmh 30.21 in1023.0 mb 0.00 in0.0 mm 0.00 in/hr0.0 mm/hr 0.00 in0.0 mm
09:15 AM 14.0°F-10.0°C 0.8°F-17.3°C 55% 0.6 mph N1.0 kmh N 1.9 mph3.1 kmh 30.20 in1022.7 mb 0.00 in0.0 mm 0.00 in/hr0.0 mm/hr 0.00 in0.0 mm
07:09 AM 4.1°F-15.5°C -5.5°F-20.8°C 63% Calm Calm -- 30.22 in1023.4 mb 0.00 in0.0 mm 0.00 in/hr0.0 mm/hr 0.00 in0.0 mm
07:08 AM 3.9°F-15.6°C -5.7°F-20.9°C 63% Calm Calm -- 30.22 in1023.4 mb 0.00 in0.0 mm 0.00 in/hr0.0 mm/hr 0.00 in0.0 mm
07:07 AM 3.2°F-16.0°C -6.7°F-21.5°C 62% Calm Calm -- 30.22 in1023.4 mb 0.00 in0.0 mm 0.00 in/hr0.0 mm/hr 0.00 in0.0 mm
07:06 AM 3.2°F-16.0°C -6.7°F-21.5°C 62% Calm Calm -- 30.22 in1023.4 mb 0.00 in0.0 mm 0.00 in/hr0.0 mm/hr 0.00 in0.0 mm
07:05 AM 3.2°F-16.0°C -6.7°F-21.5°C 62% Calm Calm -- 30.23 in1023.7 mb 0.00 in0.0 mm 0.00 in/hr0.0 mm/hr 0.00 in0.0 mm
07:04 AM 3.2°F-16.0°C -6.7°F-21.5°C 62% Calm Calm -- 30.23 in1023.7 mb 0.00 in0.0 mm 0.00 in/hr0.0 mm/hr 0.00 in0.0 mm
07:03 AM 3.2°F-16.0°C -6.7°F-21.5°C 62% Calm Calm -- 30.23 in1023.7 mb 0.00 in0.0 mm 0.00 in/hr0.0 mm/hr 0.00 in0.0 mm
07:02 AM 3.2°F-16.0°C -6.7°F-21.5°C 62% Calm Calm -- 30.22 in1023.4 mb 0.00 in0.0 mm 0.00 in/hr0.0 mm/hr 0.00 in0.0 mm
07:01 AM 3.2°F-16.0°C -6.7°F-21.5°C 62% Calm Calm -- 30.23 in1023.7 mb 0.00 in0.0 mm 0.00 in/hr0.0 mm/hr 0.00 in0.0 mm
07:00 AM 3.2°F-16.0°C -6.7°F-21.5°C 62% Calm Calm -- 30.23 in1023.7 mb 0.00 in0.0 mm 0.00 in/hr0.0 mm/hr 0.00 in0.0 mm
06:59 AM 3.2°F-16.0°C -6.7°F-21.5°C 62% Calm Calm -- 30.23 in1023.7 mb 0.00 in0.0 mm 0.00 in/hr0.0 mm/hr 0.00 in0.0 mm
06:58 AM 3.0°F-16.1°C -6.5°F-21.4°C 63% Calm Calm -- 30.23 in1023.7 mb 0.00 in0.0 mm 0.00 in/hr0.0 mm/hr 0.00 in0.0 mm
06:57 AM 2.7°F-16.3°C -6.9°F-21.6°C 63% Calm Calm -- 30.23 in1023.7 mb 0.00 in0.0 mm 0.00 in/hr0.0 mm/hr 0.00 in0.0 mm
06:56 AM 2.5°F-16.4°C -7.1°F-21.7°C 63% Calm Calm -- 30.23 in1023.7 mb 0.00 in0.0 mm 0.00 in/hr0.0 mm/hr 0.00 in0.0 mm
06:55 AM 2.3°F-16.5°C -7.2°F-21.8°C 63% Calm Calm -- 30.23 in1023.7 mb 0.00 in0.0 mm 0.00 in/hr0.0 mm/hr 0.00 in0.0 mm
06:54 AM 2.3°F-16.5°C -7.2°F-21.8°C 63% Calm Calm -- 30.23 in1023.7 mb 0.00 in0.0 mm 0.00 in/hr0.0 mm/hr 0.00 in0.0 mm
06:53 AM 2.1°F-16.6°C -7.4°F-21.9°C 63% Calm Calm -- 30.23 in1023.7 mb 0.00 in0.0 mm 0.00 in/hr0.0 mm/hr 0.00 in0.0 mm
06:52 AM 2.1°F-16.6°C -7.4°F-21.9°C 63% Calm Calm -- 30.23 in1023.7 mb 0.00 in0.0 mm 0.00 in/hr0.0 mm/hr 0.00 in0.0 mm
06:51 AM 2.3°F-16.5°C -7.2°F-21.8°C 63% Calm Calm -- 30.23 in1023.7 mb 0.00 in0.0 mm 0.00 in/hr0.0 mm/hr 0.00 in0.0 mm
06:50 AM 2.3°F-16.5°C -7.2°F-21.8°C 63% Calm Calm -- 30.23 in1023.7 mb 0.00 in0.0 mm 0.00 in/hr0.0 mm/hr 0.00 in0.0 mm
06:49 AM 2.3°F-16.5°C -7.2°F-21.8°C 63% Calm Calm -- 30.22 in1023.4 mb 0.00 in0.0 mm 0.00 in/hr0.0 mm/hr 0.00 in0.0 mm
06:48 AM 2.3°F-16.5°C -7.2°F-21.8°C 63% Calm Calm -- 30.22 in1023.4 mb 0.00 in0.0 mm 0.00 in/hr0.0 mm/hr 0.00 in0.0 mm
06:47 AM 2.3°F-16.5°C -7.2°F-21.8°C 63% Calm Calm -- 30.22 in1023.4 mb 0.00 in0.0 mm 0.00 in/hr0.0 mm/hr 0.00 in0.0 mm
06:46 AM 2.3°F-16.5°C -7.2°F-21.8°C 63% Calm Calm -- 30.22 in1023.4 mb 0.00 in0.0 mm 0.00 in/hr0.0 mm/hr 0.00 in0.0 mm
06:45 AM 2.5°F-16.4°C -6.7°F-21.5°C 64% Calm Calm -- 30.22 in1023.4 mb 0.00 in0.0 mm 0.00 in/hr0.0 mm/hr 0.00 in0.0 mm
06:44 AM 2.5°F-16.4°C -6.7°F-21.5°C 64% Calm Calm -- 30.22 in1023.4 mb 0.00 in0.0 mm 0.00 in/hr0.0 mm/hr 0.00 in0.0 mm
06:43 AM 2.3°F-16.5°C -6.9°F-21.6°C 64% Calm Calm -- 30.22 in1023.4 mb 0.00 in0.0 mm 0.00 in/hr0.0 mm/hr 0.00 in0.0 mm
06:42 AM 2.3°F-16.5°C -6.9°F-21.6°C 64% Calm Calm -- 30.22 in1023.4 mb 0.00 in0.0 mm 0.00 in/hr0.0 mm/hr 0.00 in0.0 mm
06:41 AM 2.1°F-16.6°C -7.1°F-21.7°C 64% Calm Calm -- 30.21 in1023.0 mb 0.00 in0.0 mm 0.00 in/hr0.0 mm/hr 0.00 in0.0 mm
06:40 AM 2.1°F-16.6°C -7.1°F-21.7°C 64% Calm Calm -- 30.22 in1023.4 mb 0.00 in0.0 mm 0.00 in/hr0.0 mm/hr 0.00 in0.0 mm
06:39 AM 2.1°F-16.6°C -7.1°F-21.7°C 64% Calm Calm -- 30.21 in1023.0 mb 0.00 in0.0 mm 0.00 in/hr0.0 mm/hr 0.00 in0.0 mm
06:38 AM 2.1°F-16.6°C -7.1°F-21.7°C 64% Calm Calm -- 30.21 in1023.0 mb 0.00 in0.0 mm 0.00 in/hr0.0 mm/hr 0.00 in0.0 mm
06:37 AM 1.9°F-16.7°C -7.2°F-21.8°C 64% Calm Calm -- 30.21 in1023.0 mb 0.00 in0.0 mm 0.00 in/hr0.0 mm/hr 0.00 in0.0 mm
06:36 AM 1.9°F-16.7°C -7.2°F-21.8°C 64% 0.1 mph N0.2 kmh N 0.8 mph1.3 kmh 30.22 in1023.4 mb 0.00 in0.0 mm 0.00 in/hr0.0 mm/hr 0.00 in0.0 mm
06:35 AM 2.1°F-16.6°C -7.1°F-21.7°C 64% 0.2 mph N0.3 kmh N 1.6 mph2.6 kmh 30.21 in1023.0 mb 0.00 in0.0 mm 0.00 in/hr0.0 mm/hr 0.00 in0.0 mm
06:34 AM 2.1°F-16.6°C -7.1°F-21.7°C 64% 0.3 mph N0.5 kmh N 1.6 mph2.6 kmh 30.22 in1023.4 mb 0.00 in0.0 mm 0.00 in/hr0.0 mm/hr 0.00 in0.0 mm
06:33 AM 2.1°F-16.6°C -7.1°F-21.7°C 64% 0.3 mph N0.5 kmh N 1.6 mph2.6 kmh 30.22 in1023.4 mb 0.00 in0.0 mm 0.00 in/hr0.0 mm/hr 0.00 in0.0 mm
06:32 AM 2.1°F-16.6°C -7.1°F-21.7°C 64% 0.3 mph N0.5 kmh N 1.6 mph2.6 kmh 30.21 in1023.0 mb 0.00 in0.0 mm 0.00 in/hr0.0 mm/hr 0.00 in0.0 mm
06:31 AM 2.1°F-16.6°C -7.1°F-21.7°C 64% 0.3 mph N0.5 kmh N 1.6 mph2.6 kmh 30.21 in1023.0 mb 0.00 in0.0 mm 0.00 in/hr0.0 mm/hr 0.00 in0.0 mm
06:30 AM 2.1°F-16.6°C -7.1°F-21.7°C 64% 0.3 mph N0.5 kmh N 1.6 mph2.6 kmh 30.21 in1023.0 mb 0.00 in0.0 mm 0.00 in/hr0.0 mm/hr 0.00 in0.0 mm
06:29 AM 2.1°F-16.6°C -7.1°F-21.7°C 64% 0.3 mph N0.5 kmh N 1.6 mph2.6 kmh 30.21 in1023.0 mb 0.00 in0.0 mm 0.00 in/hr0.0 mm/hr 0.00 in0.0 mm
06:28 AM 1.9°F-16.7°C -7.2°F-21.8°C 64% 0.3 mph N0.5 kmh N 1.6 mph2.6 kmh 30.22 in1023.4 mb 0.00 in0.0 mm 0.00 in/hr0.0 mm/hr 0.00 in0.0 mm
06:27 AM 1.9°F-16.7°C -7.2°F-21.8°C 64% 0.3 mph N0.5 kmh N 1.6 mph2.6 kmh 30.21 in1023.0 mb 0.00 in0.0 mm 0.00 in/hr0.0 mm/hr 0.00 in0.0 mm
06:26 AM 2.1°F-16.6°C -7.1°F-21.7°C 64% 0.3 mph N0.5 kmh N 1.6 mph2.6 kmh 30.22 in1023.4 mb 0.00 in0.0 mm 0.00 in/hr0.0 mm/hr 0.00 in0.0 mm
06:25 AM 2.3°F-16.5°C -6.9°F-21.6°C 64% 0.1 mph N0.2 kmh N 1.6 mph2.6 kmh 30.21 in1023.0 mb 0.00 in0.0 mm 0.00 in/hr0.0 mm/hr 0.00 in0.0 mm
06:24 AM 2.3°F-16.5°C -6.9°F-21.6°C 64% Calm Calm -- 30.21 in1023.0 mb 0.00 in0.0 mm 0.00 in/hr0.0 mm/hr 0.00 in0.0 mm
06:23 AM 2.3°F-16.5°C -6.9°F-21.6°C 64% Calm Calm -- 30.21 in1023.0 mb 0.00 in0.0 mm 0.00 in/hr0.0 mm/hr 0.00 in0.0 mm
06:22 AM 2.3°F-16.5°C -6.9°F-21.6°C 64% Calm Calm -- 30.21 in1023.0 mb 0.00 in0.0 mm 0.00 in/hr0.0 mm/hr 0.00 in0.0 mm
06:21 AM 2.3°F-16.5°C -6.9°F-21.6°C 64% Calm Calm -- 30.21 in1023.0 mb 0.00 in0.0 mm 0.00 in/hr0.0 mm/hr 0.00 in0.0 mm
06:20 AM 2.3°F-16.5°C -6.9°F-21.6°C 64% Calm Calm -- 30.21 in1023.0 mb 0.00 in0.0 mm 0.00 in/hr0.0 mm/hr 0.00 in0.0 mm
06:19 AM 2.3°F-16.5°C -6.9°F-21.6°C 64% Calm Calm -- 30.20 in1022.7 mb 0.00 in0.0 mm 0.00 in/hr0.0 mm/hr 0.00 in0.0 mm
06:18 AM 2.3°F-16.5°C -6.9°F-21.6°C 64% Calm Calm -- 30.20 in1022.7 mb 0.00 in0.0 mm 0.00 in/hr0.0 mm/hr 0.00 in0.0 mm
06:17 AM 2.3°F-16.5°C -6.9°F-21.6°C 64% Calm Calm -- 30.21 in1023.0 mb 0.00 in0.0 mm 0.00 in/hr0.0 mm/hr 0.00 in0.0 mm
06:16 AM 2.3°F-16.5°C -6.9°F-21.6°C 64% Calm Calm -- 30.20 in1022.7 mb 0.00 in0.0 mm 0.00 in/hr0.0 mm/hr 0.00 in0.0 mm
06:15 AM 2.3°F-16.5°C -6.9°F-21.6°C 64% Calm Calm -- 30.20 in1022.7 mb 0.00 in0.0 mm 0.00 in/hr0.0 mm/hr 0.00 in0.0 mm
06:14 AM 2.3°F-16.5°C -6.9°F-21.6°C 64% Calm Calm -- 30.20 in1022.7 mb 0.00 in0.0 mm 0.00 in/hr0.0 mm/hr 0.00 in0.0 mm
06:13 AM 2.1°F-16.6°C -7.1°F-21.7°C 64% Calm Calm -- 30.20 in1022.7 mb 0.00 in0.0 mm 0.00 in/hr0.0 mm/hr 0.00 in0.0 mm
06:12 AM 2.1°F-16.6°C -7.1°F-21.7°C 64% Calm Calm -- 30.20 in1022.7 mb 0.00 in0.0 mm 0.00 in/hr0.0 mm/hr 0.00 in0.0 mm
06:11 AM 2.1°F-16.6°C -7.1°F-21.7°C 64% Calm Calm -- 30.20 in1022.7 mb 0.00 in0.0 mm 0.00 in/hr0.0 mm/hr 0.00 in0.0 mm
06:10 AM 1.9°F-16.7°C -7.2°F-21.8°C 64% Calm Calm -- 30.19 in1022.4 mb 0.00 in0.0 mm 0.00 in/hr0.0 mm/hr 0.00 in0.0 mm
06:09 AM 1.8°F-16.8°C -7.4°F-21.9°C 64% Calm Calm -- 30.20 in1022.7 mb 0.00 in0.0 mm 0.00 in/hr0.0 mm/hr 0.00 in0.0 mm
06:08 AM 1.8°F-16.8°C -7.4°F-21.9°C 64% Calm Calm -- 30.20 in1022.7 mb 0.00 in0.0 mm 0.00 in/hr0.0 mm/hr 0.00 in0.0 mm
06:07 AM 1.6°F-16.9°C -7.6°F-22.0°C 64% Calm Calm -- 30.19 in1022.4 mb 0.00 in0.0 mm 0.00 in/hr0.0 mm/hr 0.00 in0.0 mm
06:06 AM 1.6°F-16.9°C -7.6°F-22.0°C 64% Calm Calm -- 30.19 in1022.4 mb 0.00 in0.0 mm 0.00 in/hr0.0 mm/hr 0.00 in0.0 mm
06:05 AM 1.6°F-16.9°C -7.6°F-22.0°C 64% Calm Calm -- 30.19 in1022.4 mb 0.00 in0.0 mm 0.00 in/hr0.0 mm/hr 0.00 in0.0 mm
06:04 AM 1.6°F-16.9°C -7.6°F-22.0°C 64% Calm Calm -- 30.19 in1022.4 mb 0.00 in0.0 mm 0.00 in/hr0.0 mm/hr 0.00 in0.0 mm
06:03 AM 1.6°F-16.9°C -7.6°F-22.0°C 64% Calm Calm -- 30.19 in1022.4 mb 0.00 in0.0 mm 0.00 in/hr0.0 mm/hr 0.00 in0.0 mm
06:02 AM 1.6°F-16.9°C -7.6°F-22.0°C 64% Calm Calm -- 30.19 in1022.4 mb 0.00 in0.0 mm 0.00 in/hr0.0 mm/hr 0.00 in0.0 mm
06:01 AM 1.6°F-16.9°C -7.6°F-22.0°C 64% Calm Calm -- 30.18 in1022.0 mb 0.00 in0.0 mm 0.00 in/hr0.0 mm/hr 0.00 in0.0 mm
06:00 AM 1.8°F-16.8°C -7.4°F-21.9°C 64% Calm Calm -- 30.18 in1022.0 mb 0.00 in0.0 mm 0.00 in/hr0.0 mm/hr 0.00 in0.0 mm
05:59 AM 1.6°F-16.9°C -7.6°F-22.0°C 64% Calm Calm -- 30.18 in1022.0 mb 0.00 in0.0 mm 0.00 in/hr0.0 mm/hr 0.00 in0.0 mm
05:58 AM 1.6°F-16.9°C -7.6°F-22.0°C 64% Calm Calm -- 30.19 in1022.4 mb 0.00 in0.0 mm 0.00 in/hr0.0 mm/hr 0.00 in0.0 mm
05:57 AM 1.6°F-16.9°C -7.6°F-22.0°C 64% Calm Calm -- 30.18 in1022.0 mb 0.00 in0.0 mm 0.00 in/hr0.0 mm/hr 0.00 in0.0 mm
05:56 AM 1.4°F-17.0°C -7.7°F-22.1°C 64% Calm Calm -- 30.19 in1022.4 mb 0.00 in0.0 mm 0.00 in/hr0.0 mm/hr 0.00 in0.0 mm
05:55 AM 1.4°F-17.0°C -7.7°F-22.1°C 64% 0.1 mph W0.2 kmh W 0.8 mph1.3 kmh 30.18 in1022.0 mb 0.00 in0.0 mm 0.00 in/hr0.0 mm/hr 0.00 in0.0 mm
05:54 AM 1.4°F-17.0°C -7.7°F-22.1°C 64% 0.2 mph SW0.3 kmh SW 1.6 mph2.6 kmh 30.18 in1022.0 mb 0.00 in0.0 mm 0.00 in/hr0.0 mm/hr 0.00 in0.0 mm
05:53 AM 1.6°F-16.9°C -7.6°F-22.0°C 64% 0.4 mph SW0.6 kmh SW 1.6 mph2.6 kmh 30.18 in1022.0 mb 0.00 in0.0 mm 0.00 in/hr0.0 mm/hr 0.00 in0.0 mm
05:52 AM 1.8°F-16.8°C -7.4°F-21.9°C 64% 0.6 mph SSW1.0 kmh SSW 1.6 mph2.6 kmh 30.18 in1022.0 mb 0.00 in0.0 mm 0.00 in/hr0.0 mm/hr 0.00 in0.0 mm
05:51 AM 1.8°F-16.8°C -7.4°F-21.9°C 64% 0.6 mph SSW1.0 kmh SSW 1.6 mph2.6 kmh 30.18 in1022.0 mb 0.00 in0.0 mm 0.00 in/hr0.0 mm/hr 0.00 in0.0 mm
05:50 AM 1.8°F-16.8°C -7.4°F-21.9°C 64% 0.6 mph SSW1.0 kmh SSW 1.6 mph2.6 kmh 30.18 in1022.0 mb 0.00 in0.0 mm 0.00 in/hr0.0 mm/hr 0.00 in0.0 mm
05:49 AM 1.6°F-16.9°C -7.6°F-22.0°C 64% 0.6 mph SSW1.0 kmh SSW 1.6 mph2.6 kmh 30.18 in1022.0 mb 0.00 in0.0 mm 0.00 in/hr0.0 mm/hr 0.00 in0.0 mm
05:48 AM 1.6°F-16.9°C -7.6°F-22.0°C 64% 0.6 mph SSW1.0 kmh SSW 1.6 mph2.6 kmh 30.19 in1022.4 mb 0.00 in0.0 mm 0.00 in/hr0.0 mm/hr 0.00 in0.0 mm
05:47 AM 1.6°F-16.9°C -7.6°F-22.0°C 64% 0.6 mph SSW1.0 kmh SSW 1.6 mph2.6 kmh 30.18 in1022.0 mb 0.00 in0.0 mm 0.00 in/hr0.0 mm/hr 0.00 in0.0 mm
05:46 AM 1.4°F-17.0°C -7.7°F-22.1°C 64% 0.6 mph SSW1.0 kmh SSW 1.6 mph2.6 kmh 30.19 in1022.4 mb 0.00 in0.0 mm 0.00 in/hr0.0 mm/hr 0.00 in0.0 mm
05:45 AM 1.2°F-17.1°C -9.2°F-22.9°C 60% 0.5 mph S0.8 kmh S 1.6 mph2.6 kmh 30.18 in1022.0 mb 0.00 in0.0 mm 0.00 in/hr0.0 mm/hr 0.00 in0.0 mm
05:44 AM 1.4°F-17.0°C -7.7°F-22.1°C 64% 0.4 mph S0.6 kmh S 1.6 mph2.6 kmh 30.19 in1022.4 mb 0.00 in0.0 mm 0.00 in/hr0.0 mm/hr 0.00 in0.0 mm
05:43 AM 1.4°F-17.0°C -8.1°F-22.3°C 63% 0.2 mph S0.3 kmh S 1.6 mph2.6 kmh 30.18 in1022.0 mb 0.00 in0.0 mm 0.00 in/hr0.0 mm/hr 0.00 in0.0 mm
05:42 AM 1.4°F-17.0°C -7.7°F-22.1°C 64% Calm Calm 1.6 mph2.6 kmh 30.18 in1022.0 mb 0.00 in0.0 mm 0.00 in/hr0.0 mm/hr 0.00 in0.0 mm
05:41 AM 1.6°F-16.9°C -7.6°F-22.0°C 64% Calm Calm -- 30.19 in1022.4 mb 0.00 in0.0 mm 0.00 in/hr0.0 mm/hr 0.00 in0.0 mm
05:40 AM 1.6°F-16.9°C -7.9°F-22.2°C 63% Calm Calm -- 30.19 in1022.4 mb 0.00 in0.0 mm 0.00 in/hr0.0 mm/hr 0.00 in0.0 mm
05:39 AM 1.6°F-16.9°C -7.9°F-22.2°C 63% Calm Calm -- 30.19 in1022.4 mb 0.00 in0.0 mm 0.00 in/hr0.0 mm/hr 0.00 in0.0 mm
05:38 AM 1.6°F-16.9°C -7.9°F-22.2°C 63% Calm Calm -- 30.19 in1022.4 mb 0.00 in0.0 mm 0.00 in/hr0.0 mm/hr 0.00 in0.0 mm
05:37 AM 1.4°F-17.0°C -8.1°F-22.3°C 63% Calm Calm -- 30.19 in1022.4 mb 0.00 in0.0 mm 0.00 in/hr0.0 mm/hr 0.00 in0.0 mm
05:36 AM 1.4°F-17.0°C -8.1°F-22.3°C 63% Calm Calm -- 30.19 in1022.4 mb 0.00 in0.0 mm 0.00 in/hr0.0 mm/hr 0.00 in0.0 mm
05:35 AM 1.4°F-17.0°C -8.1°F-22.3°C 63% Calm Calm -- 30.19 in1022.4 mb 0.00 in0.0 mm 0.00 in/hr0.0 mm/hr 0.00 in0.0 mm
05:34 AM 1.2°F-17.1°C -9.6°F-23.1°C 59% Calm Calm -- 30.19 in1022.4 mb 0.00 in0.0 mm 0.00 in/hr0.0 mm/hr 0.00 in0.0 mm
05:33 AM 1.4°F-17.0°C -8.1°F-22.3°C 63% Calm Calm -- 30.20 in1022.7 mb 0.00 in0.0 mm 0.00 in/hr0.0 mm/hr 0.00 in0.0 mm
05:32 AM 1.4°F-17.0°C -8.1°F-22.3°C 63% Calm Calm -- 30.19 in1022.4 mb 0.00 in0.0 mm 0.00 in/hr0.0 mm/hr 0.00 in0.0 mm
05:31 AM 1.4°F-17.0°C -8.1°F-22.3°C 63% Calm Calm -- 30.20 in1022.7 mb 0.00 in0.0 mm 0.00 in/hr0.0 mm/hr 0.00 in0.0 mm
05:30 AM 1.6°F-16.9°C -7.9°F-22.2°C 63% Calm Calm -- 30.20 in1022.7 mb 0.00 in0.0 mm 0.00 in/hr0.0 mm/hr 0.00 in0.0 mm
05:29 AM 1.9°F-16.7°C -7.6°F-22.0°C 63% Calm Calm -- 30.19 in1022.4 mb 0.00 in0.0 mm 0.00 in/hr0.0 mm/hr 0.00 in0.0 mm
05:28 AM 2.1°F-16.6°C -7.4°F-21.9°C 63% Calm Calm -- 30.20 in1022.7 mb 0.00 in0.0 mm 0.00 in/hr0.0 mm/hr 0.00 in0.0 mm
05:27 AM 2.3°F-16.5°C -7.2°F-21.8°C 63% Calm Calm -- 30.19 in1022.4 mb 0.00 in0.0 mm 0.00 in/hr0.0 mm/hr 0.00 in0.0 mm
05:26 AM 2.3°F-16.5°C -7.2°F-21.8°C 63% Calm Calm -- 30.20 in1022.7 mb 0.00 in0.0 mm 0.00 in/hr0.0 mm/hr 0.00 in0.0 mm
05:25 AM 2.5°F-16.4°C -7.1°F-21.7°C 63% Calm Calm -- 30.19 in1022.4 mb 0.00 in0.0 mm 0.00 in/hr0.0 mm/hr 0.00 in0.0 mm
05:24 AM 2.7°F-16.3°C -6.9°F-21.6°C 63% Calm Calm -- 30.19 in1022.4 mb 0.00 in0.0 mm 0.00 in/hr0.0 mm/hr 0.00 in0.0 mm
05:23 AM 2.7°F-16.3°C -6.9°F-21.6°C 63% Calm Calm -- 30.20 in1022.7 mb 0.00 in0.0 mm 0.00 in/hr0.0 mm/hr 0.00 in0.0 mm
05:22 AM 2.7°F-16.3°C -6.9°F-21.6°C 63% Calm Calm -- 30.20 in1022.7 mb 0.00 in0.0 mm 0.00 in/hr0.0 mm/hr 0.00 in0.0 mm
05:21 AM 2.5°F-16.4°C -7.1°F-21.7°C 63% Calm Calm -- 30.20 in1022.7 mb 0.00 in0.0 mm 0.00 in/hr0.0 mm/hr 0.00 in0.0 mm
05:20 AM 2.5°F-16.4°C -7.1°F-21.7°C 63% Calm Calm -- 30.19 in1022.4 mb 0.00 in0.0 mm 0.00 in/hr0.0 mm/hr 0.00 in0.0 mm
05:19 AM 2.3°F-16.5°C -7.2°F-21.8°C 63% Calm Calm -- 30.19 in1022.4 mb 0.00 in0.0 mm 0.00 in/hr0.0 mm/hr 0.00 in0.0 mm
05:18 AM 2.3°F-16.5°C -7.2°F-21.8°C 63% Calm Calm -- 30.20 in1022.7 mb 0.00 in0.0 mm 0.00 in/hr0.0 mm/hr 0.00 in0.0 mm
05:17 AM 2.5°F-16.4°C -7.1°F-21.7°C 63% Calm Calm -- 30.19 in1022.4 mb 0.00 in0.0 mm 0.00 in/hr0.0 mm/hr 0.00 in0.0 mm
05:16 AM 2.5°F-16.4°C -7.1°F-21.7°C 63% Calm Calm -- 30.19 in1022.4 mb 0.00 in0.0 mm 0.00 in/hr0.0 mm/hr 0.00 in0.0 mm
05:15 AM 2.7°F-16.3°C -6.9°F-21.6°C 63% Calm Calm -- 30.19 in1022.4 mb 0.00 in0.0 mm 0.00 in/hr0.0 mm/hr 0.00 in0.0 mm
05:14 AM 2.7°F-16.3°C -6.9°F-21.6°C 63% Calm Calm -- 30.19 in1022.4 mb 0.00 in0.0 mm 0.00 in/hr0.0 mm/hr 0.00 in0.0 mm
05:13 AM 2.7°F-16.3°C -6.9°F-21.6°C 63% Calm Calm -- 30.19 in1022.4 mb 0.00 in0.0 mm 0.00 in/hr0.0 mm/hr 0.00 in0.0 mm
05:12 AM 2.7°F-16.3°C -6.9°F-21.6°C 63% Calm Calm -- 30.19 in1022.4 mb 0.00 in0.0 mm 0.00 in/hr0.0 mm/hr 0.00 in0.0 mm
05:11 AM 2.7°F-16.3°C -6.9°F-21.6°C 63% Calm Calm -- 30.19 in1022.4 mb 0.00 in0.0 mm 0.00 in/hr0.0 mm/hr 0.00 in0.0 mm
05:10 AM 2.8°F-16.2°C -6.7°F-21.5°C 63% Calm Calm -- 30.19 in1022.4 mb 0.00 in0.0 mm 0.00 in/hr0.0 mm/hr 0.00 in0.0 mm
05:09 AM 2.8°F-16.2°C -6.7°F-21.5°C 63% Calm Calm -- 30.19 in1022.4 mb 0.00 in0.0 mm 0.00 in/hr0.0 mm/hr 0.00 in0.0 mm
05:08 AM 3.0°F-16.1°C -6.5°F-21.4°C 63% Calm Calm -- 30.19 in1022.4 mb 0.00 in0.0 mm 0.00 in/hr0.0 mm/hr 0.00 in0.0 mm
05:07 AM 3.0°F-16.1°C -6.5°F-21.4°C 63% Calm Calm -- 30.19 in1022.4 mb 0.00 in0.0 mm 0.00 in/hr0.0 mm/hr 0.00 in0.0 mm
05:06 AM 3.0°F-16.1°C -6.5°F-21.4°C 63% Calm Calm -- 30.19 in1022.4 mb 0.00 in0.0 mm 0.00 in/hr0.0 mm/hr 0.00 in0.0 mm
05:05 AM 3.0°F-16.1°C -6.5°F-21.4°C 63% Calm Calm -- 30.18 in1022.0 mb 0.00 in0.0 mm 0.00 in/hr0.0 mm/hr 0.00 in0.0 mm
05:04 AM 3.0°F-16.1°C -6.5°F-21.4°C 63% Calm Calm -- 30.18 in1022.0 mb 0.00 in0.0 mm 0.00 in/hr0.0 mm/hr 0.00 in0.0 mm
05:03 AM 3.0°F-16.1°C -6.5°F-21.4°C 63% Calm Calm -- 30.19 in1022.4 mb 0.00 in0.0 mm 0.00 in/hr0.0 mm/hr 0.00 in0.0 mm
05:02 AM 3.0°F-16.1°C -6.5°F-21.4°C 63% Calm Calm -- 30.19 in1022.4 mb 0.00 in0.0 mm 0.00 in/hr0.0 mm/hr 0.00 in0.0 mm
05:01 AM 3.0°F-16.1°C -6.5°F-21.4°C 63% Calm Calm -- 30.19 in1022.4 mb 0.00 in0.0 mm 0.00 in/hr0.0 mm/hr 0.00 in0.0 mm
05:00 AM 3.0°F-16.1°C -6.5°F-21.4°C 63% Calm Calm -- 30.18 in1022.0 mb 0.00 in0.0 mm 0.00 in/hr0.0 mm/hr 0.00 in0.0 mm
04:59 AM 3.0°F-16.1°C -6.5°F-21.4°C 63% Calm Calm -- 30.18 in1022.0 mb 0.00 in0.0 mm 0.00 in/hr0.0 mm/hr 0.00 in0.0 mm
04:58 AM 3.0°F-16.1°C -6.5°F-21.4°C 63% Calm Calm -- 30.18 in1022.0 mb 0.00 in0.0 mm 0.00 in/hr0.0 mm/hr 0.00 in0.0 mm
04:57 AM 3.0°F-16.1°C -6.5°F-21.4°C 63% Calm Calm -- 30.18 in1022.0 mb 0.00 in0.0 mm 0.00 in/hr0.0 mm/hr 0.00 in0.0 mm
04:56 AM 3.2°F-16.0°C -6.7°F-21.5°C 62% Calm Calm -- 30.18 in1022.0 mb 0.00 in0.0 mm 0.00 in/hr0.0 mm/hr 0.00 in0.0 mm
04:55 AM 3.2°F-16.0°C -6.7°F-21.5°C 62% Calm Calm -- 30.18 in1022.0 mb 0.00 in0.0 mm 0.00 in/hr0.0 mm/hr 0.00 in0.0 mm
04:54 AM 3.2°F-16.0°C -6.7°F-21.5°C 62% Calm Calm -- 30.18 in1022.0 mb 0.00 in0.0 mm 0.00 in/hr0.0 mm/hr 0.00 in0.0 mm
04:53 AM 3.0°F-16.1°C -6.9°F-21.6°C 62% Calm Calm -- 30.18 in1022.0 mb 0.00 in0.0 mm 0.00 in/hr0.0 mm/hr 0.00 in0.0 mm
04:52 AM 3.0°F-16.1°C -6.9°F-21.6°C 62% Calm Calm -- 30.18 in1022.0 mb 0.00 in0.0 mm 0.00 in/hr0.0 mm/hr 0.00 in0.0 mm
04:51 AM 3.0°F-16.1°C -6.9°F-21.6°C 62% Calm Calm -- 30.18 in1022.0 mb 0.00 in0.0 mm 0.00 in/hr0.0 mm/hr 0.00 in0.0 mm
04:50 AM 2.8°F-16.2°C -7.1°F-21.7°C 62% Calm Calm -- 30.18 in1022.0 mb 0.00 in0.0 mm 0.00 in/hr0.0 mm/hr 0.00 in0.0 mm
04:49 AM 2.5°F-16.4°C -7.4°F-21.9°C 62% Calm Calm -- 30.18 in1022.0 mb 0.00 in0.0 mm 0.00 in/hr0.0 mm/hr 0.00 in0.0 mm
04:48 AM 2.5°F-16.4°C -7.4°F-21.9°C 62% Calm Calm -- 30.18 in1022.0 mb 0.00 in0.0 mm 0.00 in/hr0.0 mm/hr 0.00 in0.0 mm
04:47 AM 2.5°F-16.4°C -7.4°F-21.9°C 62% Calm Calm -- 30.18 in1022.0 mb 0.00 in0.0 mm 0.00 in/hr0.0 mm/hr 0.00 in0.0 mm
04:46 AM 2.5°F-16.4°C -7.4°F-21.9°C 62% Calm Calm -- 30.18 in1022.0 mb 0.00 in0.0 mm 0.00 in/hr0.0 mm/hr 0.00 in0.0 mm
04:45 AM 2.1°F-16.6°C -7.7°F-22.1°C 62% Calm Calm -- 30.18 in1022.0 mb 0.00 in0.0 mm 0.00 in/hr0.0 mm/hr 0.00 in0.0 mm
04:44 AM 2.1°F-16.6°C -7.7°F-22.1°C 62% Calm Calm -- 30.18 in1022.0 mb 0.00 in0.0 mm 0.00 in/hr0.0 mm/hr 0.00 in0.0 mm
04:43 AM 2.3°F-16.5°C -7.6°F-22.0°C 62% Calm Calm -- 30.18 in1022.0 mb 0.00 in0.0 mm 0.00 in/hr0.0 mm/hr 0.00 in0.0 mm
04:42 AM 2.5°F-16.4°C -7.4°F-21.9°C 62% Calm Calm -- 30.18 in1022.0 mb 0.00 in0.0 mm 0.00 in/hr0.0 mm/hr 0.00 in0.0 mm
04:41 AM 3.2°F-16.0°C -7.0°F-21.7°C 61% Calm Calm -- 30.18 in1022.0 mb 0.00 in0.0 mm 0.00 in/hr0.0 mm/hr 0.00 in0.0 mm
04:40 AM 3.4°F-15.9°C -6.9°F-21.6°C 61% Calm Calm -- 30.18 in1022.0 mb 0.00 in0.0 mm 0.00 in/hr0.0 mm/hr 0.00 in0.0 mm
04:39 AM 3.4°F-15.9°C -6.9°F-21.6°C 61% Calm Calm -- 30.18 in1022.0 mb 0.00 in0.0 mm 0.00 in/hr0.0 mm/hr 0.00 in0.0 mm
04:38 AM 3.4°F-15.9°C -6.9°F-21.6°C 61% Calm Calm -- 30.17 in1021.7 mb 0.00 in0.0 mm 0.00 in/hr0.0 mm/hr 0.00 in0.0 mm
04:37 AM 3.4°F-15.9°C -6.9°F-21.6°C 61% Calm Calm -- 30.17 in1021.7 mb 0.00 in0.0 mm 0.00 in/hr0.0 mm/hr 0.00 in0.0 mm
04:36 AM 3.2°F-16.0°C -7.0°F-21.7°C 61% Calm Calm -- 30.17 in1021.7 mb 0.00 in0.0 mm 0.00 in/hr0.0 mm/hr 0.00 in0.0 mm
04:35 AM 3.2°F-16.0°C -7.0°F-21.7°C 61% Calm Calm -- 30.17 in1021.7 mb 0.00 in0.0 mm 0.00 in/hr0.0 mm/hr 0.00 in0.0 mm
04:34 AM 3.2°F-16.0°C -7.0°F-21.7°C 61% Calm Calm -- 30.17 in1021.7 mb 0.00 in0.0 mm 0.00 in/hr0.0 mm/hr 0.00 in0.0 mm
04:33 AM 3.4°F-15.9°C -6.9°F-21.6°C 61% Calm Calm -- 30.17 in1021.7 mb 0.00 in0.0 mm 0.00 in/hr0.0 mm/hr 0.00 in0.0 mm
04:32 AM 3.6°F-15.8°C -6.7°F-21.5°C 61% Calm Calm -- 30.17 in1021.7 mb 0.00 in0.0 mm 0.00 in/hr0.0 mm/hr 0.00 in0.0 mm
04:31 AM 3.6°F-15.8°C -6.7°F-21.5°C 61% Calm Calm -- 30.17 in1021.7 mb 0.00 in0.0 mm 0.00 in/hr0.0 mm/hr 0.00 in0.0 mm
04:30 AM 3.6°F-15.8°C -6.7°F-21.5°C 61% Calm Calm -- 30.17 in1021.7 mb 0.00 in0.0 mm 0.00 in/hr0.0 mm/hr 0.00 in0.0 mm
04:29 AM 3.9°F-15.6°C -6.4°F-21.3°C 61% Calm Calm -- 30.16 in1021.3 mb 0.00 in0.0 mm 0.00 in/hr0.0 mm/hr 0.00 in0.0 mm
04:28 AM 4.1°F-15.5°C -6.2°F-21.2°C 61% 0.1 mph S0.2 kmh S 0.8 mph1.3 kmh 30.17 in1021.7 mb 0.00 in0.0 mm 0.00 in/hr0.0 mm/hr 0.00 in0.0 mm
04:27 AM 4.1°F-15.5°C -6.2°F-21.2°C 61% 0.2 mph SSW0.3 kmh SSW 1.6 mph2.6 kmh 30.17 in1021.7 mb 0.00 in0.0 mm 0.00 in/hr0.0 mm/hr 0.00 in0.0 mm
04:26 AM 4.3°F-15.4°C -6.0°F-21.1°C 61% 0.4 mph SW0.6 kmh SW 1.6 mph2.6 kmh 30.17 in1021.7 mb 0.00 in0.0 mm 0.00 in/hr0.0 mm/hr 0.00 in0.0 mm
04:25 AM 4.6°F-15.2°C -5.7°F-20.9°C 61% 0.5 mph SSW0.8 kmh SSW 1.6 mph2.6 kmh 30.17 in1021.7 mb 0.00 in0.0 mm 0.00 in/hr0.0 mm/hr 0.00 in0.0 mm
04:24 AM 4.5°F-15.3°C -5.9°F-21.1°C 61% 0.7 mph SW1.1 kmh SW 1.6 mph2.6 kmh 30.17 in1021.7 mb 0.00 in0.0 mm 0.00 in/hr0.0 mm/hr 0.00 in0.0 mm
04:23 AM 4.5°F-15.3°C -5.9°F-21.1°C 61% 0.7 mph SW1.1 kmh SW 1.6 mph2.6 kmh 30.17 in1021.7 mb 0.00 in0.0 mm 0.00 in/hr0.0 mm/hr 0.00 in0.0 mm
04:22 AM 4.5°F-15.3°C -5.9°F-21.1°C 61% 0.7 mph SW1.1 kmh SW 1.6 mph2.6 kmh 30.17 in1021.7 mb 0.00 in0.0 mm 0.00 in/hr0.0 mm/hr 0.00 in0.0 mm
04:21 AM 4.6°F-15.2°C -5.7°F-20.9°C 61% 0.8 mph SW1.3 kmh SW 1.6 mph2.6 kmh 30.17 in1021.7 mb 0.00 in0.0 mm 0.00 in/hr0.0 mm/hr 0.00 in0.0 mm
04:20 AM 4.6°F-15.2°C -5.7°F-20.9°C 61% 0.7 mph SW1.1 kmh SW 1.6 mph2.6 kmh 30.17 in1021.7 mb 0.00 in0.0 mm 0.00 in/hr0.0 mm/hr 0.00 in0.0 mm
04:19 AM 4.5°F-15.3°C -5.9°F-21.1°C 61% 0.7 mph SW1.1 kmh SW 1.6 mph2.6 kmh 30.18 in1022.0 mb 0.00 in0.0 mm 0.00 in/hr0.0 mm/hr 0.00 in0.0 mm
04:18 AM 4.5°F-15.3°C -5.9°F-21.1°C 61% 0.7 mph SW1.1 kmh SW 1.6 mph2.6 kmh 30.18 in1022.0 mb 0.00 in0.0 mm 0.00 in/hr0.0 mm/hr 0.00 in0.0 mm
04:17 AM 4.5°F-15.3°C -5.9°F-21.1°C 61% 0.5 mph SW0.8 kmh SW 1.6 mph2.6 kmh 30.17 in1021.7 mb 0.00 in0.0 mm 0.00 in/hr0.0 mm/hr 0.00 in0.0 mm
04:16 AM 4.5°F-15.3°C -5.9°F-21.1°C 61% 0.4 mph SW0.6 kmh SW 1.6 mph2.6 kmh 30.17 in1021.7 mb 0.00 in0.0 mm 0.00 in/hr0.0 mm/hr 0.00 in0.0 mm
04:15 AM 4.5°F-15.3°C -5.9°F-21.1°C 61% 0.2 mph SW0.3 kmh SW 1.6 mph2.6 kmh 30.17 in1021.7 mb 0.00 in0.0 mm 0.00 in/hr0.0 mm/hr 0.00 in0.0 mm
04:14 AM 4.6°F-15.2°C -5.7°F-20.9°C 61% Calm Calm 1.6 mph2.6 kmh 30.17 in1021.7 mb 0.00 in0.0 mm 0.00 in/hr0.0 mm/hr 0.00 in0.0 mm
04:13 AM 4.8°F-15.1°C -5.5°F-20.8°C 61% Calm Calm -- 30.17 in1021.7 mb 0.00 in0.0 mm 0.00 in/hr0.0 mm/hr 0.00 in0.0 mm
04:12 AM 5.0°F-15.0°C -5.7°F-20.9°C 60% Calm Calm -- 30.17 in1021.7 mb 0.00 in0.0 mm 0.00 in/hr0.0 mm/hr 0.00 in0.0 mm
04:11 AM 5.0°F-15.0°C -5.7°F-20.9°C 60% Calm Calm -- 30.17 in1021.7 mb 0.00 in0.0 mm 0.00 in/hr0.0 mm/hr 0.00 in0.0 mm
04:10 AM 5.0°F-15.0°C -5.7°F-20.9°C 60% Calm Calm -- 30.17 in1021.7 mb 0.00 in0.0 mm 0.00 in/hr0.0 mm/hr 0.00 in0.0 mm
04:09 AM 5.0°F-15.0°C -5.7°F-20.9°C 60% Calm Calm -- 30.17 in1021.7 mb 0.00 in0.0 mm 0.00 in/hr0.0 mm/hr 0.00 in0.0 mm
04:08 AM 5.0°F-15.0°C -5.7°F-20.9°C 60% Calm Calm -- 30.17 in1021.7 mb 0.00 in0.0 mm 0.00 in/hr0.0 mm/hr 0.00 in0.0 mm
04:07 AM 4.8°F-15.1°C -5.5°F-20.8°C 61% Calm Calm -- 30.17 in1021.7 mb 0.00 in0.0 mm 0.00 in/hr0.0 mm/hr 0.00 in0.0 mm
04:06 AM 4.6°F-15.2°C -5.7°F-20.9°C 61% Calm Calm -- 30.17 in1021.7 mb 0.00 in0.0 mm 0.00 in/hr0.0 mm/hr 0.00 in0.0 mm
04:05 AM 4.8°F-15.1°C -5.5°F-20.8°C 61% Calm Calm -- 30.16 in1021.3 mb 0.00 in0.0 mm 0.00 in/hr0.0 mm/hr 0.00 in0.0 mm
04:04 AM 4.8°F-15.1°C -5.5°F-20.8°C 61% Calm Calm -- 30.17 in1021.7 mb 0.00 in0.0 mm 0.00 in/hr0.0 mm/hr 0.00 in0.0 mm
04:03 AM 4.8°F-15.1°C -5.9°F-21.1°C 60% Calm Calm -- 30.16 in1021.3 mb 0.00 in0.0 mm 0.00 in/hr0.0 mm/hr 0.00 in0.0 mm
04:02 AM 4.8°F-15.1°C -5.9°F-21.1°C 60% Calm Calm -- 30.16 in1021.3 mb 0.00 in0.0 mm 0.00 in/hr0.0 mm/hr 0.00 in0.0 mm
04:01 AM 4.6°F-15.2°C -6.0°F-21.1°C 60% Calm Calm -- 30.16 in1021.3 mb 0.00 in0.0 mm 0.00 in/hr0.0 mm/hr 0.00 in0.0 mm
04:00 AM 4.6°F-15.2°C -6.0°F-21.1°C 60% Calm Calm -- 30.16 in1021.3 mb 0.00 in0.0 mm 0.00 in/hr0.0 mm/hr 0.00 in0.0 mm
03:59 AM 4.6°F-15.2°C -6.0°F-21.1°C 60% Calm Calm -- 30.16 in1021.3 mb 0.00 in0.0 mm 0.00 in/hr0.0 mm/hr 0.00 in0.0 mm
03:58 AM 4.5°F-15.3°C -6.2°F-21.2°C 60% Calm Calm -- 30.16 in1021.3 mb 0.00 in0.0 mm 0.00 in/hr0.0 mm/hr 0.00 in0.0 mm
03:57 AM 4.5°F-15.3°C -6.2°F-21.2°C 60% Calm Calm -- 30.16 in1021.3 mb 0.00 in0.0 mm 0.00 in/hr0.0 mm/hr 0.00 in0.0 mm
03:56 AM 4.5°F-15.3°C -6.2°F-21.2°C 60% Calm Calm -- 30.16 in1021.3 mb 0.00 in0.0 mm 0.00 in/hr0.0 mm/hr 0.00 in0.0 mm
03:55 AM 4.6°F-15.2°C -6.4°F-21.3°C 59% Calm Calm -- 30.16 in1021.3 mb 0.00 in0.0 mm 0.00 in/hr0.0 mm/hr 0.00 in0.0 mm
03:54 AM 4.6°F-15.2°C -6.4°F-21.3°C 59% Calm Calm -- 30.16 in1021.3 mb 0.00 in0.0 mm 0.00 in/hr0.0 mm/hr 0.00 in0.0 mm
03:53 AM 4.8°F-15.1°C -6.2°F-21.2°C 59% Calm Calm -- 30.16 in1021.3 mb 0.00 in0.0 mm 0.00 in/hr0.0 mm/hr 0.00 in0.0 mm
03:52 AM 4.8°F-15.1°C -6.2°F-21.2°C 59% Calm Calm -- 30.15 in1021.0 mb 0.00 in0.0 mm 0.00 in/hr0.0 mm/hr 0.00 in0.0 mm
03:51 AM 4.8°F-15.1°C -6.2°F-21.2°C 59% Calm Calm -- 30.15 in1021.0 mb 0.00 in0.0 mm 0.00 in/hr0.0 mm/hr 0.00 in0.0 mm
03:50 AM 5.0°F-15.0°C -6.4°F-21.3°C 58% Calm Calm -- 30.16 in1021.3 mb 0.00 in0.0 mm 0.00 in/hr0.0 mm/hr 0.00 in0.0 mm
03:49 AM 5.0°F-15.0°C -6.4°F-21.3°C 58% Calm Calm -- 30.15 in1021.0 mb 0.00 in0.0 mm 0.00 in/hr0.0 mm/hr 0.00 in0.0 mm
03:48 AM 5.0°F-15.0°C -6.4°F-21.3°C 58% Calm Calm -- 30.15 in1021.0 mb 0.00 in0.0 mm 0.00 in/hr0.0 mm/hr 0.00 in0.0 mm
03:47 AM 5.2°F-14.9°C -6.3°F-21.3°C 58% Calm Calm -- 30.15 in1021.0 mb 0.00 in0.0 mm 0.00 in/hr0.0 mm/hr 0.00 in0.0 mm
03:46 AM 5.2°F-14.9°C -6.3°F-21.3°C 58% Calm Calm -- 30.15 in1021.0 mb 0.00 in0.0 mm 0.00 in/hr0.0 mm/hr 0.00 in0.0 mm
03:45 AM 5.0°F-15.0°C -6.4°F-21.3°C 58% Calm Calm -- 30.15 in1021.0 mb 0.00 in0.0 mm 0.00 in/hr0.0 mm/hr 0.00 in0.0 mm
03:44 AM 5.0°F-15.0°C -6.4°F-21.3°C 58% Calm Calm -- 30.15 in1021.0 mb 0.00 in0.0 mm 0.00 in/hr0.0 mm/hr 0.00 in0.0 mm
03:43 AM 5.0°F-15.0°C -6.4°F-21.3°C 58% Calm Calm -- 30.15 in1021.0 mb 0.00 in0.0 mm 0.00 in/hr0.0 mm/hr 0.00 in0.0 mm
03:42 AM 5.0°F-15.0°C -6.4°F-21.3°C 58% Calm Calm -- 30.15 in1021.0 mb 0.00 in0.0 mm 0.00 in/hr0.0 mm/hr 0.00 in0.0 mm
03:41 AM 5.4°F-14.8°C -6.1°F-21.2°C 58% Calm Calm -- 30.15 in1021.0 mb 0.00 in0.0 mm 0.00 in/hr0.0 mm/hr 0.00 in0.0 mm
03:40 AM 5.4°F-14.8°C -6.5°F-21.4°C 57% Calm Calm -- 30.15 in1021.0 mb 0.00 in0.0 mm 0.00 in/hr0.0 mm/hr 0.00 in0.0 mm
03:39 AM 5.2°F-14.9°C -6.6°F-21.4°C 57% Calm Calm -- 30.15 in1021.0 mb 0.00 in0.0 mm 0.00 in/hr0.0 mm/hr 0.00 in0.0 mm
03:38 AM 5.2°F-14.9°C -6.6°F-21.4°C 57% Calm Calm -- 30.15 in1021.0 mb 0.00 in0.0 mm 0.00 in/hr0.0 mm/hr 0.00 in0.0 mm
03:37 AM 5.4°F-14.8°C -6.5°F-21.4°C 57% Calm Calm -- 30.15 in1021.0 mb 0.00 in0.0 mm 0.00 in/hr0.0 mm/hr 0.00 in0.0 mm
03:36 AM 5.2°F-14.9°C -6.6°F-21.4°C 57% Calm Calm -- 30.15 in1021.0 mb 0.00 in0.0 mm 0.00 in/hr0.0 mm/hr 0.00 in0.0 mm
03:35 AM 5.2°F-14.9°C -6.6°F-21.4°C 57% Calm Calm -- 30.15 in1021.0 mb 0.00 in0.0 mm 0.00 in/hr0.0 mm/hr 0.00 in0.0 mm
03:34 AM 5.2°F-14.9°C -7.0°F-21.7°C 56% Calm Calm -- 30.15 in1021.0 mb 0.00 in0.0 mm 0.00 in/hr0.0 mm/hr 0.00 in0.0 mm
03:33 AM 5.2°F-14.9°C -7.0°F-21.7°C 56% Calm Calm -- 30.14 in1020.7 mb 0.00 in0.0 mm 0.00 in/hr0.0 mm/hr 0.00 in0.0 mm
03:32 AM 5.4°F-14.8°C -6.8°F-21.6°C 56% Calm Calm -- 30.15 in1021.0 mb 0.00 in0.0 mm 0.00 in/hr0.0 mm/hr 0.00 in0.0 mm
03:31 AM 5.4°F-14.8°C -6.8°F-21.6°C 56% Calm Calm -- 30.15 in1021.0 mb 0.00 in0.0 mm 0.00 in/hr0.0 mm/hr 0.00 in0.0 mm
03:30 AM 5.4°F-14.8°C -6.8°F-21.6°C 56% Calm Calm -- 30.15 in1021.0 mb 0.00 in0.0 mm 0.00 in/hr0.0 mm/hr 0.00 in0.0 mm
03:29 AM 5.4°F-14.8°C -6.8°F-21.6°C 56% Calm Calm -- 30.15 in1021.0 mb 0.00 in0.0 mm 0.00 in/hr0.0 mm/hr 0.00 in0.0 mm
03:28 AM 5.4°F-14.8°C -6.8°F-21.6°C 56% Calm Calm -- 30.15 in1021.0 mb 0.00 in0.0 mm 0.00 in/hr0.0 mm/hr 0.00 in0.0 mm
03:27 AM 5.4°F-14.8°C -6.8°F-21.6°C 56% Calm Calm -- 30.14 in1020.7 mb 0.00 in0.0 mm 0.00 in/hr0.0 mm/hr 0.00 in0.0 mm
03:26 AM 5.5°F-14.7°C -7.0°F-21.7°C 55% Calm Calm -- 30.15 in1021.0 mb 0.00 in0.0 mm 0.00 in/hr0.0 mm/hr 0.00 in0.0 mm
03:25 AM 5.4°F-14.8°C -7.2°F-21.8°C 55% Calm Calm -- 30.15 in1021.0 mb 0.00 in0.0 mm 0.00 in/hr0.0 mm/hr 0.00 in0.0 mm
03:24 AM 5.4°F-14.8°C -7.2°F-21.8°C 55% Calm Calm -- 30.15 in1021.0 mb 0.00 in0.0 mm 0.00 in/hr0.0 mm/hr 0.00 in0.0 mm
03:23 AM 5.4°F-14.8°C -7.2°F-21.8°C 55% Calm Calm -- 30.14 in1020.7 mb 0.00 in0.0 mm 0.00 in/hr0.0 mm/hr 0.00 in0.0 mm
03:22 AM 5.4°F-14.8°C -7.2°F-21.8°C 55% Calm Calm -- 30.14 in1020.7 mb 0.00 in0.0 mm 0.00 in/hr0.0 mm/hr 0.00 in0.0 mm
03:21 AM 5.5°F-14.7°C -7.0°F-21.7°C 55% Calm Calm -- 30.15 in1021.0 mb 0.00 in0.0 mm 0.00 in/hr0.0 mm/hr 0.00 in0.0 mm
03:20 AM 5.7°F-14.6°C -6.9°F-21.6°C 55% Calm Calm -- 30.15 in1021.0 mb 0.00 in0.0 mm 0.00 in/hr0.0 mm/hr 0.00 in0.0 mm
03:19 AM 5.9°F-14.5°C -6.7°F-21.5°C 55% Calm Calm -- 30.14 in1020.7 mb 0.00 in0.0 mm 0.00 in/hr0.0 mm/hr 0.00 in0.0 mm
03:18 AM 5.9°F-14.5°C -6.7°F-21.5°C 55% Calm Calm -- 30.14 in1020.7 mb 0.00 in0.0 mm 0.00 in/hr0.0 mm/hr 0.00 in0.0 mm
03:17 AM 6.1°F-14.4°C -6.5°F-21.4°C 55% Calm Calm -- 30.15 in1021.0 mb 0.00 in0.0 mm 0.00 in/hr0.0 mm/hr 0.00 in0.0 mm
03:16 AM 6.3°F-14.3°C -6.4°F-21.3°C 55% Calm Calm -- 30.15 in1021.0 mb 0.00 in0.0 mm 0.00 in/hr0.0 mm/hr 0.00 in0.0 mm
03:15 AM 6.3°F-14.3°C -6.4°F-21.3°C 55% Calm Calm -- 30.15 in1021.0 mb 0.00 in0.0 mm 0.00 in/hr0.0 mm/hr 0.00 in0.0 mm
03:14 AM 6.3°F-14.3°C -6.4°F-21.3°C 55% Calm Calm -- 30.15 in1021.0 mb 0.00 in0.0 mm 0.00 in/hr0.0 mm/hr 0.00 in0.0 mm
03:13 AM 6.3°F-14.3°C -6.4°F-21.3°C 55% Calm Calm -- 30.14 in1020.7 mb 0.00 in0.0 mm 0.00 in/hr0.0 mm/hr 0.00 in0.0 mm
03:12 AM 6.1°F-14.4°C -6.5°F-21.4°C 55% Calm Calm -- 30.15 in1021.0 mb 0.00 in0.0 mm 0.00 in/hr0.0 mm/hr 0.00 in0.0 mm
03:11 AM 6.1°F-14.4°C -6.9°F-21.6°C 54% Calm Calm -- 30.15 in1021.0 mb 0.00 in0.0 mm 0.00 in/hr0.0 mm/hr 0.00 in0.0 mm
03:10 AM 6.1°F-14.4°C -6.9°F-21.6°C 54% Calm Calm -- 30.14 in1020.7 mb 0.00 in0.0 mm 0.00 in/hr0.0 mm/hr 0.00 in0.0 mm
03:09 AM 5.9°F-14.5°C -7.1°F-21.7°C 54% Calm Calm -- 30.14 in1020.7 mb 0.00 in0.0 mm 0.00 in/hr0.0 mm/hr 0.00 in0.0 mm
03:08 AM 5.9°F-14.5°C -7.1°F-21.7°C 54% Calm Calm -- 30.15 in1021.0 mb 0.00 in0.0 mm 0.00 in/hr0.0 mm/hr 0.00 in0.0 mm
03:07 AM 6.8°F-14.0°C -6.7°F-21.5°C 53% Calm Calm -- 30.15 in1021.0 mb 0.00 in0.0 mm 0.00 in/hr0.0 mm/hr 0.00 in0.0 mm
03:06 AM 6.8°F-14.0°C -6.7°F-21.5°C 53% Calm Calm -- 30.15 in1021.0 mb 0.00 in0.0 mm 0.00 in/hr0.0 mm/hr 0.00 in0.0 mm
03:05 AM 6.8°F-14.0°C -6.7°F-21.5°C 53% Calm Calm -- 30.15 in1021.0 mb 0.00 in0.0 mm 0.00 in/hr0.0 mm/hr 0.00 in0.0 mm
03:04 AM 6.8°F-14.0°C -6.7°F-21.5°C 53% Calm Calm -- 30.15 in1021.0 mb 0.00 in0.0 mm 0.00 in/hr0.0 mm/hr 0.00 in0.0 mm
03:03 AM 6.8°F-14.0°C -6.7°F-21.5°C 53% Calm Calm -- 30.15 in1021.0 mb 0.00 in0.0 mm 0.00 in/hr0.0 mm/hr 0.00 in0.0 mm
03:02 AM 6.8°F-14.0°C -6.7°F-21.5°C 53% Calm Calm -- 30.15 in1021.0 mb 0.00 in0.0 mm 0.00 in/hr0.0 mm/hr 0.00 in0.0 mm
03:01 AM 6.8°F-14.0°C -6.7°F-21.5°C 53% Calm Calm -- 30.15 in1021.0 mb 0.00 in0.0 mm 0.00 in/hr0.0 mm/hr 0.00 in0.0 mm
03:00 AM 6.8°F-14.0°C -6.7°F-21.5°C 53% Calm Calm -- 30.15 in1021.0 mb 0.00 in0.0 mm 0.00 in/hr0.0 mm/hr 0.00 in0.0 mm
02:59 AM 7.2°F-13.8°C -6.3°F-21.3°C 53% Calm Calm -- 30.15 in1021.0 mb 0.00 in0.0 mm 0.00 in/hr0.0 mm/hr 0.00 in0.0 mm
02:58 AM 7.3°F-13.7°C -5.8°F-21.0°C 54% Calm Calm -- 30.15 in1021.0 mb 0.00 in0.0 mm 0.00 in/hr0.0 mm/hr 0.00 in0.0 mm
02:57 AM 7.5°F-13.6°C -5.6°F-20.9°C 54% Calm Calm -- 30.15 in1021.0 mb 0.00 in0.0 mm 0.00 in/hr0.0 mm/hr 0.00 in0.0 mm
02:56 AM 7.7°F-13.5°C -5.8°F-21.0°C 53% Calm Calm -- 30.14 in1020.7 mb 0.00 in0.0 mm 0.00 in/hr0.0 mm/hr 0.00 in0.0 mm
02:55 AM 7.9°F-13.4°C -5.7°F-20.9°C 53% Calm Calm -- 30.14 in1020.7 mb 0.00 in0.0 mm 0.00 in/hr0.0 mm/hr 0.00 in0.0 mm
02:54 AM 7.7°F-13.5°C -5.8°F-21.0°C 53% Calm Calm -- 30.14 in1020.7 mb 0.00 in0.0 mm 0.00 in/hr0.0 mm/hr 0.00 in0.0 mm
02:53 AM 7.5°F-13.6°C -6.0°F-21.1°C 53% Calm Calm -- 30.14 in1020.7 mb 0.00 in0.0 mm 0.00 in/hr0.0 mm/hr 0.00 in0.0 mm
02:52 AM 7.5°F-13.6°C -6.0°F-21.1°C 53% Calm Calm -- 30.14 in1020.7 mb 0.00 in0.0 mm 0.00 in/hr0.0 mm/hr 0.00 in0.0 mm
02:51 AM 7.3°F-13.7°C -6.2°F-21.2°C 53% Calm Calm -- 30.14 in1020.7 mb 0.00 in0.0 mm 0.00 in/hr0.0 mm/hr 0.00 in0.0 mm
02:50 AM 7.5°F-13.6°C -6.0°F-21.1°C 53% Calm Calm -- 30.14 in1020.7 mb 0.00 in0.0 mm 0.00 in/hr0.0 mm/hr 0.00 in0.0 mm
02:49 AM 7.3°F-13.7°C -6.6°F-21.4°C 52% Calm Calm -- 30.14 in1020.7 mb 0.00 in0.0 mm 0.00 in/hr0.0 mm/hr 0.00 in0.0 mm
02:48 AM 7.2°F-13.8°C -6.7°F-21.5°C 52% Calm Calm -- 30.14 in1020.7 mb 0.00 in0.0 mm 0.00 in/hr0.0 mm/hr 0.00 in0.0 mm
02:47 AM 7.2°F-13.8°C -6.7°F-21.5°C 52% Calm Calm -- 30.14 in1020.7 mb 0.00 in0.0 mm 0.00 in/hr0.0 mm/hr 0.00 in0.0 mm
02:46 AM 7.2°F-13.8°C -6.7°F-21.5°C 52% Calm Calm -- 30.15 in1021.0 mb 0.00 in0.0 mm 0.00 in/hr0.0 mm/hr 0.00 in0.0 mm
02:45 AM 7.2°F-13.8°C -6.7°F-21.5°C 52% Calm Calm -- 30.14 in1020.7 mb 0.00 in0.0 mm 0.00 in/hr0.0 mm/hr 0.00 in0.0 mm
02:44 AM 7.2°F-13.8°C -6.7°F-21.5°C 52% Calm Calm -- 30.14 in1020.7 mb 0.00 in0.0 mm 0.00 in/hr0.0 mm/hr 0.00 in0.0 mm
02:43 AM 7.2°F-13.8°C -6.7°F-21.5°C 52% Calm Calm -- 30.14 in1020.7 mb 0.00 in0.0 mm 0.00 in/hr0.0 mm/hr 0.00 in0.0 mm
02:42 AM 7.7°F-13.5°C -6.2°F-21.2°C 52% Calm Calm -- 30.14 in1020.7 mb 0.00 in0.0 mm 0.00 in/hr0.0 mm/hr 0.00 in0.0 mm
02:41 AM 7.7°F-13.5°C -6.2°F-21.2°C 52% Calm Calm -- 30.14 in1020.7 mb 0.00 in0.0 mm 0.00 in/hr0.0 mm/hr 0.00 in0.0 mm
02:40 AM 7.9°F-13.4°C -6.1°F-21.2°C 52% Calm Calm -- 30.14 in1020.7 mb 0.00 in0.0 mm 0.00 in/hr0.0 mm/hr 0.00 in0.0 mm
02:39 AM 7.9°F-13.4°C -6.1°F-21.2°C 52% Calm Calm -- 30.14 in1020.7 mb 0.00 in0.0 mm 0.00 in/hr0.0 mm/hr 0.00 in0.0 mm
02:38 AM 8.1°F-13.3°C -5.9°F-21.1°C 52% Calm Calm -- 30.14 in1020.7 mb 0.00 in0.0 mm 0.00 in/hr0.0 mm/hr 0.00 in0.0 mm
02:37 AM 8.1°F-13.3°C -5.9°F-21.1°C 52% Calm Calm -- 30.13 in1020.3 mb 0.00 in0.0 mm 0.00 in/hr0.0 mm/hr 0.00 in0.0 mm
02:36 AM 8.1°F-13.3°C -5.9°F-21.1°C 52% Calm Calm -- 30.13 in1020.3 mb 0.00 in0.0 mm 0.00 in/hr0.0 mm/hr 0.00 in0.0 mm
02:35 AM 8.1°F-13.3°C -5.9°F-21.1°C 52% Calm Calm -- 30.14 in1020.7 mb 0.00 in0.0 mm 0.00 in/hr0.0 mm/hr 0.00 in0.0 mm
02:34 AM 8.2°F-13.2°C -5.7°F-20.9°C 52% 0.1 mph WSW0.2 kmh WSW 1.6 mph2.6 kmh 30.14 in1020.7 mb 0.00 in0.0 mm 0.00 in/hr0.0 mm/hr 0.00 in0.0 mm
02:33 AM 8.2°F-13.2°C -5.7°F-20.9°C 52% 0.2 mph SW0.3 kmh SW 1.6 mph2.6 kmh 30.14 in1020.7 mb 0.00 in0.0 mm 0.00 in/hr0.0 mm/hr 0.00 in0.0 mm
02:32 AM 8.2°F-13.2°C -5.7°F-20.9°C 52% 0.3 mph SW0.5 kmh SW 1.6 mph2.6 kmh 30.14 in1020.7 mb 0.00 in0.0 mm 0.00 in/hr0.0 mm/hr 0.00 in0.0 mm
02:31 AM 8.2°F-13.2°C -5.7°F-20.9°C 52% 0.4 mph SW0.6 kmh SW 1.6 mph2.6 kmh 30.13 in1020.3 mb 0.00 in0.0 mm 0.00 in/hr0.0 mm/hr 0.00 in0.0 mm
02:30 AM 8.4°F-13.1°C -5.6°F-20.9°C 52% 0.4 mph SW0.6 kmh SW 1.6 mph2.6 kmh 30.13 in1020.3 mb 0.00 in0.0 mm 0.00 in/hr0.0 mm/hr 0.00 in0.0 mm
02:29 AM 8.4°F-13.1°C -5.6°F-20.9°C 52% 0.4 mph SW0.6 kmh SW 1.6 mph2.6 kmh 30.13 in1020.3 mb 0.00 in0.0 mm 0.00 in/hr0.0 mm/hr 0.00 in0.0 mm
02:28 AM 8.2°F-13.2°C -5.7°F-20.9°C 52% 0.4 mph SW0.6 kmh SW 1.6 mph2.6 kmh 30.14 in1020.7 mb 0.00 in0.0 mm 0.00 in/hr0.0 mm/hr 0.00 in0.0 mm
02:27 AM 8.2°F-13.2°C -5.7°F-20.9°C 52% 0.4 mph SW0.6 kmh SW 1.6 mph2.6 kmh 30.14 in1020.7 mb 0.00 in0.0 mm 0.00 in/hr0.0 mm/hr 0.00 in0.0 mm
02:26 AM 8.1°F-13.3°C -5.9°F-21.1°C 52% 0.4 mph SW0.6 kmh SW 1.6 mph2.6 kmh 30.14 in1020.7 mb 0.00 in0.0 mm 0.00 in/hr0.0 mm/hr 0.00 in0.0 mm
02:25 AM 8.1°F-13.3°C -6.3°F-21.3°C 51% 0.4 mph SW0.6 kmh SW 1.6 mph2.6 kmh 30.13 in1020.3 mb 0.00 in0.0 mm 0.00 in/hr0.0 mm/hr 0.00 in0.0 mm
02:24 AM 8.1°F-13.3°C -6.3°F-21.3°C 51% 0.3 mph SSW0.5 kmh SSW 1.6 mph2.6 kmh 30.14 in1020.7 mb 0.00 in0.0 mm 0.00 in/hr0.0 mm/hr 0.00 in0.0 mm
02:23 AM 8.1°F-13.3°C -6.3°F-21.3°C 51% 0.2 mph SSW0.3 kmh SSW 1.6 mph2.6 kmh 30.13 in1020.3 mb 0.00 in0.0 mm 0.00 in/hr0.0 mm/hr 0.00 in0.0 mm
02:22 AM 8.1°F-13.3°C -6.3°F-21.3°C 51% 0.1 mph S0.2 kmh S 0.8 mph1.3 kmh 30.13 in1020.3 mb 0.00 in0.0 mm 0.00 in/hr0.0 mm/hr 0.00 in0.0 mm
02:21 AM 8.1°F-13.3°C -6.3°F-21.3°C 51% 0.1 mph S0.2 kmh S 0.8 mph1.3 kmh 30.13 in1020.3 mb 0.00 in0.0 mm 0.00 in/hr0.0 mm/hr 0.00 in0.0 mm
02:20 AM 8.1°F-13.3°C -6.3°F-21.3°C 51% 0.1 mph S0.2 kmh S 0.8 mph1.3 kmh 30.13 in1020.3 mb 0.00 in0.0 mm 0.00 in/hr0.0 mm/hr 0.00 in0.0 mm
02:19 AM 8.1°F-13.3°C -6.3°F-21.3°C 51% 0.1 mph S0.2 kmh S 0.8 mph1.3 kmh 30.13 in1020.3 mb 0.00 in0.0 mm 0.00 in/hr0.0 mm/hr 0.00 in0.0 mm
02:18 AM 8.1°F-13.3°C -6.3°F-21.3°C 51% 0.1 mph S0.2 kmh S 0.8 mph1.3 kmh 30.13 in1020.3 mb 0.00 in0.0 mm 0.00 in/hr0.0 mm/hr 0.00 in0.0 mm
02:17 AM 8.2°F-13.2°C -6.2°F-21.2°C 51% 0.1 mph S0.2 kmh S 0.8 mph1.3 kmh 30.13 in1020.3 mb 0.00 in0.0 mm 0.00 in/hr0.0 mm/hr 0.00 in0.0 mm
02:16 AM 8.1°F-13.3°C -6.3°F-21.3°C 51% Calm Calm 0.8 mph1.3 kmh 30.14 in1020.7 mb 0.00 in0.0 mm 0.00 in/hr0.0 mm/hr 0.00 in0.0 mm
02:15 AM 8.1°F-13.3°C -6.3°F-21.3°C 51% Calm Calm -- 30.14 in1020.7 mb 0.00 in0.0 mm 0.00 in/hr0.0 mm/hr 0.00 in0.0 mm
02:14 AM 8.1°F-13.3°C -6.3°F-21.3°C 51% Calm Calm -- 30.13 in1020.3 mb 0.00 in0.0 mm 0.00 in/hr0.0 mm/hr 0.00 in0.0 mm
02:13 AM 8.1°F-13.3°C -6.3°F-21.3°C 51% Calm Calm -- 30.14 in1020.7 mb 0.00 in0.0 mm 0.00 in/hr0.0 mm/hr 0.00 in0.0 mm
02:12 AM 8.1°F-13.3°C -6.3°F-21.3°C 51% Calm Calm -- 30.14 in1020.7 mb 0.00 in0.0 mm 0.00 in/hr0.0 mm/hr 0.00 in0.0 mm
02:11 AM 8.2°F-13.2°C -6.2°F-21.2°C 51% Calm Calm -- 30.14 in1020.7 mb 0.00 in0.0 mm 0.00 in/hr0.0 mm/hr 0.00 in0.0 mm
02:10 AM 8.2°F-13.2°C -6.2°F-21.2°C 51% Calm Calm 0.8 mph1.3 kmh 30.14 in1020.7 mb 0.00 in0.0 mm 0.00 in/hr0.0 mm/hr 0.00 in0.0 mm
02:09 AM 8.2°F-13.2°C -6.2°F-21.2°C 51% 0.1 mph S0.2 kmh S 1.6 mph2.6 kmh 30.14 in1020.7 mb 0.00 in0.0 mm 0.00 in/hr0.0 mm/hr 0.00 in0.0 mm
02:08 AM 8.2°F-13.2°C -6.2°F-21.2°C 51% 0.2 mph S0.3 kmh S 1.6 mph2.6 kmh 30.14 in1020.7 mb 0.00 in0.0 mm 0.00 in/hr0.0 mm/hr 0.00 in0.0 mm
02:07 AM 8.2°F-13.2°C -6.2°F-21.2°C 51% 0.2 mph S0.3 kmh S 1.6 mph2.6 kmh 30.14 in1020.7 mb 0.00 in0.0 mm 0.00 in/hr0.0 mm/hr 0.00 in0.0 mm
02:06 AM 8.4°F-13.1°C -6.0°F-21.1°C 51% 0.2 mph S0.3 kmh S 1.6 mph2.6 kmh 30.14 in1020.7 mb 0.00 in0.0 mm 0.00 in/hr0.0 mm/hr 0.00 in0.0 mm
02:05 AM 8.4°F-13.1°C -6.0°F-21.1°C 51% 0.2 mph S0.3 kmh S 1.6 mph2.6 kmh 30.14 in1020.7 mb 0.00 in0.0 mm 0.00 in/hr0.0 mm/hr 0.00 in0.0 mm
02:04 AM 8.4°F-13.1°C -6.0°F-21.1°C 51% 0.3 mph S0.5 kmh S 1.6 mph2.6 kmh 30.14 in1020.7 mb 0.00 in0.0 mm 0.00 in/hr0.0 mm/hr 0.00 in0.0 mm
02:03 AM 8.4°F-13.1°C -6.0°F-21.1°C 51% 0.4 mph S0.6 kmh S 1.6 mph2.6 kmh 30.14 in1020.7 mb 0.00 in0.0 mm 0.00 in/hr0.0 mm/hr 0.00 in0.0 mm
02:02 AM 8.6°F-13.0°C -6.3°F-21.3°C 50% 0.4 mph S0.6 kmh S 1.6 mph2.6 kmh 30.15 in1021.0 mb 0.00 in0.0 mm 0.00 in/hr0.0 mm/hr 0.00 in0.0 mm
02:01 AM 8.6°F-13.0°C -6.3°F-21.3°C 50% 0.4 mph S0.6 kmh S 1.6 mph2.6 kmh 30.15 in1021.0 mb 0.00 in0.0 mm 0.00 in/hr0.0 mm/hr 0.00 in0.0 mm
02:00 AM 8.8°F-12.9°C -6.1°F-21.2°C 50% 0.3 mph S0.5 kmh S 1.6 mph2.6 kmh 30.15 in1021.0 mb 0.00 in0.0 mm 0.00 in/hr0.0 mm/hr 0.00 in0.0 mm
01:59 AM 8.8°F-12.9°C -6.1°F-21.2°C 50% 0.2 mph S0.3 kmh S 1.6 mph2.6 kmh 30.15 in1021.0 mb 0.00 in0.0 mm 0.00 in/hr0.0 mm/hr 0.00 in0.0 mm
01:58 AM 8.8°F-12.9°C -6.1°F-21.2°C 50% 0.2 mph S0.3 kmh S 1.6 mph2.6 kmh 30.15 in1021.0 mb 0.00 in0.0 mm 0.00 in/hr0.0 mm/hr 0.00 in0.0 mm
01:57 AM 8.8°F-12.9°C -6.1°F-21.2°C 50% 0.2 mph S0.3 kmh S 1.6 mph2.6 kmh 30.15 in1021.0 mb 0.00 in0.0 mm 0.00 in/hr0.0 mm/hr 0.00 in0.0 mm
01:56 AM 8.8°F-12.9°C -6.1°F-21.2°C 50% 0.2 mph S0.3 kmh S 1.6 mph2.6 kmh 30.15 in1021.0 mb 0.00 in0.0 mm 0.00 in/hr0.0 mm/hr 0.00 in0.0 mm
01:55 AM 8.8°F-12.9°C -6.1°F-21.2°C 50% 0.2 mph S0.3 kmh S 1.6 mph2.6 kmh 30.15 in1021.0 mb 0.00 in0.0 mm 0.00 in/hr0.0 mm/hr 0.00 in0.0 mm
01:54 AM 8.8°F-12.9°C -6.1°F-21.2°C 50% Calm Calm 1.6 mph2.6 kmh 30.15 in1021.0 mb 0.00 in0.0 mm 0.00 in/hr0.0 mm/hr 0.00 in0.0 mm
01:53 AM 8.8°F-12.9°C -6.1°F-21.2°C 50% Calm Calm -- 30.15 in1021.0 mb 0.00 in0.0 mm 0.00 in/hr0.0 mm/hr 0.00 in0.0 mm
01:52 AM 8.8°F-12.9°C -6.1°F-21.2°C 50% 0.1 mph S0.2 kmh S 0.8 mph1.3 kmh 30.15 in1021.0 mb 0.00 in0.0 mm 0.00 in/hr0.0 mm/hr 0.00 in0.0 mm
01:51 AM 9.0°F-12.8°C -5.9°F-21.1°C 50% 0.2 mph S0.3 kmh S 1.6 mph2.6 kmh 30.16 in1021.3 mb 0.00 in0.0 mm 0.00 in/hr0.0 mm/hr 0.00 in0.0 mm
01:50 AM 9.0°F-12.8°C -5.9°F-21.1°C 50% 0.3 mph SSW0.5 kmh SSW 1.6 mph2.6 kmh 30.15 in1021.0 mb 0.00 in0.0 mm 0.00 in/hr0.0 mm/hr 0.00 in0.0 mm
01:49 AM 8.8°F-12.9°C -6.5°F-21.4°C 49% 0.3 mph SSW0.5 kmh SSW 1.6 mph2.6 kmh 30.15 in1021.0 mb 0.00 in0.0 mm 0.00 in/hr0.0 mm/hr 0.00 in0.0 mm
01:48 AM 8.8°F-12.9°C -6.5°F-21.4°C 49% 0.3 mph SSW0.5 kmh SSW 1.6 mph2.6 kmh 30.15 in1021.0 mb 0.00 in0.0 mm 0.00 in/hr0.0 mm/hr 0.00 in0.0 mm
01:47 AM 8.8°F-12.9°C -6.5°F-21.4°C 49% 0.3 mph SSW0.5 kmh SSW 1.6 mph2.6 kmh 30.15 in1021.0 mb 0.00 in0.0 mm 0.00 in/hr0.0 mm/hr 0.00 in0.0 mm
01:46 AM 8.8°F-12.9°C -6.5°F-21.4°C 49% 0.3 mph SSW0.5 kmh SSW 1.6 mph2.6 kmh 30.14 in1020.7 mb 0.00 in0.0 mm 0.00 in/hr0.0 mm/hr 0.00 in0.0 mm
01:45 AM 8.6°F-13.0°C -6.7°F-21.5°C 49% 0.3 mph SSW0.5 kmh SSW 1.6 mph2.6 kmh 30.15 in1021.0 mb 0.00 in0.0 mm 0.00 in/hr0.0 mm/hr 0.00 in0.0 mm
01:44 AM 8.6°F-13.0°C -6.7°F-21.5°C 49% 0.3 mph SSW0.5 kmh SSW 1.6 mph2.6 kmh 30.14 in1020.7 mb 0.00 in0.0 mm 0.00 in/hr0.0 mm/hr 0.00 in0.0 mm
01:43 AM 8.8°F-12.9°C -6.5°F-21.4°C 49% 0.3 mph SSW0.5 kmh SSW 1.6 mph2.6 kmh 30.15 in1021.0 mb 0.00 in0.0 mm 0.00 in/hr0.0 mm/hr 0.00 in0.0 mm
01:42 AM 9.0°F-12.8°C -6.4°F-21.3°C 49% 0.2 mph SSW0.3 kmh SSW 1.6 mph2.6 kmh 30.15 in1021.0 mb 0.00 in0.0 mm 0.00 in/hr0.0 mm/hr 0.00 in0.0 mm
01:41 AM 8.8°F-12.9°C -6.5°F-21.4°C 49% 0.1 mph W0.2 kmh W 0.8 mph1.3 kmh 30.15 in1021.0 mb 0.00 in0.0 mm 0.00 in/hr0.0 mm/hr 0.00 in0.0 mm
01:40 AM 8.8°F-12.9°C -6.5°F-21.4°C 49% Calm Calm -- 30.14 in1020.7 mb 0.00 in0.0 mm 0.00 in/hr0.0 mm/hr 0.00 in0.0 mm
01:39 AM 8.8°F-12.9°C -6.5°F-21.4°C 49% Calm Calm -- 30.14 in1020.7 mb 0.00 in0.0 mm 0.00 in/hr0.0 mm/hr 0.00 in0.0 mm
01:38 AM 8.8°F-12.9°C -6.5°F-21.4°C 49% Calm Calm -- 30.14 in1020.7 mb 0.00 in0.0 mm 0.00 in/hr0.0 mm/hr 0.00 in0.0 mm
01:37 AM 8.8°F-12.9°C -6.5°F-21.4°C 49% Calm Calm -- 30.13 in1020.3 mb 0.00 in0.0 mm 0.00 in/hr0.0 mm/hr 0.00 in0.0 mm
01:36 AM 8.8°F-12.9°C -6.5°F-21.4°C 49% Calm Calm -- 30.14 in1020.7 mb 0.00 in0.0 mm 0.00 in/hr0.0 mm/hr 0.00 in0.0 mm
01:35 AM 8.8°F-12.9°C -6.5°F-21.4°C 49% Calm Calm -- 30.13 in1020.3 mb 0.00 in0.0 mm 0.00 in/hr0.0 mm/hr 0.00 in0.0 mm
01:34 AM 8.8°F-12.9°C -6.5°F-21.4°C 49% 0.1 mph SW0.2 kmh SW 1.6 mph2.6 kmh 30.14 in1020.7 mb 0.00 in0.0 mm 0.00 in/hr0.0 mm/hr 0.00 in0.0 mm
01:33 AM 9.0°F-12.8°C -6.4°F-21.3°C 49% 0.2 mph WSW0.3 kmh WSW 1.6 mph2.6 kmh 30.14 in1020.7 mb 0.00 in0.0 mm 0.00 in/hr0.0 mm/hr 0.00 in0.0 mm
01:32 AM 9.0°F-12.8°C -6.4°F-21.3°C 49% 0.2 mph WSW0.3 kmh WSW 1.6 mph2.6 kmh 30.14 in1020.7 mb 0.00 in0.0 mm 0.00 in/hr0.0 mm/hr 0.00 in0.0 mm
01:31 AM 9.0°F-12.8°C -6.8°F-21.6°C 48% 0.2 mph WSW0.3 kmh WSW 1.6 mph2.6 kmh 30.14 in1020.7 mb 0.00 in0.0 mm 0.00 in/hr0.0 mm/hr 0.00 in0.0 mm
01:30 AM 9.0°F-12.8°C -6.8°F-21.6°C 48% 0.2 mph WSW0.3 kmh WSW 1.6 mph2.6 kmh 30.13 in1020.3 mb 0.00 in0.0 mm 0.00 in/hr0.0 mm/hr 0.00 in0.0 mm
01:29 AM 9.0°F-12.8°C -6.8°F-21.6°C 48% 0.2 mph WSW0.3 kmh WSW 1.6 mph2.6 kmh 30.13 in1020.3 mb 0.00 in0.0 mm 0.00 in/hr0.0 mm/hr 0.00 in0.0 mm
01:28 AM 9.0°F-12.8°C -6.8°F-21.6°C 48% 0.2 mph WSW0.3 kmh WSW 1.6 mph2.6 kmh 30.13 in1020.3 mb 0.00 in0.0 mm 0.00 in/hr0.0 mm/hr 0.00 in0.0 mm
01:27 AM 9.1°F-12.7°C -6.6°F-21.4°C 48% 0.2 mph WSW0.3 kmh WSW 1.6 mph2.6 kmh 30.13 in1020.3 mb 0.00 in0.0 mm 0.00 in/hr0.0 mm/hr 0.00 in0.0 mm
01:26 AM 9.3°F-12.6°C -6.5°F-21.4°C 48% 0.3 mph SSW0.5 kmh SSW 2.4 mph3.9 kmh 30.13 in1020.3 mb 0.00 in0.0 mm 0.00 in/hr0.0 mm/hr 0.00 in0.0 mm
01:25 AM 9.3°F-12.6°C -6.5°F-21.4°C 48% 0.5 mph SSW0.8 kmh SSW 2.4 mph3.9 kmh 30.13 in1020.3 mb 0.00 in0.0 mm 0.00 in/hr0.0 mm/hr 0.00 in0.0 mm
01:24 AM 9.3°F-12.6°C -6.5°F-21.4°C 48% 0.4 mph SSW0.6 kmh SSW 2.4 mph3.9 kmh 30.13 in1020.3 mb 0.00 in0.0 mm 0.00 in/hr0.0 mm/hr 0.00 in0.0 mm
01:23 AM 9.3°F-12.6°C -6.5°F-21.4°C 48% 0.3 mph S0.5 kmh S 2.4 mph3.9 kmh 30.12 in1020.0 mb 0.00 in0.0 mm 0.00 in/hr0.0 mm/hr 0.00 in0.0 mm
01:22 AM 9.5°F-12.5°C -6.3°F-21.3°C 48% 0.4 mph S0.6 kmh S 2.4 mph3.9 kmh 30.12 in1020.0 mb 0.00 in0.0 mm 0.00 in/hr0.0 mm/hr 0.00 in0.0 mm
01:21 AM 9.7°F-12.4°C -6.2°F-21.2°C 48% 0.5 mph S0.8 kmh S 2.4 mph3.9 kmh 30.13 in1020.3 mb 0.00 in0.0 mm 0.00 in/hr0.0 mm/hr 0.00 in0.0 mm
01:20 AM 9.7°F-12.4°C -6.2°F-21.2°C 48% 0.5 mph S0.8 kmh S 2.4 mph3.9 kmh 30.12 in1020.0 mb 0.00 in0.0 mm 0.00 in/hr0.0 mm/hr 0.00 in0.0 mm
01:19 AM 9.9°F-12.3°C -6.0°F-21.1°C 48% 0.5 mph S0.8 kmh S 2.4 mph3.9 kmh 30.12 in1020.0 mb 0.00 in0.0 mm 0.00 in/hr0.0 mm/hr 0.00 in0.0 mm
01:18 AM 9.9°F-12.3°C -6.0°F-21.1°C 48% 0.6 mph S1.0 kmh S 2.4 mph3.9 kmh 30.12 in1020.0 mb 0.00 in0.0 mm 0.00 in/hr0.0 mm/hr 0.00 in0.0 mm
01:17 AM 10.0°F-12.2°C -5.8°F-21.0°C 48% 0.7 mph S1.1 kmh S 2.4 mph3.9 kmh 30.11 in1019.6 mb 0.00 in0.0 mm 0.00 in/hr0.0 mm/hr 0.00 in0.0 mm
01:16 AM 9.9°F-12.3°C -6.0°F-21.1°C 48% 0.6 mph SSW1.0 kmh SSW 2.4 mph3.9 kmh 30.11 in1019.6 mb 0.00 in0.0 mm 0.00 in/hr0.0 mm/hr 0.00 in0.0 mm
01:15 AM 9.9°F-12.3°C -6.0°F-21.1°C 48% 0.5 mph SW0.8 kmh SW 1.6 mph2.6 kmh 30.11 in1019.6 mb 0.00 in0.0 mm 0.00 in/hr0.0 mm/hr 0.00 in0.0 mm
01:14 AM 10.0°F-12.2°C -5.8°F-21.0°C 48% 0.6 mph SW1.0 kmh SW 1.6 mph2.6 kmh 30.11 in1019.6 mb 0.00 in0.0 mm 0.00 in/hr0.0 mm/hr 0.00 in0.0 mm
01:13 AM 9.9°F-12.3°C -6.0°F-21.1°C 48% 0.7 mph SW1.1 kmh SW 1.6 mph2.6 kmh 30.11 in1019.6 mb 0.00 in0.0 mm 0.00 in/hr0.0 mm/hr 0.00 in0.0 mm
01:12 AM 9.9°F-12.3°C -6.0°F-21.1°C 48% 0.6 mph WSW1.0 kmh WSW 1.6 mph2.6 kmh 30.11 in1019.6 mb 0.00 in0.0 mm 0.00 in/hr0.0 mm/hr 0.00 in0.0 mm
01:11 AM 9.9°F-12.3°C -6.0°F-21.1°C 48% 0.6 mph WSW1.0 kmh WSW 1.6 mph2.6 kmh 30.11 in1019.6 mb 0.00 in0.0 mm 0.00 in/hr0.0 mm/hr 0.00 in0.0 mm
01:10 AM 9.9°F-12.3°C -6.0°F-21.1°C 48% 0.7 mph WSW1.1 kmh WSW 1.6 mph2.6 kmh 30.11 in1019.6 mb 0.00 in0.0 mm 0.00 in/hr0.0 mm/hr 0.00 in0.0 mm
01:09 AM 9.9°F-12.3°C -6.0°F-21.1°C 48% 0.8 mph WSW1.3 kmh WSW 1.6 mph2.6 kmh 30.11 in1019.6 mb 0.00 in0.0 mm 0.00 in/hr0.0 mm/hr 0.00 in0.0 mm
01:08 AM 9.9°F-12.3°C -6.0°F-21.1°C 48% 0.8 mph WSW1.3 kmh WSW 1.6 mph2.6 kmh 30.11 in1019.6 mb 0.00 in0.0 mm 0.00 in/hr0.0 mm/hr 0.00 in0.0 mm
01:07 AM 10.0°F-12.2°C -5.8°F-21.0°C 48% 1.0 mph WSW1.6 kmh WSW 3.2 mph5.1 kmh 30.11 in1019.6 mb 0.00 in0.0 mm 0.00 in/hr0.0 mm/hr 0.00 in0.0 mm
01:06 AM 10.0°F-12.2°C -5.8°F-21.0°C 48% 1.0 mph WSW1.6 kmh WSW 3.2 mph5.1 kmh 30.11 in1019.6 mb 0.00 in0.0 mm 0.00 in/hr0.0 mm/hr 0.00 in0.0 mm
01:05 AM 10.0°F-12.2°C -5.8°F-21.0°C 48% 0.9 mph WSW1.4 kmh WSW 3.2 mph5.1 kmh 30.11 in1019.6 mb 0.00 in0.0 mm 0.00 in/hr0.0 mm/hr 0.00 in0.0 mm
01:04 AM 10.0°F-12.2°C -5.8°F-21.0°C 48% 0.9 mph WSW1.4 kmh WSW 3.2 mph5.1 kmh 30.11 in1019.6 mb 0.00 in0.0 mm 0.00 in/hr0.0 mm/hr 0.00 in0.0 mm
01:03 AM 10.0°F-12.2°C -5.8°F-21.0°C 48% 0.8 mph SW1.3 kmh SW 3.2 mph5.1 kmh 30.11 in1019.6 mb 0.00 in0.0 mm 0.00 in/hr0.0 mm/hr 0.00 in0.0 mm
01:02 AM 10.0°F-12.2°C -5.8°F-21.0°C 48% 0.7 mph SW1.1 kmh SW 3.2 mph5.1 kmh 30.11 in1019.6 mb 0.00 in0.0 mm 0.00 in/hr0.0 mm/hr 0.00 in0.0 mm
01:01 AM 10.0°F-12.2°C -5.8°F-21.0°C 48% 0.7 mph SW1.1 kmh SW 3.2 mph5.1 kmh 30.11 in1019.6 mb 0.00 in0.0 mm 0.00 in/hr0.0 mm/hr 0.00 in0.0 mm
01:00 AM 10.0°F-12.2°C -5.8°F-21.0°C 48% 0.6 mph SW1.0 kmh SW 3.2 mph5.1 kmh 30.11 in1019.6 mb 0.00 in0.0 mm 0.00 in/hr0.0 mm/hr 0.00 in0.0 mm
12:59 AM 10.0°F-12.2°C -5.8°F-21.0°C 48% 0.6 mph SW1.0 kmh SW 3.2 mph5.1 kmh 30.11 in1019.6 mb 0.00 in0.0 mm 0.00 in/hr0.0 mm/hr 0.00 in0.0 mm
12:58 AM 10.2°F-12.1°C -5.7°F-20.9°C 48% 0.6 mph SSW1.0 kmh SSW 3.2 mph5.1 kmh 30.11 in1019.6 mb 0.00 in0.0 mm 0.00 in/hr0.0 mm/hr 0.00 in0.0 mm
12:57 AM 10.0°F-12.2°C -5.8°F-21.0°C 48% 0.5 mph SSW0.8 kmh SSW 1.6 mph2.6 kmh 30.11 in1019.6 mb 0.00 in0.0 mm 0.00 in/hr0.0 mm/hr 0.00 in0.0 mm
12:56 AM 10.2°F-12.1°C -5.7°F-20.9°C 48% 0.5 mph SSW0.8 kmh SSW 1.6 mph2.6 kmh 30.11 in1019.6 mb 0.00 in0.0 mm 0.00 in/hr0.0 mm/hr 0.00 in0.0 mm
12:55 AM 10.2°F-12.1°C -5.7°F-20.9°C 48% 0.6 mph SW1.0 kmh SW 1.6 mph2.6 kmh 30.11 in1019.6 mb 0.00 in0.0 mm 0.00 in/hr0.0 mm/hr 0.00 in0.0 mm
12:54 AM 10.2°F-12.1°C -5.7°F-20.9°C 48% 0.8 mph SW1.3 kmh SW 4.0 mph6.4 kmh 30.11 in1019.6 mb 0.00 in0.0 mm 0.00 in/hr0.0 mm/hr 0.00 in0.0 mm
12:53 AM 10.2°F-12.1°C -5.7°F-20.9°C 48% 1.0 mph SW1.6 kmh SW 4.0 mph6.4 kmh 30.11 in1019.6 mb 0.00 in0.0 mm 0.00 in/hr0.0 mm/hr 0.00 in0.0 mm
12:52 AM 10.4°F-12.0°C -3.8°F-19.9°C 52% 1.1 mph SW1.8 kmh SW 4.0 mph6.4 kmh 30.11 in1019.6 mb 0.00 in0.0 mm 0.00 in/hr0.0 mm/hr 0.00 in0.0 mm
12:51 AM 10.4°F-12.0°C -3.8°F-19.9°C 52% 1.2 mph SW1.9 kmh SW 4.0 mph6.4 kmh 30.10 in1019.3 mb 0.00 in0.0 mm 0.00 in/hr0.0 mm/hr 0.00 in0.0 mm
12:50 AM 10.4°F-12.0°C -3.8°F-19.9°C 52% 1.2 mph SW1.9 kmh SW 4.0 mph6.4 kmh 30.10 in1019.3 mb 0.00 in0.0 mm 0.00 in/hr0.0 mm/hr 0.00 in0.0 mm
12:49 AM 10.4°F-12.0°C -3.8°F-19.9°C 52% 1.1 mph SW1.8 kmh SW 4.0 mph6.4 kmh 30.11 in1019.6 mb 0.00 in0.0 mm 0.00 in/hr0.0 mm/hr 0.00 in0.0 mm
12:48 AM 10.4°F-12.0°C -3.8°F-19.9°C 52% 1.0 mph SW1.6 kmh SW 4.0 mph6.4 kmh 30.11 in1019.6 mb 0.00 in0.0 mm 0.00 in/hr0.0 mm/hr 0.00 in0.0 mm
12:47 AM 10.4°F-12.0°C -3.8°F-19.9°C 52% 1.0 mph SW1.6 kmh SW 4.0 mph6.4 kmh 30.11 in1019.6 mb 0.00 in0.0 mm 0.00 in/hr0.0 mm/hr 0.00 in0.0 mm
12:46 AM 10.6°F-11.9°C -3.6°F-19.8°C 52% 0.9 mph SW1.4 kmh SW 4.0 mph6.4 kmh 30.11 in1019.6 mb 0.00 in0.0 mm 0.00 in/hr0.0 mm/hr 0.00 in0.0 mm
12:45 AM 10.6°F-11.9°C -3.6°F-19.8°C 52% 0.8 mph SW1.3 kmh SW 4.0 mph6.4 kmh 30.11 in1019.6 mb 0.00 in0.0 mm 0.00 in/hr0.0 mm/hr 0.00 in0.0 mm
12:44 AM 10.2°F-12.1°C -5.7°F-20.9°C 48% 0.7 mph SW1.1 kmh SW 4.0 mph6.4 kmh 30.11 in1019.6 mb 0.00 in0.0 mm 0.00 in/hr0.0 mm/hr 0.00 in0.0 mm
12:43 AM 10.2°F-12.1°C -5.7°F-20.9°C 48% 0.5 mph SSW0.8 kmh SSW 1.6 mph2.6 kmh 30.11 in1019.6 mb 0.00 in0.0 mm 0.00 in/hr0.0 mm/hr 0.00 in0.0 mm
12:42 AM 10.2°F-12.1°C -5.7°F-20.9°C 48% 0.5 mph WSW0.8 kmh WSW 1.6 mph2.6 kmh 30.11 in1019.6 mb 0.00 in0.0 mm 0.00 in/hr0.0 mm/hr 0.00 in0.0 mm
12:41 AM 10.2°F-12.1°C -5.7°F-20.9°C 48% 0.4 mph WSW0.6 kmh WSW 1.6 mph2.6 kmh 30.11 in1019.6 mb 0.00 in0.0 mm 0.00 in/hr0.0 mm/hr 0.00 in0.0 mm
12:40 AM 10.0°F-12.2°C -5.8°F-21.0°C 48% 0.5 mph SW0.8 kmh SW 1.6 mph2.6 kmh 30.11 in1019.6 mb 0.00 in0.0 mm 0.00 in/hr0.0 mm/hr 0.00 in0.0 mm
12:39 AM 10.2°F-12.1°C -5.7°F-20.9°C 48% 0.6 mph SW1.0 kmh SW 1.6 mph2.6 kmh 30.11 in1019.6 mb 0.00 in0.0 mm 0.00 in/hr0.0 mm/hr 0.00 in0.0 mm
12:38 AM 10.2°F-12.1°C -5.7°F-20.9°C 48% 0.8 mph SW1.3 kmh SW 2.4 mph3.9 kmh 30.11 in1019.6 mb 0.00 in0.0 mm 0.00 in/hr0.0 mm/hr 0.00 in0.0 mm
12:37 AM 10.2°F-12.1°C -5.7°F-20.9°C 48% 0.9 mph SW1.4 kmh SW 2.4 mph3.9 kmh 30.11 in1019.6 mb 0.00 in0.0 mm 0.00 in/hr0.0 mm/hr 0.00 in0.0 mm
12:36 AM 10.0°F-12.2°C -5.8°F-21.0°C 48% 1.1 mph SW1.8 kmh SW 2.4 mph3.9 kmh 30.11 in1019.6 mb 0.00 in0.0 mm 0.00 in/hr0.0 mm/hr 0.00 in0.0 mm
12:35 AM 10.2°F-12.1°C -5.7°F-20.9°C 48% 1.3 mph SW2.1 kmh SW 2.4 mph3.9 kmh 30.11 in1019.6 mb 0.00 in0.0 mm 0.00 in/hr0.0 mm/hr 0.00 in0.0 mm
12:34 AM 10.2°F-12.1°C -5.7°F-20.9°C 48% 1.5 mph SW2.4 kmh SW 2.4 mph3.9 kmh 30.11 in1019.6 mb 0.00 in0.0 mm 0.00 in/hr0.0 mm/hr 0.00 in0.0 mm
12:33 AM 10.4°F-12.0°C -3.8°F-19.9°C 52% 1.6 mph SW2.6 kmh SW 2.4 mph3.9 kmh 30.11 in1019.6 mb 0.00 in0.0 mm 0.00 in/hr0.0 mm/hr 0.00 in0.0 mm
12:32 AM 10.4°F-12.0°C -3.8°F-19.9°C 52% 1.6 mph SW2.6 kmh SW 2.4 mph3.9 kmh 30.11 in1019.6 mb 0.00 in0.0 mm 0.00 in/hr0.0 mm/hr 0.00 in0.0 mm
12:31 AM 10.4°F-12.0°C -3.8°F-19.9°C 52% 1.6 mph SW2.6 kmh SW 2.4 mph3.9 kmh 30.11 in1019.6 mb 0.00 in0.0 mm 0.00 in/hr0.0 mm/hr 0.00 in0.0 mm
12:30 AM 10.6°F-11.9°C -3.6°F-19.8°C 52% 1.5 mph SW2.4 kmh SW 2.4 mph3.9 kmh 30.11 in1019.6 mb 0.00 in0.0 mm 0.00 in/hr0.0 mm/hr 0.00 in0.0 mm
12:29 AM 10.6°F-11.9°C -3.6°F-19.8°C 52% 1.4 mph SW2.3 kmh SW 2.4 mph3.9 kmh 30.11 in1019.6 mb 0.00 in0.0 mm 0.00 in/hr0.0 mm/hr 0.00 in0.0 mm
12:28 AM 10.6°F-11.9°C -3.6°F-19.8°C 52% 1.2 mph WSW1.9 kmh WSW 2.4 mph3.9 kmh 30.11 in1019.6 mb 0.00 in0.0 mm 0.00 in/hr0.0 mm/hr 0.00 in0.0 mm
12:27 AM 10.6°F-11.9°C -3.6°F-19.8°C 52% 1.0 mph SW1.6 kmh SW 2.4 mph3.9 kmh 30.12 in1020.0 mb 0.00 in0.0 mm 0.00 in/hr0.0 mm/hr 0.00 in0.0 mm
12:26 AM 10.6°F-11.9°C -3.6°F-19.8°C 52% 1.0 mph SW1.6 kmh SW 2.4 mph3.9 kmh 30.11 in1019.6 mb 0.00 in0.0 mm 0.00 in/hr0.0 mm/hr 0.00 in0.0 mm
12:25 AM 10.6°F-11.9°C -3.6°F-19.8°C 52% 0.9 mph SW1.4 kmh SW 2.4 mph3.9 kmh 30.11 in1019.6 mb 0.00 in0.0 mm 0.00 in/hr0.0 mm/hr 0.00 in0.0 mm
12:24 AM 10.4°F-12.0°C -3.8°F-19.9°C 52% 0.7 mph SW1.1 kmh SW 1.6 mph2.6 kmh 30.11 in1019.6 mb 0.00 in0.0 mm 0.00 in/hr0.0 mm/hr 0.00 in0.0 mm
12:23 AM 10.2°F-12.1°C -5.7°F-20.9°C 48% 0.6 mph SW1.0 kmh SW 1.6 mph2.6 kmh 30.11 in1019.6 mb 0.00 in0.0 mm 0.00 in/hr0.0 mm/hr 0.00 in0.0 mm
12:22 AM 10.2°F-12.1°C -5.7°F-20.9°C 48% 0.4 mph SW0.6 kmh SW 1.6 mph2.6 kmh 30.12 in1020.0 mb 0.00 in0.0 mm 0.00 in/hr0.0 mm/hr 0.00 in0.0 mm
12:21 AM 10.4°F-12.0°C -3.8°F-19.9°C 52% 0.4 mph SW0.6 kmh SW 1.6 mph2.6 kmh 30.12 in1020.0 mb 0.00 in0.0 mm 0.00 in/hr0.0 mm/hr 0.00 in0.0 mm
12:20 AM 10.4°F-12.0°C -3.8°F-19.9°C 52% 0.4 mph SW0.6 kmh SW 1.6 mph2.6 kmh 30.12 in1020.0 mb 0.00 in0.0 mm 0.00 in/hr0.0 mm/hr 0.00 in0.0 mm
12:19 AM 10.4°F-12.0°C -3.8°F-19.9°C 52% 0.4 mph SW0.6 kmh SW 1.6 mph2.6 kmh 30.12 in1020.0 mb 0.00 in0.0 mm 0.00 in/hr0.0 mm/hr 0.00 in0.0 mm
12:18 AM 10.4°F-12.0°C -3.8°F-19.9°C 52% 0.4 mph SW0.6 kmh SW 1.6 mph2.6 kmh 30.11 in1019.6 mb 0.00 in0.0 mm 0.00 in/hr0.0 mm/hr 0.00 in0.0 mm
12:17 AM 10.4°F-12.0°C -3.8°F-19.9°C 52% 0.3 mph WSW0.5 kmh WSW 1.6 mph2.6 kmh 30.12 in1020.0 mb 0.00 in0.0 mm 0.00 in/hr0.0 mm/hr 0.00 in0.0 mm
12:16 AM 10.4°F-12.0°C -3.8°F-19.9°C 52% 0.2 mph W0.3 kmh W 1.6 mph2.6 kmh 30.12 in1020.0 mb 0.00 in0.0 mm 0.00 in/hr0.0 mm/hr 0.00 in0.0 mm
12:15 AM 10.2°F-12.1°C -5.7°F-20.9°C 48% Calm Calm 1.6 mph2.6 kmh 30.11 in1019.6 mb 0.00 in0.0 mm 0.00 in/hr0.0 mm/hr 0.00 in0.0 mm
12:14 AM 10.2°F-12.1°C -5.7°F-20.9°C 48% Calm Calm -- 30.12 in1020.0 mb 0.00 in0.0 mm 0.00 in/hr0.0 mm/hr 0.00 in0.0 mm
12:13 AM 10.4°F-12.0°C -3.8°F-19.9°C 52% Calm Calm -- 30.13 in1020.3 mb 0.00 in0.0 mm 0.00 in/hr0.0 mm/hr 0.00 in0.0 mm
12:12 AM 10.6°F-11.9°C -3.6°F-19.8°C 52% Calm Calm -- 30.11 in1019.6 mb 0.00 in0.0 mm 0.00 in/hr0.0 mm/hr 0.00 in0.0 mm
12:11 AM 10.6°F-11.9°C -3.6°F-19.8°C 52% Calm Calm -- 30.12 in1020.0 mb 0.00 in0.0 mm 0.00 in/hr0.0 mm/hr 0.00 in0.0 mm
12:10 AM 10.8°F-11.8°C -3.4°F-19.7°C 52% Calm Calm -- 30.12 in1020.0 mb 0.00 in0.0 mm 0.00 in/hr0.0 mm/hr 0.00 in0.0 mm
12:09 AM 10.6°F-11.9°C -3.6°F-19.8°C 52% Calm Calm -- 30.12 in1020.0 mb 0.00 in0.0 mm 0.00 in/hr0.0 mm/hr 0.00 in0.0 mm
12:08 AM 10.6°F-11.9°C -3.6°F-19.8°C 52% Calm Calm -- 30.11 in1019.6 mb 0.00 in0.0 mm 0.00 in/hr0.0 mm/hr 0.00 in0.0 mm
12:07 AM 10.6°F-11.9°C -3.6°F-19.8°C 52% Calm Calm -- 30.11 in1019.6 mb 0.00 in0.0 mm 0.00 in/hr0.0 mm/hr 0.00 in0.0 mm
12:06 AM 10.4°F-12.0°C -3.8°F-19.9°C 52% Calm Calm -- 30.11 in1019.6 mb 0.00 in0.0 mm 0.00 in/hr0.0 mm/hr 0.00 in0.0 mm
12:05 AM 10.4°F-12.0°C -3.8°F-19.9°C 52% Calm Calm -- 30.12 in1020.0 mb 0.00 in0.0 mm 0.00 in/hr0.0 mm/hr 0.00 in0.0 mm
12:04 AM 10.4°F-12.0°C -3.8°F-19.9°C 52% Calm Calm -- 30.12 in1020.0 mb 0.00 in0.0 mm 0.00 in/hr0.0 mm/hr 0.00 in0.0 mm
12:03 AM 10.4°F-12.0°C -3.8°F-19.9°C 52% Calm Calm -- 30.11 in1019.6 mb 0.00 in0.0 mm 0.00 in/hr0.0 mm/hr 0.00 in0.0 mm
12:02 AM 10.4°F-12.0°C -3.8°F-19.9°C 52% Calm Calm -- 30.12 in1020.0 mb 0.00 in0.0 mm 0.00 in/hr0.0 mm/hr 0.00 in0.0 mm
12:01 AM 10.4°F-12.0°C -3.8°F-19.9°C 52% Calm Calm -- 30.13 in1020.3 mb 0.00 in0.0 mm 0.00 in/hr0.0 mm/hr 0.00 in0.0 mm
12:00 AM 10.4°F-12.0°C -3.8°F-19.9°C 52% Calm Calm -- 30.13 in1020.3 mb 0.00 in0.0 mm 0.00 in/hr0.0 mm/hr 0.00 in0.0 mm